Provisional Data: Quittapahilla Creek near Syner, PA


Please select a monitoring station.
Please select start date.
Please select start date.

Toggle Unit: C/F Toggle Unit: C/F
Sample Time Temperature (C) Temperature (F) Specific Conductivity (mS/cm) pH   Turbidity (NTU+) DO (mg/L)
3/23/2021 12:00:00 AM 11.07 51.926 0.595 7.96 4.7 9.86
3/23/2021 12:15:00 AM 11.01 51.818 0.596 7.95 18.59 9.77
3/23/2021 12:30:00 AM 10.95 51.71 0.596 7.94 24.69 9.69
3/23/2021 12:45:00 AM 10.9 51.62 0.596 7.93 9.69 9.63
3/23/2021 1:00:00 AM 10.85 51.53 0.596 7.92 5.14 9.57
3/23/2021 1:15:00 AM 10.8 51.44 0.596 7.92 5.97 9.52
3/23/2021 1:30:00 AM 10.75 51.35 0.596 7.91 4.57 9.48
3/23/2021 1:45:00 AM 10.7 51.26 0.596 7.9 5.73 9.44
3/23/2021 2:00:00 AM 10.64 51.152 0.596 7.9 5.48 9.41
3/23/2021 2:15:00 AM 10.59 51.062 0.596 7.89 6.31 9.37
3/23/2021 2:30:00 AM 10.54 50.972 0.596 7.89 24.66 9.34
3/23/2021 2:45:00 AM 10.49 50.882 0.596 7.88 13.28 9.3
3/23/2021 3:00:00 AM 10.44 50.792 0.596 7.88 4 9.29
3/23/2021 3:15:00 AM 10.39 50.702 0.596 7.87 3.77 9.3
3/23/2021 3:30:00 AM 10.33 50.594 0.596 7.87 4.45 9.27
3/23/2021 3:45:00 AM 10.28 50.504 0.596 7.87 31.79 9.28
3/23/2021 4:00:00 AM 10.23 50.414 0.596 7.86 4.45 9.26
3/23/2021 4:15:00 AM 10.18 50.324 0.597 7.86 7.53 9.26
3/23/2021 4:30:00 AM 10.14 50.252 0.596 7.86 10.59 9.27
3/23/2021 4:45:00 AM 10.09 50.162 0.597 7.86 19.32 9.27
3/23/2021 5:00:00 AM 10.04 50.072 0.597 7.85 4.62 9.28
3/23/2021 5:15:00 AM 9.98 49.964 0.597 7.85 4.63 9.26
3/23/2021 5:30:00 AM 9.93 49.874 0.598 7.85 35.02 9.29
3/23/2021 5:45:00 AM 9.88 49.784 0.598 7.85 7.9 9.27
3/23/2021 6:00:00 AM 9.84 49.712 0.598 7.85 4.26 9.3
3/23/2021 6:15:00 AM 9.78 49.604 0.598 7.85 9.9 9.31
3/23/2021 6:30:00 AM 9.74 49.532 0.598 7.85 4.12 9.31
3/23/2021 6:45:00 AM 9.69 49.442 0.598 7.85 3.86 9.31
3/23/2021 7:00:00 AM 9.64 49.352 0.599 7.85 4.52 9.34
3/23/2021 7:15:00 AM 9.59 49.262 0.599 7.85 3.92 9.37
3/23/2021 7:30:00 AM 9.55 49.19 0.6 7.85 4.31 9.44
3/23/2021 7:45:00 AM 9.51 49.118 0.601 7.85 3.75 9.52
3/23/2021 8:00:00 AM 9.48 49.064 0.602 7.86 4.25 9.65
3/23/2021 8:15:00 AM 9.46 49.028 0.602 7.86 2.89 9.82
3/23/2021 8:30:00 AM 9.45 49.01 0.602 7.87 4.47 10.02
3/23/2021 8:45:00 AM 9.45 49.01 0.602 7.89 9.45 10.31
3/23/2021 9:00:00 AM 9.48 49.064 0.603 7.9 4.68 10.64
3/23/2021 9:15:00 AM 9.52 49.136 0.603 7.92 2.57 10.97
3/23/2021 9:30:00 AM 9.57 49.226 0.603 7.94 22.99 11.3
3/23/2021 9:45:00 AM 9.64 49.352 0.603 7.96 3.84 11.69
3/23/2021 10:00:00 AM 9.74 49.532 0.602 7.98 2.5 12.06
3/23/2021 10:15:00 AM 9.86 49.748 0.602 8 3.89 12.43
3/23/2021 10:30:00 AM 9.98 49.964 0.601 8.02 2.86 12.77
3/23/2021 10:45:00 AM 10.11 50.198 0.601 8.04 4.44 13.12
3/23/2021 11:00:00 AM 10.23 50.414 0.6 8.06 2.89 13.42
3/23/2021 11:15:00 AM 10.35 50.63 0.6 8.08 3.47 13.74
3/23/2021 11:30:00 AM 10.47 50.846 0.6 8.09 3.79 14
3/23/2021 11:45:00 AM 10.61 51.098 0.6 8.11 2.58 14.25
3/23/2021 12:00:00 PM 10.77 51.386 0.599 8.13 5.5 14.52
3/23/2021 12:15:00 PM 10.92 51.656 0.599 8.15 65.52 14.79
3/23/2021 12:30:00 PM 11.09 51.962 0.599 8.17 2.43 15.08
3/23/2021 12:45:00 PM 11.24 52.232 0.598 8.19 4.23 15.31
3/23/2021 1:00:00 PM 11.39 52.502 0.598 8.2 2.51 15.48
3/23/2021 1:15:00 PM 11.51 52.718 0.597 8.21 3.15 15.72
3/23/2021 1:30:00 PM 11.63 52.934 0.596 8.23 2.48 15.88
3/23/2021 1:45:00 PM 11.75 53.15 0.594 8.25 2.22 16.12
3/23/2021 2:00:00 PM 11.86 53.348 0.594 8.27 4.04 16.28
3/23/2021 2:15:00 PM 11.98 53.564 0.593 8.28 32.15 16.41
3/23/2021 2:30:00 PM 12.1 53.78 0.592 8.29 2.87 16.51
3/23/2021 2:45:00 PM 12.15 53.87 0.591 8.3 2.02 16.55
3/23/2021 3:00:00 PM 12.19 53.942 0.591 8.32 5.38 16.58
3/23/2021 3:15:00 PM 12.22 53.996 0.59 8.33 2.38 16.56
3/23/2021 3:30:00 PM 12.33 54.194 0.59 8.34 2.65 16.69
3/23/2021 3:45:00 PM 12.41 54.338 0.589 8.35 2.37 16.73
3/23/2021 4:00:00 PM 12.46 54.428 0.588 8.35 2.52 16.7
3/23/2021 4:15:00 PM 12.51 54.518 0.587 8.36 7.15 16.58
3/23/2021 4:30:00 PM 12.51 54.518 0.59 8.36 2.94 16.38
3/23/2021 4:45:00 PM 12.49 54.482 0.59 8.36 2.09 16.09
3/23/2021 5:00:00 PM 12.49 54.482 0.589 8.35 4.36 15.92
3/23/2021 5:15:00 PM 12.5 54.5 0.589 8.36 3.86 15.75
3/23/2021 5:30:00 PM 12.46 54.428 0.589 8.36 3.54 15.52
3/23/2021 5:45:00 PM 12.45 54.41 0.59 8.34 4.87 15.25
3/23/2021 6:00:00 PM 12.43 54.374 0.59 8.33 3.79 14.92
3/23/2021 6:15:00 PM 12.41 54.338 0.591 8.32 3.14 14.62
3/23/2021 6:30:00 PM 12.4 54.32 0.591 8.31 2.29 14.3
3/23/2021 6:45:00 PM 12.38 54.284 0.592 8.3 5.36 13.97
3/23/2021 7:00:00 PM 12.37 54.266 0.592 8.28 2.13 13.63
3/23/2021 7:15:00 PM 12.34 54.212 0.592 8.26 2.4 13.27
3/23/2021 7:30:00 PM 12.31 54.158 0.593 8.24 2.53 12.91
3/23/2021 7:45:00 PM 12.29 54.122 0.594 8.23 3.56 12.55
3/23/2021 8:00:00 PM 12.26 54.068 0.594 8.2 2.8 12.26
3/23/2021 8:15:00 PM 12.24 54.032 0.595 8.18 3.51 11.99
3/23/2021 8:30:00 PM 12.21 53.978 0.596 8.17 6.49 11.76
3/23/2021 8:45:00 PM 12.18 53.924 0.596 8.15 4.02 11.56
3/23/2021 9:00:00 PM 12.16 53.888 0.596 8.13 3 11.34
3/23/2021 9:15:00 PM 12.14 53.852 0.597 8.12 3.82 11.17
3/23/2021 9:30:00 PM 12.12 53.816 0.597 8.1 99.53 10.99
3/23/2021 9:45:00 PM 12.1 53.78 0.597 8.09 3.97 10.84
3/23/2021 10:00:00 PM 12.07 53.726 0.598 8.08 3969 10.68
3/23/2021 10:15:00 PM 12.04 53.672 0.598 8.06 13.27 10.54
3/23/2021 10:30:00 PM 12.01 53.618 0.599 8.05 5.05 10.42
3/23/2021 10:45:00 PM 11.98 53.564 0.599 8.04 4.46 10.27
3/23/2021 11:00:00 PM 11.95 53.51 0.598 8.03 15.54 10.13
3/23/2021 11:15:00 PM 11.92 53.456 0.598 8.01 3.93 10.02
3/23/2021 11:30:00 PM 11.88 53.384 0.598 8 8.7 9.93
3/23/2021 11:45:00 PM 11.84 53.312 0.598 7.99 6.98 9.82
3/24/2021 12:00:00 AM 11.8 53.24 0.598 7.98 4.82 9.74
3/24/2021 12:15:00 AM 11.77 53.186 0.598 7.97 4.1 9.65
3/24/2021 12:30:00 AM 11.73 53.114 0.598 7.96 3.69 9.55
3/24/2021 12:45:00 AM 11.7 53.06 0.598 7.95 3.99 9.48
3/24/2021 1:00:00 AM 11.67 53.006 0.598 7.94 4.19 9.4
3/24/2021 1:15:00 AM 11.65 52.97 0.598 7.92 3.88 9.33
3/24/2021 1:30:00 AM 11.64 52.952 0.598 7.92 3.5 9.27
3/24/2021 1:45:00 AM 11.63 52.934 0.598 7.91 4.7 9.23
3/24/2021 2:00:00 AM 11.63 52.934 0.598 7.9 4.91 9.15
3/24/2021 2:15:00 AM 11.62 52.916 0.597 7.89 4.72 9.13
3/24/2021 2:30:00 AM 11.61 52.898 0.597 7.89 753.1 9.1
3/24/2021 2:45:00 AM 11.6 52.88 0.597 7.88 3.59 9.06
3/24/2021 3:00:00 AM 11.6 52.88 0.596 7.87 3.18 9.01
3/24/2021 3:15:00 AM 11.61 52.898 0.596 7.87 3.36 8.94
3/24/2021 3:30:00 AM 11.64 52.952 0.596 7.86 4.29 8.85
3/24/2021 3:45:00 AM 11.65 52.97 0.596 7.85 3.42 8.78
3/24/2021 4:00:00 AM 11.66 52.988 0.595 7.85 4.25 8.72
3/24/2021 4:15:00 AM 11.66 52.988 0.595 7.84 6.34 8.71
3/24/2021 4:30:00 AM 11.66 52.988 0.595 7.84 3.99 8.69
3/24/2021 4:45:00 AM 11.66 52.988 0.595 7.84 4.17 8.67
3/24/2021 5:00:00 AM 11.63 52.934 0.595 7.83 7.02 8.71
3/24/2021 5:15:00 AM 11.6 52.88 0.595 7.84 4.33 8.76
3/24/2021 5:30:00 AM 11.57 52.826 0.595 7.84 4.35 8.81
3/24/2021 5:45:00 AM 11.55 52.79 0.595 7.83 3.98 8.83
3/24/2021 6:00:00 AM 11.53 52.754 0.595 7.83 5.55 8.83
3/24/2021 6:15:00 AM 11.51 52.718 0.595 7.83 3.54 8.82
3/24/2021 6:30:00 AM 11.5 52.7 0.595 7.83 5.49 8.83
3/24/2021 6:45:00 AM 11.48 52.664 0.595 7.83 5.37 8.84
3/24/2021 7:00:00 AM 11.46 52.628 0.596 7.83 4.93 8.84
3/24/2021 7:15:00 AM 11.44 52.592 0.595 7.83 4.25 8.85
3/24/2021 7:30:00 AM 11.43 52.574 0.595 7.82 3.68 8.86
3/24/2021 7:45:00 AM 11.41 52.538 0.596 7.82 3.59 8.87
3/24/2021 8:00:00 AM 11.4 52.52 0.596 7.83 2.92 8.88
3/24/2021 8:15:00 AM 11.39 52.502 0.596 7.83 4.85 8.91
3/24/2021 8:30:00 AM 11.37 52.466 0.596 7.8 7.75 8.96
3/24/2021 8:45:00 AM 11.36 52.448 0.596 7.83 10.72 9.02
3/24/2021 9:00:00 AM 11.35 52.43 0.595 7.83 6.44 9.1
3/24/2021 9:15:00 AM 11.34 52.412 0.595 7.84 3.79 9.16
3/24/2021 9:30:00 AM 11.33 52.394 0.595 7.85 2.9 9.23
3/24/2021 9:45:00 AM 11.32 52.376 0.595 7.85 3.84 9.29
3/24/2021 10:00:00 AM 11.3 52.34 0.593 7.86 9.17 9.4
3/24/2021 10:15:00 AM 11.29 52.322 0.591 7.87 3.67 9.48
3/24/2021 10:30:00 AM 11.29 52.322 0.591 7.88 2.56 9.57
3/24/2021 10:45:00 AM 11.29 52.322 0.59 7.88 3.6 9.72
3/24/2021 11:00:00 AM 11.29 52.322 0.591 7.89 4.25 9.8
3/24/2021 11:15:00 AM 11.3 52.34 0.59 7.89 6.53 9.92
3/24/2021 11:30:00 AM 11.3 52.34 0.59 7.9 3.17 9.96
3/24/2021 11:45:00 AM 11.3 52.34 0.588 7.9 3.63 10
3/24/2021 12:00:00 PM 11.3 52.34 0.587 7.91 4.01 10.08
3/24/2021 12:15:00 PM 11.3 52.34 0.586 7.91 4.23 10.18
3/24/2021 12:30:00 PM 11.31 52.358 0.585 7.92 3.78 10.35
3/24/2021 12:45:00 PM 11.32 52.376 0.585 7.93 7.98 10.41
3/24/2021 1:00:00 PM 11.32 52.376 0.584 7.94 5.28 10.46
3/24/2021 1:15:00 PM 11.34 52.412 0.583 7.94 4.68 10.56
3/24/2021 1:30:00 PM 11.35 52.43 0.582 7.95 5.02 10.66
3/24/2021 1:45:00 PM 11.35 52.43 0.582 7.95 4.88 10.72
3/24/2021 2:00:00 PM 11.35 52.43 0.582 7.95 6.83 10.73
3/24/2021 2:15:00 PM 11.35 52.43 0.581 7.96 4.54 10.7
3/24/2021 2:30:00 PM 11.35 52.43 0.581 7.95 6.58 10.67
3/24/2021 2:45:00 PM 11.35 52.43 0.58 7.95 4.54 10.69
3/24/2021 3:00:00 PM 11.35 52.43 0.577 7.95 4.59 10.67
3/24/2021 3:15:00 PM 11.36 52.448 0.574 7.95 6.8 10.67
3/24/2021 3:30:00 PM 11.38 52.484 0.57 7.95 7.84 10.7
3/24/2021 3:45:00 PM 11.4 52.52 0.569 7.95 6.09 10.74
3/24/2021 4:00:00 PM 11.43 52.574 0.57 7.95 7.6 10.79
3/24/2021 4:15:00 PM 11.44 52.592 0.573 7.95 1213 10.81
3/24/2021 4:30:00 PM 11.46 52.628 0.576 7.96 6.61 10.82
3/24/2021 4:45:00 PM 11.47 52.646 0.578 7.96 9.44 10.79
3/24/2021 5:00:00 PM 11.49 52.682 0.577 7.96 6.67 10.74
3/24/2021 5:15:00 PM 11.49 52.682 0.577 7.96 8.28 10.7
3/24/2021 5:30:00 PM 11.5 52.7 0.578 7.95 8.23 10.58
3/24/2021 5:45:00 PM 11.5 52.7 0.579 7.95 5.84 10.46
3/24/2021 6:00:00 PM 11.5 52.7 0.578 7.94 8.6 10.38
3/24/2021 6:15:00 PM 11.51 52.718 0.577 7.93 10.17 10.29
3/24/2021 6:30:00 PM 11.51 52.718 0.574 7.93 8.76 10.18
3/24/2021 6:45:00 PM 11.51 52.718 0.574 7.91 11.39 10.11
3/24/2021 7:00:00 PM 11.52 52.736 0.576 7.91 12.24 10.02
3/24/2021 7:15:00 PM 11.53 52.754 0.578 7.9 11.87 9.97
3/24/2021 7:30:00 PM 11.54 52.772 0.579 7.89 14.96 9.89
3/24/2021 7:45:00 PM 11.54 52.772 0.578 7.88 14.21 9.79
3/24/2021 8:00:00 PM 11.54 52.772 0.569 7.87 17.26 9.69
3/24/2021 8:15:00 PM 11.55 52.79 0.555 7.85 16.77 9.56
3/24/2021 8:30:00 PM 11.55 52.79 0.538 7.83 23.43 9.45
3/24/2021 8:45:00 PM 11.54 52.772 0.521 7.82 19.06 9.36
3/24/2021 9:00:00 PM 11.53 52.754 0.506 7.8 16.98 9.31
3/24/2021 9:15:00 PM 11.52 52.736 0.495 7.79 18.19 9.27
3/24/2021 9:30:00 PM 11.52 52.736 0.488 7.79 19.67 9.25
3/24/2021 9:45:00 PM 11.51 52.718 0.485 7.78 17.87 9.22
3/24/2021 10:00:00 PM 11.5 52.7 0.484 7.77 17.69 9.18
3/24/2021 10:15:00 PM 11.49 52.682 0.484 7.77 19.94 9.12
3/24/2021 10:30:00 PM 11.49 52.682 0.484 7.76 17.63 9.1
3/24/2021 10:45:00 PM 11.49 52.682 0.482 7.75 19.26 9.06
3/24/2021 11:00:00 PM 11.49 52.682 0.48 7.75 19.28 9.02
3/24/2021 11:15:00 PM 11.5 52.7 0.477 7.74 18.59 9.01
3/24/2021 11:30:00 PM 11.5 52.7 0.474 7.74 20.84 8.99
3/24/2021 11:45:00 PM 11.51 52.718 0.471 7.73 21.38 8.95
3/25/2021 12:00:00 AM 11.51 52.718 0.468 7.73 18.25 8.93
3/25/2021 12:15:00 AM 11.52 52.736 0.466 7.72 19.07 8.92
3/25/2021 12:30:00 AM 11.53 52.754 0.464 7.72 17.97 8.89
3/25/2021 12:45:00 AM 11.54 52.772 0.463 7.71 17.46 8.88
3/25/2021 1:00:00 AM 11.54 52.772 0.463 7.71 24.21 8.87
3/25/2021 1:15:00 AM 11.54 52.772 0.464 7.71 18.01 8.87
3/25/2021 1:30:00 AM 11.54 52.772 0.466 7.7 19.28 8.87
3/25/2021 1:45:00 AM 11.54 52.772 0.47 7.7 20.18 8.87
3/25/2021 2:00:00 AM 11.53 52.754 0.474 7.7 16.33 8.87
3/25/2021 2:15:00 AM 11.53 52.754 0.477 7.71 16.52 8.88
3/25/2021 2:30:00 AM 11.52 52.736 0.481 7.71 18.09 8.87
3/25/2021 2:45:00 AM 11.51 52.718 0.484 7.71 17.43 8.87
3/25/2021 3:00:00 AM 11.51 52.718 0.487 7.7 18.11 8.87
3/25/2021 3:15:00 AM 11.5 52.7 0.49 7.7 18.09 8.88
3/25/2021 3:30:00 AM 11.49 52.682 0.494 7.71 16.19 8.87
3/25/2021 3:45:00 AM 11.48 52.664 0.499 7.71 15.08 8.87
3/25/2021 4:00:00 AM 11.47 52.646 0.502 7.71 14.38 8.87
3/25/2021 4:15:00 AM 11.46 52.628 0.506 7.71 13.7 8.88
3/25/2021 4:30:00 AM 11.45 52.61 0.509 7.72 14.65 8.89
3/25/2021 4:45:00 AM 11.44 52.592 0.511 7.72 12.47 8.88
3/25/2021 5:00:00 AM 11.43 52.574 0.513 7.72 12.58 8.91
3/25/2021 5:15:00 AM 11.42 52.556 0.514 7.72 14.59 8.91
3/25/2021 5:30:00 AM 11.41 52.538 0.515 7.72 14.41 8.91
3/25/2021 5:45:00 AM 11.4 52.52 0.516 7.72 12.32 8.93
3/25/2021 6:00:00 AM 11.39 52.502 0.517 7.73 13.37 8.94
3/25/2021 6:15:00 AM 11.38 52.484 0.518 7.72 15.13 8.95
3/25/2021 6:30:00 AM 11.37 52.466 0.518 7.73 17.42 8.96
3/25/2021 6:45:00 AM 11.36 52.448 0.519 7.73 13.06 8.96
3/25/2021 7:00:00 AM 11.35 52.43 0.521 7.73 21.9 8.99
3/25/2021 7:15:00 AM 11.34 52.412 0.522 7.74 17.32 9
3/25/2021 7:30:00 AM 11.34 52.412 0.523 7.74 12.67 9.01
3/25/2021 7:45:00 AM 11.34 52.412 0.524 7.74 24.03 9.05
3/25/2021 8:00:00 AM 11.34 52.412 0.526 7.75 10.87 9.08
3/25/2021 8:15:00 AM 11.35 52.43 0.527 7.75 13.14 9.15
3/25/2021 8:30:00 AM 11.36 52.448 0.527 7.76 11.6 9.23
3/25/2021 8:45:00 AM 11.37 52.466 0.529 7.76 12.3 9.3
3/25/2021 9:00:00 AM 11.39 52.502 0.53 7.77 10.56 9.38
3/25/2021 9:15:00 AM 11.41 52.538 0.531 7.78 16.77 9.5
3/25/2021 9:30:00 AM 11.44 52.592 0.532 7.79 8.48 9.62
3/25/2021 9:45:00 AM 11.47 52.646 0.533 7.8 9.7 9.8
3/25/2021 10:00:00 AM 11.5 52.7 0.535 7.81 8.71 9.91
3/25/2021 10:15:00 AM 11.53 52.754 0.536 7.81 9.17 10.06
3/25/2021 10:30:00 AM 11.57 52.826 0.537 7.83 7.41 10.17
3/25/2021 10:45:00 AM 11.59 52.862 0.538 7.84 8.36 10.29
3/25/2021 11:00:00 AM 11.62 52.916 0.539 7.84 7.78 10.39
3/25/2021 11:15:00 AM 11.64 52.952 0.54 7.86 7.49 10.47
3/25/2021 11:30:00 AM 11.67 53.006 0.541 7.86 7.87 10.61
3/25/2021 11:45:00 AM 11.71 53.078 0.542 7.87 10.37 10.71
3/25/2021 12:00:00 PM 11.75 53.15 0.543 7.89 7.43 10.87
3/25/2021 12:15:00 PM 11.79 53.222 0.544 7.9 13.56 11.04
3/25/2021 12:30:00 PM 11.83 53.294 0.545 7.91 8.06 11.14
3/25/2021 12:45:00 PM 11.86 53.348 0.545 7.92 6.8 11.27
3/25/2021 1:00:00 PM 11.91 53.438 0.546 7.94 6.64 11.4
3/25/2021 1:15:00 PM 11.95 53.51 0.547 7.95 5.55 11.53
3/25/2021 1:30:00 PM 11.98 53.564 0.548 7.96 7.03 11.59
3/25/2021 1:45:00 PM 12.02 53.636 0.549 7.97 8.17 11.7
3/25/2021 2:00:00 PM 12.06 53.708 0.549 7.98 8.74 11.79
3/25/2021 2:15:00 PM 12.11 53.798 0.55 7.99 7.25 11.9
3/25/2021 2:30:00 PM 12.15 53.87 0.55 8 5.89 12
3/25/2021 2:45:00 PM 12.22 53.996 0.55 8.01 6.02 12.19
3/25/2021 3:00:00 PM 12.28 54.104 0.551 8.03 6.67 12.37
3/25/2021 3:15:00 PM 12.34 54.212 0.552 8.04 6.88 12.53
3/25/2021 3:30:00 PM 12.43 54.374 0.552 8.05 7.42 12.7
3/25/2021 3:45:00 PM 12.49 54.482 0.552 8.06 6.01 12.8
3/25/2021 4:00:00 PM 12.54 54.572 0.551 8.07 6.37 12.76
3/25/2021 4:15:00 PM 12.58 54.644 0.552 8.08 5.07 12.74
3/25/2021 4:30:00 PM 12.65 54.77 0.552 8.08 6.12 12.82
3/25/2021 4:45:00 PM 12.71 54.878 0.551 8.09 5.95 12.82
3/25/2021 5:00:00 PM 12.76 54.968 0.551 8.1 6.34 12.69
3/25/2021 5:15:00 PM 12.79 55.022 0.551 8.1 5.96 12.59
3/25/2021 5:30:00 PM 12.81 55.058 0.552 8.1 6.95 12.51
3/25/2021 5:45:00 PM 12.82 55.076 0.552 8.1 8.28 12.37
3/25/2021 6:00:00 PM 12.83 55.094 0.553 8.09 12.66 12.23
3/25/2021 6:15:00 PM 12.84 55.112 0.554 8.09 5.89 12.06
3/25/2021 6:30:00 PM 12.85 55.13 0.555 8.08 6.41 11.92
3/25/2021 6:45:00 PM 12.85 55.13 0.556 8.07 6.52 11.68
3/25/2021 7:00:00 PM 12.85 55.13 0.557 8.06 6.98 11.46
3/25/2021 7:15:00 PM 12.86 55.148 0.558 8.04 6.65 11.23
3/25/2021 7:30:00 PM 12.85 55.13 0.558 8.03 7.29 11.03
3/25/2021 7:45:00 PM 12.84 55.112 0.558 8.02 6.88 10.86
3/25/2021 8:00:00 PM 12.83 55.094 0.559 8.01 6.78 10.7
3/25/2021 8:15:00 PM 12.83 55.094 0.559 8 6.48 10.56
3/25/2021 8:30:00 PM 12.82 55.076 0.56 7.99 6.91 10.42
3/25/2021 8:45:00 PM 12.82 55.076 0.56 7.98 7.26 10.31
3/25/2021 9:00:00 PM 12.82 55.076 0.559 7.98 7.27 10.21
3/25/2021 9:15:00 PM 12.82 55.076 0.56 7.97 9.52 10.1
3/25/2021 9:30:00 PM 12.81 55.058 0.56 7.96 7.67 10
3/25/2021 9:45:00 PM 12.81 55.058 0.56 7.95 9.84 9.91
3/25/2021 10:00:00 PM 12.81 55.058 0.561 7.95 8.87 9.79
3/25/2021 10:15:00 PM 12.8 55.04 0.561 7.94 8.19 9.7
3/25/2021 10:30:00 PM 12.8 55.04 0.561 7.93 8.03 9.61
3/25/2021 10:45:00 PM 12.8 55.04 0.562 7.92 6.61 9.51
3/25/2021 11:00:00 PM 12.8 55.04 0.562 7.92 8.21 9.44
3/25/2021 11:15:00 PM 12.8 55.04 0.563 7.91 6.81 9.36
3/25/2021 11:30:00 PM 12.8 55.04 0.563 7.9 8.82 9.27
3/25/2021 11:45:00 PM 12.8 55.04 0.563 7.89 10.54 9.2
3/26/2021 12:00:00 AM 12.8 55.04 0.563 7.89 10.13 9.13
3/26/2021 12:15:00 AM 12.8 55.04 0.563 7.88 12.22 9.06
3/26/2021 12:30:00 AM 12.79 55.022 0.563 7.87 9.23 9
3/26/2021 12:45:00 AM 12.79 55.022 0.565 7.87 9.02 8.94
3/26/2021 1:00:00 AM 12.78 55.004 0.565 7.86 7.55 8.88
3/26/2021 1:15:00 AM 12.78 55.004 0.565 7.86 6.1 8.84
3/26/2021 1:30:00 AM 12.77 54.986 0.565 7.85 5.66 8.79
3/26/2021 1:45:00 AM 12.76 54.968 0.566 7.85 4.8 8.76
3/26/2021 2:00:00 AM 12.76 54.968 0.567 7.84 4.43 8.73
3/26/2021 2:15:00 AM 12.75 54.95 0.567 7.84 5.91 8.68
3/26/2021 2:30:00 AM 12.75 54.95 0.567 7.83 4.94 8.65
3/26/2021 2:45:00 AM 12.75 54.95 0.567 7.83 5.32 8.61
3/26/2021 3:00:00 AM 12.75 54.95 0.568 7.83 5.59 8.58
3/26/2021 3:15:00 AM 12.74 54.932 0.568 7.82 6.25 8.55
3/26/2021 3:30:00 AM 12.74 54.932 0.568 7.82 10.26 8.54
3/26/2021 3:45:00 AM 12.74 54.932 0.568 7.82 7.4 8.5
3/26/2021 4:00:00 AM 12.73 54.914 0.569 7.82 4.9 8.48
3/26/2021 4:15:00 AM 12.72 54.896 0.569 7.81 6.03 8.45
3/26/2021 4:30:00 AM 12.71 54.878 0.57 7.81 5.39 8.43
3/26/2021 4:45:00 AM 12.7 54.86 0.57 7.8 5.69 8.41
3/26/2021 5:00:00 AM 12.69 54.842 0.57 7.8 5.41 8.41
3/26/2021 5:15:00 AM 12.67 54.806 0.57 7.8 5.85 8.4
3/26/2021 5:30:00 AM 12.65 54.77 0.571 7.8 7.37 8.39
3/26/2021 5:45:00 AM 12.64 54.752 0.571 7.8 5.28 8.38
3/26/2021 6:00:00 AM 12.62 54.716 0.57 7.8 5.64 8.37
3/26/2021 6:15:00 AM 12.6 54.68 0.571 7.8 5.19 8.38
3/26/2021 6:30:00 AM 12.57 54.626 0.571 7.79 4.88 8.36
3/26/2021 6:45:00 AM 12.55 54.59 0.571 7.79 5.79 8.36
3/26/2021 7:00:00 AM 12.52 54.536 0.571 7.79 5.55 8.35
3/26/2021 7:15:00 AM 12.5 54.5 0.57 7.79 5.87 8.36
3/26/2021 7:30:00 AM 12.5 54.5 0.571 7.79 4.93 8.37
3/26/2021 7:45:00 AM 12.5 54.5 0.571 7.79 4.57 8.4
3/26/2021 8:00:00 AM 12.51 54.518 0.571 7.79 5.33 8.48
3/26/2021 8:15:00 AM 12.52 54.536 0.571 7.79 5.51 8.55
3/26/2021 8:30:00 AM 12.48 54.464 0.571 7.8 4.32 8.68
3/26/2021 8:45:00 AM 12.46 54.428 0.571 7.82 1078 8.94
3/26/2021 9:00:00 AM 12.47 54.446 0.585 7.83 11.24 9.29
3/26/2021 9:15:00 AM 12.52 54.536 0.587 7.84 2100 9.61
3/26/2021 9:30:00 AM 12.57 54.626 0.587 7.85 3.68 9.85
3/26/2021 9:45:00 AM 12.66 54.788 0.587 7.87 8.52 10.1
3/26/2021 10:00:00 AM 12.75 54.95 0.587 7.88 10.7 10.31
3/26/2021 10:15:00 AM 12.88 55.184 0.588 7.9 3.23 10.58
3/26/2021 10:30:00 AM 13.01 55.418 0.588 7.91 2.64 10.79
3/26/2021 10:45:00 AM 13.19 55.742 0.588 7.93 3.43 11.09
3/26/2021 11:00:00 AM 13.32 55.976 0.587 7.95 4.81 11.3
3/26/2021 11:15:00 AM 13.45 56.21 0.587 7.96 3.39 11.52
3/26/2021 11:30:00 AM 13.59 56.462 0.587 7.98 4.79 11.74
3/26/2021 11:45:00 AM 13.7 56.66 0.587 8 2.84 11.91
3/26/2021 12:00:00 PM 13.86 56.948 0.588 8.01 3.07 12.18
3/26/2021 12:15:00 PM 14.04 57.272 0.587 8.03 4.06 12.44
3/26/2021 12:30:00 PM 14.21 57.578 0.587 8.04 7.94 12.67
3/26/2021 12:45:00 PM 14.38 57.884 0.586 8.06 2.49 12.89
3/26/2021 1:00:00 PM 14.51 58.118 0.586 8.08 2.56 13.09
3/26/2021 1:15:00 PM 14.64 58.352 0.585 8.1 4.48 13.24
3/26/2021 1:30:00 PM 14.77 58.586 0.585 8.11 5.3 13.42
3/26/2021 1:45:00 PM 14.9 58.82 0.584 8.13 3.42 13.61
3/26/2021 2:00:00 PM 15.02 59.036 0.584 8.15 2.92 13.76
3/26/2021 2:15:00 PM 15.12 59.216 0.584 8.16 3.37 13.87
3/26/2021 2:30:00 PM 15.21 59.378 0.584 8.18 3.48 13.95
3/26/2021 2:45:00 PM 15.27 59.486 0.584 8.19 13.92 14
3/26/2021 3:00:00 PM 15.23 59.414 0.584 8.19 3.31 13.91
3/26/2021 3:15:00 PM 15.16 59.288 0.584 8.19 4.93 13.74
3/26/2021 3:30:00 PM 15.07 59.126 0.585 8.19 3.39 13.48
3/26/2021 3:45:00 PM 15.12 59.216 0.585 8.19 4.23 13.44
3/26/2021 4:00:00 PM 15.2 59.36 0.584 8.2 17.85 13.5
3/26/2021 4:15:00 PM 15.31 59.558 0.584 8.21 7.36 13.6
3/26/2021 4:30:00 PM 15.39 59.702 0.584 8.22 5.67 13.59
3/26/2021 4:45:00 PM 15.45 59.81 0.583 8.23 3.73 13.58
3/26/2021 5:00:00 PM 15.45 59.81 0.583 8.23 3.68 13.5
3/26/2021 5:15:00 PM 15.39 59.702 0.583 8.24 4.35 13.39
3/26/2021 5:30:00 PM 15.31 59.558 0.584 8.24 3.46 13.26
3/26/2021 5:45:00 PM 15.23 59.414 0.584 8.24 4.61 13.09
3/26/2021 6:00:00 PM 15.15 59.27 0.584 8.23 4.87 12.89
3/26/2021 6:15:00 PM 15.08 59.144 0.585 8.22 6.85 12.63
3/26/2021 6:30:00 PM 15.01 59.018 0.585 8.21 5.85 12.32
3/26/2021 6:45:00 PM 14.96 58.928 0.585 8.2 14.51 12.08
3/26/2021 7:00:00 PM 14.9 58.82 0.586 8.18 4.22 11.81
3/26/2021 7:15:00 PM 14.84 58.712 0.586 8.17 3.29 11.57
3/26/2021 7:30:00 PM 14.78 58.604 0.587 8.15 4.99 11.33
3/26/2021 7:45:00 PM 14.73 58.514 0.588 8.14 4 11.1
3/26/2021 8:00:00 PM 14.67 58.406 0.588 8.12 4.9 10.89
3/26/2021 8:15:00 PM 14.62 58.316 0.588 8.12 4.97 10.71
3/26/2021 8:30:00 PM 14.57 58.226 0.588 8.1 5.8 10.54
3/26/2021 8:45:00 PM 14.5 58.1 0.588 8.09 5.1 10.39
3/26/2021 9:00:00 PM 14.44 57.992 0.589 8.08 9.96 10.23
3/26/2021 9:15:00 PM 14.37 57.866 0.588 8.06 7.15 10.08
3/26/2021 9:30:00 PM 14.3 57.74 0.588 8.05 4.47 9.95
3/26/2021 9:45:00 PM 14.24 57.632 0.588 8.04 5.31 9.82
3/26/2021 10:00:00 PM 14.18 57.524 0.588 8.03 12.34 9.71
3/26/2021 10:15:00 PM 14.12 57.416 0.588 8.02 13.77 9.6
3/26/2021 10:30:00 PM 14.06 57.308 0.588 8.01 68.54 9.5
3/26/2021 10:45:00 PM 13.99 57.182 0.588 8 7.25 9.42
3/26/2021 11:00:00 PM 13.93 57.074 0.588 7.99 4.06 9.33
3/26/2021 11:15:00 PM 13.87 56.966 0.588 7.98 16.23 9.24
3/26/2021 11:30:00 PM 13.8 56.84 0.588 7.97 37.36 9.17
3/26/2021 11:45:00 PM 13.73 56.714 0.588 7.96 40.46 9.1
3/27/2021 12:00:00 AM 13.66 56.588 0.588 7.95 24.3 9.02
3/27/2021 12:15:00 AM 13.6 56.48 0.589 7.94 20.29 8.97
3/27/2021 12:30:00 AM 13.54 56.372 0.589 7.92 25.11 8.92
3/27/2021 12:45:00 AM 13.48 56.264 0.588 7.91 5.89 8.87
3/27/2021 1:00:00 AM 13.42 56.156 0.588 7.91 20.54 8.81
3/27/2021 1:15:00 AM 13.35 56.03 0.588 7.9 6.22 8.79
3/27/2021 1:30:00 AM 13.29 55.922 0.587 7.89 43.07 8.75
3/27/2021 1:45:00 AM 13.23 55.814 0.587 7.88 17.02 8.72
3/27/2021 2:00:00 AM 13.16 55.688 0.587 7.88 23.75 8.71
3/27/2021 2:15:00 AM 13.1 55.58 0.587 7.88 26.09 8.67
3/27/2021 2:30:00 AM 13.03 55.454 0.587 7.87 6.47 8.68
3/27/2021 2:45:00 AM 12.96 55.328 0.587 7.87 16.29 8.66
3/27/2021 3:00:00 AM 12.88 55.184 0.587 7.86 10.19 8.66
3/27/2021 3:15:00 AM 12.81 55.058 0.587 7.86 5.21 8.66
3/27/2021 3:30:00 AM 12.74 54.932 0.587 7.85 47.16 8.66
3/27/2021 3:45:00 AM 12.66 54.788 0.587 7.85 22.81 8.65
3/27/2021 4:00:00 AM 12.59 54.662 0.587 7.84 69.28 8.66
3/27/2021 4:15:00 AM 12.51 54.518 0.587 7.84 45.25 8.67
3/27/2021 4:30:00 AM 12.45 54.41 0.587 7.84 10.06 8.68
3/27/2021 4:45:00 AM 12.37 54.266 0.587 7.84 10.65 8.68
3/27/2021 5:00:00 AM 12.3 54.14 0.587 7.83 27.43 8.69
3/27/2021 5:15:00 AM 12.23 54.014 0.588 7.83 34.62 8.71
3/27/2021 5:30:00 AM 12.16 53.888 0.587 7.83 16.78 8.71
3/27/2021 5:45:00 AM 12.09 53.762 0.588 7.83 74.76 8.74
3/27/2021 6:00:00 AM 12.02 53.636 0.588 7.83 5.26 8.76
3/27/2021 6:15:00 AM 11.95 53.51 0.589 7.83 39.71 8.76
3/27/2021 6:30:00 AM 11.88 53.384 0.589 7.83 15.86 8.8
3/27/2021 6:45:00 AM 11.81 53.258 0.589 7.83 6.82 8.83
3/27/2021 7:00:00 AM 11.74 53.132 0.589 7.83 5.13 8.84
3/27/2021 7:15:00 AM 11.67 53.006 0.59 7.83 14.98 8.88
3/27/2021 7:30:00 AM 11.61 52.898 0.59 7.83 11.24 8.93
3/27/2021 7:45:00 AM 11.55 52.79 0.591 7.84 106.4 9.03
3/27/2021 8:00:00 AM 11.5 52.7 0.591 7.84 94.11 9.12
3/27/2021 8:15:00 AM 11.46 52.628 0.591 7.84 32.17 9.25
3/27/2021 8:30:00 AM 11.45 52.61 0.591 7.85 5.57 9.43
3/27/2021 8:45:00 AM 11.46 52.628 0.592 7.86 3.16 9.65
3/27/2021 9:00:00 AM 11.49 52.682 0.592 7.88 8.34 9.92
3/27/2021 9:15:00 AM 11.52 52.736 0.592 7.89 9.83 10.19
3/27/2021 9:30:00 AM 11.57 52.826 0.592 7.91 2.21 10.49
3/27/2021 9:45:00 AM 11.64 52.952 0.592 7.93 2.47 10.78
3/27/2021 10:00:00 AM 11.71 53.078 0.592 7.94 3.93 11.05
3/27/2021 10:15:00 AM 11.76 53.168 0.591 7.96 2.23 11.32
3/27/2021 10:30:00 AM 11.84 53.312 0.592 7.97 2.37 11.56
3/27/2021 10:45:00 AM 11.94 53.492 0.592 7.99 8.61 11.8
3/27/2021 11:00:00 AM 12.06 53.708 0.591 8 1.39 12.1
3/27/2021 11:15:00 AM 12.19 53.942 0.591 8.01 2.44 12.35
3/27/2021 11:30:00 AM 12.34 54.212 0.591 8.02 2.45 12.61
3/27/2021 11:45:00 AM 12.49 54.482 0.59 8.04 7.94 12.89
3/27/2021 12:00:00 PM 12.63 54.734 0.59 8.05 2.31 13.08
3/27/2021 12:15:00 PM 12.76 54.968 0.59 8.08 65.52 13.33
3/27/2021 12:30:00 PM 12.92 55.256 0.59 8.1 118.9 13.6
3/27/2021 12:45:00 PM 13.08 55.544 0.59 8.12 2.66 13.83
3/27/2021 1:00:00 PM 13.21 55.778 0.59 8.13 10.74 14.01
3/27/2021 1:15:00 PM 13.34 56.012 0.59 8.15 1.78 14.2
3/27/2021 1:30:00 PM 13.49 56.282 0.589 8.17 1.99 14.41
3/27/2021 1:45:00 PM 13.61 56.498 0.589 8.19 2.05 14.56
3/27/2021 2:00:00 PM 13.72 56.696 0.589 8.2 3.45 14.67
3/27/2021 2:15:00 PM 13.78 56.804 0.589 8.21 1.68 14.77
3/27/2021 2:30:00 PM 13.83 56.894 0.589 8.23 3.04 14.84
3/27/2021 2:45:00 PM 13.84 56.912 0.589 8.23 13.47 14.94
3/27/2021 3:00:00 PM 13.86 56.948 0.59 8.25 4.87 14.94
3/27/2021 3:15:00 PM 13.91 57.038 0.59 8.26 6.07 14.98
3/27/2021 3:30:00 PM 13.93 57.074 0.591 8.27 8.28 15.03
3/27/2021 3:45:00 PM 13.95 57.11 0.591 8.27 3.34 15.02
3/27/2021 4:00:00 PM 13.94 57.092 0.591 8.28 4.26 14.92
3/27/2021 4:15:00 PM 13.93 57.074 0.591 8.29 2.34 14.79
3/27/2021 4:30:00 PM 13.93 57.074 0.591 8.29 1.94 14.64
3/27/2021 4:45:00 PM 13.93 57.074 0.59 8.28 19.55 14.52
3/27/2021 5:00:00 PM 13.94 57.092 0.591 8.28 11.95 14.37
3/27/2021 5:15:00 PM 13.98 57.164 0.591 8.29 2.88 14.18
3/27/2021 5:30:00 PM 14.03 57.254 0.591 8.29 3.27 13.97
3/27/2021 5:45:00 PM 14.08 57.344 0.591 8.29 2.88 13.73
3/27/2021 6:00:00 PM 14.11 57.398 0.591 8.29 2.48 13.49
3/27/2021 6:15:00 PM 14.12 57.416 0.591 8.28 3.13 13.22
3/27/2021 6:30:00 PM 14.12 57.416 0.591 8.28 3.53 12.88
3/27/2021 6:45:00 PM 14.11 57.398 0.591 8.27 3.93 12.62
3/27/2021 7:00:00 PM 14.08 57.344 0.592 8.26 2.2 12.33
3/27/2021 7:15:00 PM 14.05 57.29 0.592 8.24 4.76 12.05
3/27/2021 7:30:00 PM 14.02 57.236 0.592 8.23 4.51 11.71
3/27/2021 7:45:00 PM 13.99 57.182 0.592 8.21 2.61 11.48
3/27/2021 8:00:00 PM 13.96 57.128 0.592 8.2 4.85 11.23
3/27/2021 8:15:00 PM 13.93 57.074 0.592 8.18 3.87 11.02
3/27/2021 8:30:00 PM 13.9 57.02 0.592 8.17 3.84 10.81
3/27/2021 8:45:00 PM 13.87 56.966 0.593 8.16 2.68 10.64
3/27/2021 9:00:00 PM 13.84 56.912 0.593 8.15 4.23 10.45
3/27/2021 9:15:00 PM 13.82 56.876 0.593 8.14 5.97 10.28
3/27/2021 9:30:00 PM 13.79 56.822 0.593 8.12 5.76 10.13
3/27/2021 9:45:00 PM 13.76 56.768 0.593 8.11 17.45 9.99
3/27/2021 10:00:00 PM 13.73 56.714 0.594 8.09 14.04 9.84
3/27/2021 10:15:00 PM 13.7 56.66 0.593 8.08 50.15 9.71
3/27/2021 10:30:00 PM 13.67 56.606 0.594 8.06 16.76 9.58
3/27/2021 10:45:00 PM 13.63 56.534 0.594 8.04 35.98 9.44
3/27/2021 11:00:00 PM 13.59 56.462 0.594 8.03 16.89 9.34
3/27/2021 11:15:00 PM 13.55 56.39 0.594 8.02 26.75 9.23
3/27/2021 11:30:00 PM 13.51 56.318 0.595 8 17.38 9.13
3/27/2021 11:45:00 PM 13.47 56.246 0.593 7.99 46.53 9.03
3/28/2021 12:00:00 AM 13.43 56.174 0.592 7.98 5.72 8.95
3/28/2021 12:15:00 AM 13.38 56.084 0.592 7.96 11.84 8.86
3/28/2021 12:30:00 AM 13.35 56.03 0.591 7.95 25.56 8.79
3/28/2021 12:45:00 AM 13.31 55.958 0.591 7.94 4.12 8.72
3/28/2021 1:00:00 AM 13.27 55.886 0.591 7.92 19.38 8.64
3/28/2021 1:15:00 AM 13.23 55.814 0.59 7.91 3.89 8.59
3/28/2021 1:30:00 AM 13.18 55.724 0.589 7.9 39.17 8.53
3/28/2021 1:45:00 AM 13.14 55.652 0.59 7.89 4.59 8.49
3/28/2021 2:00:00 AM 13.11 55.598 0.589 7.88 10.93 8.45
3/28/2021 2:15:00 AM 13.07 55.526 0.59 7.88 3.38 8.4
3/28/2021 2:30:00 AM 13.04 55.472 0.589 7.87 10.67 8.36
3/28/2021 2:45:00 AM 13.02 55.436 0.59 7.86 12.18 8.33
3/28/2021 3:00:00 AM 13.01 55.418 0.589 7.85 4.14 8.28
3/28/2021 3:15:00 AM 12.99 55.382 0.59 7.85 32.45 8.26
3/28/2021 3:30:00 AM 12.99 55.382 0.589 7.84 34.93 8.22
3/28/2021 3:45:00 AM 12.97 55.346 0.592 7.83 4.54 8.21
3/28/2021 4:00:00 AM 12.97 55.346 0.592 7.83 17.44 8.2
3/28/2021 4:15:00 AM 12.96 55.328 0.591 7.83 126.2 8.17
3/28/2021 4:30:00 AM 12.95 55.31 0.591 7.82 12.36 8.16
3/28/2021 4:45:00 AM 12.93 55.274 0.591 7.82 5.16 8.14
3/28/2021 5:00:00 AM 12.91 55.238 0.591 7.82 11.48 8.15
3/28/2021 5:15:00 AM 12.89 55.202 0.591 7.82 49.17 8.15
3/28/2021 5:30:00 AM 12.86 55.148 0.591 7.82 6.6 8.14
3/28/2021 5:45:00 AM 12.84 55.112 0.591 7.81 4.08 8.13
3/28/2021 6:00:00 AM 12.81 55.058 0.591 7.81 4.26 8.14
3/28/2021 6:15:00 AM 12.78 55.004 0.591 7.81 29.05 8.14
3/28/2021 6:30:00 AM 12.76 54.968 0.592 7.81 95.45 8.14
3/28/2021 6:45:00 AM 12.72 54.896 0.592 7.81 65.67 8.13
3/28/2021 7:00:00 AM 12.69 54.842 0.592 7.81 3.42 8.13
3/28/2021 7:15:00 AM 12.66 54.788 0.59 7.81 19.37 8.17
3/28/2021 7:30:00 AM 12.64 54.752 0.589 7.81 56.6 8.18
3/28/2021 7:45:00 AM 12.61 54.698 0.589 7.81 176.7 8.22
3/28/2021 8:00:00 AM 12.58 54.644 0.588 7.81 25.8 8.25
3/28/2021 8:15:00 AM 12.55 54.59 0.586 7.82 86.62 8.33
3/28/2021 8:30:00 AM 12.52 54.536 0.584 7.82 3.58 8.37
3/28/2021 8:45:00 AM 12.5 54.5 0.583 7.82 5.53 8.42
3/28/2021 9:00:00 AM 12.48 54.464 0.582 7.82 16.72 8.49
3/28/2021 9:15:00 AM 12.46 54.428 0.582 7.83 3.82 8.53
3/28/2021 9:30:00 AM 12.44 54.392 0.582 7.83 5.65 8.58
3/28/2021 9:45:00 AM 12.42 54.356 0.581 7.83 4.16 8.63
3/28/2021 10:00:00 AM 12.4 54.32 0.58 7.84 3.42 8.68
3/28/2021 10:15:00 AM 12.37 54.266 0.579 7.84 31.79 8.77
3/28/2021 10:30:00 AM 12.36 54.248 0.577 7.85 5.85 8.86
3/28/2021 10:45:00 AM 12.33 54.194 0.575 7.85 5 8.93
3/28/2021 11:00:00 AM 12.31 54.158 0.574 7.86 4.2 8.99
3/28/2021 11:15:00 AM 12.3 54.14 0.573 7.86 11.91 9.07
3/28/2021 11:30:00 AM 12.29 54.122 0.571 7.86 7.47 9.15
3/28/2021 11:45:00 AM 12.28 54.104 0.57 7.86 7.66 9.21
3/28/2021 12:00:00 PM 12.27 54.086 0.57 7.87 10.34 9.29
3/28/2021 12:15:00 PM 12.25 54.05 0.569 7.87 12.94 9.24
3/28/2021 12:30:00 PM 12.24 54.032 0.568 7.87 8.62 9.3
3/28/2021 12:45:00 PM 12.24 54.032 0.567 7.87 63.5 9.29
3/28/2021 1:00:00 PM 12.24 54.032 0.566 7.87 121.5 9.36
3/28/2021 1:15:00 PM 12.24 54.032 0.561 7.87 22.96 9.36
3/28/2021 1:30:00 PM 12.25 54.05 0.556 7.87 111.8 9.37
3/28/2021 1:45:00 PM 12.27 54.086 0.552 7.87 8.98 9.41
3/28/2021 2:00:00 PM 12.29 54.122 0.552 7.87 9.12 9.47
3/28/2021 2:15:00 PM 12.32 54.176 0.553 7.87 89.9 9.55
3/28/2021 2:30:00 PM 12.34 54.212 0.556 7.87 31.7 9.6
3/28/2021 2:45:00 PM 12.35 54.23 0.557 7.88 9.96 9.64
3/28/2021 3:00:00 PM 12.36 54.248 0.553 7.88 11.41 9.63
3/28/2021 3:15:00 PM 12.37 54.266 0.547 7.88 16.45 9.61
3/28/2021 3:30:00 PM 12.39 54.302 0.543 7.87 13.53 9.57
3/28/2021 3:45:00 PM 12.4 54.32 0.544 7.87 18.65 9.54
3/28/2021 4:00:00 PM 12.41 54.338 0.547 7.87 18.63 9.5
3/28/2021 4:15:00 PM 12.43 54.374 0.549 7.87 18.31 9.51
3/28/2021 4:30:00 PM 12.46 54.428 0.551 7.87 16.08 9.57
3/28/2021 4:45:00 PM 12.48 54.464 0.553 7.88 20.81 9.58
3/28/2021 5:00:00 PM 12.48 54.464 0.554 7.88 18.32 9.53
3/28/2021 5:15:00 PM 12.48 54.464 0.551 7.87 18.02 9.5
3/28/2021 5:30:00 PM 12.49 54.482 0.541 7.87 14.71 9.45
3/28/2021 5:45:00 PM 12.51 54.518 0.525 7.86 20.03 9.38
3/28/2021 6:00:00 PM 12.52 54.536 0.504 7.84 130 9.3
3/28/2021 6:15:00 PM 12.53 54.554 0.483 7.83 243.9 9.17
3/28/2021 6:30:00 PM 12.52 54.536 0.469 7.81 31.46 9.11
3/28/2021 6:45:00 PM 12.51 54.518 0.461 7.8 38.88 9.11
3/28/2021 7:00:00 PM 12.5 54.5 0.454 7.79 251.1 9.17
3/28/2021 7:15:00 PM 12.48 54.464 0.447 7.78 24.27 9.17
3/28/2021 7:30:00 PM 12.45 54.41 0.441 7.77 19.48 9.12
3/28/2021 7:45:00 PM 12.42 54.356 0.432 7.75 26.75 9.06
3/28/2021 8:00:00 PM 12.4 54.32 0.425 7.74 37.16 9
3/28/2021 8:15:00 PM 12.38 54.284 0.42 7.73 31.09 8.97
3/28/2021 8:30:00 PM 12.36 54.248 0.417 7.73 27.7 8.95
3/28/2021 8:45:00 PM 12.34 54.212 0.416 7.72 27.27 8.93
3/28/2021 9:00:00 PM 12.3 54.14 0.417 7.72 34.91 8.9
3/28/2021 9:15:00 PM 12.26 54.068 0.418 7.71 29.23 8.9
3/28/2021 9:30:00 PM 12.23 54.014 0.418 7.71 34.66 8.89
3/28/2021 9:45:00 PM 12.19 53.942 0.421 7.71 32.9 8.86
3/28/2021 10:00:00 PM 12.16 53.888 0.427 7.71 32.15 8.86
3/28/2021 10:15:00 PM 12.14 53.852 0.434 7.71 43.9 8.85
3/28/2021 10:30:00 PM 12.11 53.798 0.442 7.71 29.8 8.82
3/28/2021 10:45:00 PM 12.08 53.744 0.447 7.71 49.43 8.82
3/28/2021 11:00:00 PM 12.05 53.69 0.452 7.7 727.9 8.82
3/28/2021 11:15:00 PM 12.02 53.636 0.458 7.7 60.78 8.8
3/28/2021 11:30:00 PM 12 53.6 0.462 7.7 128.8 8.79
3/28/2021 11:45:00 PM 11.98 53.564 0.467 7.7 43.65 8.77
3/29/2021 12:00:00 AM 11.96 53.528 0.472 7.7 43.78 8.78
3/29/2021 12:15:00 AM 11.92 53.456 0.479 7.71 40.11 8.78
3/29/2021 12:30:00 AM 11.86 53.348 0.485 7.72 38.26 8.81
3/29/2021 12:45:00 AM 11.82 53.276 0.489 7.72 43.08 8.82
3/29/2021 1:00:00 AM 11.76 53.168 0.489 7.72 39.11 8.82
3/29/2021 1:15:00 AM 11.72 53.096 0.481 7.71 39.98 8.79
3/29/2021 1:30:00 AM 11.69 53.042 0.468 7.71 41.15 8.78
3/29/2021 1:45:00 AM 11.65 52.97 0.453 7.71 39.27 8.74
3/29/2021 2:00:00 AM 11.6 52.88 0.439 7.7 46.06 8.74
3/29/2021 2:15:00 AM 11.55 52.79 0.428 7.69 53.61 8.73
3/29/2021 2:30:00 AM 11.51 52.718 0.421 7.69 38.06 8.74
3/29/2021 2:45:00 AM 11.45 52.61 0.418 7.68 45.92 8.76
3/29/2021 3:00:00 AM 11.37 52.466 0.417 7.67 36.78 8.76
3/29/2021 3:15:00 AM 11.31 52.358 0.419 7.67 29.35 8.81
3/29/2021 3:30:00 AM 11.25 52.25 0.422 7.67 33.63 8.83
3/29/2021 3:45:00 AM 11.2 52.16 0.425 7.66 34.25 8.87
3/29/2021 4:00:00 AM 11.15 52.07 0.428 7.66 33.49 8.9
3/29/2021 4:15:00 AM 11.1 51.98 0.431 7.66 29.87 8.91
3/29/2021 4:30:00 AM 11.03 51.854 0.435 7.66 26.83 8.94
3/29/2021 4:45:00 AM 10.97 51.746 0.438 7.66 26.64 8.94
3/29/2021 5:00:00 AM 10.9 51.62 0.441 7.66 27.67 8.98
3/29/2021 5:15:00 AM 10.84 51.512 0.445 7.66 29.1 8.99
3/29/2021 5:30:00 AM 10.79 51.422 0.449 7.66 30.18 9.01
3/29/2021 5:45:00 AM 10.73 51.314 0.454 7.67 91.02 9.02
3/29/2021 6:00:00 AM 10.67 51.206 0.459 7.67 73.53 9.04
3/29/2021 6:15:00 AM 10.6 51.08 0.463 7.67 53.04 9.07
3/29/2021 6:30:00 AM 10.53 50.954 0.468 7.67 31.06 9.09
3/29/2021 6:45:00 AM 10.46 50.828 0.473 7.67 73.43 9.1
3/29/2021 7:00:00 AM 10.41 50.738 0.478 7.67 34.3 9.14
3/29/2021 7:15:00 AM 10.36 50.648 0.482 7.67 99.06 9.17
3/29/2021 7:30:00 AM 10.31 50.558 0.486 7.68 29.56 9.21
3/29/2021 7:45:00 AM 10.24 50.432 0.491 7.68 158.6 9.25
3/29/2021 8:00:00 AM 10.19 50.342 0.496 7.68 23.31 9.31
3/29/2021 8:15:00 AM 10.13 50.234 0.5 7.69 35.79 9.37
3/29/2021 8:30:00 AM 10.1 50.18 0.504 7.7 64.94 9.45
3/29/2021 8:45:00 AM 10.08 50.144 0.507 7.7 18.54 9.52
3/29/2021 9:00:00 AM 10.07 50.126 0.51 7.7 17.15 9.6
3/29/2021 9:15:00 AM 10.05 50.09 0.512 7.71 25.81 9.69
3/29/2021 9:30:00 AM 10.03 50.054 0.514 7.71 32.07 9.78
3/29/2021 9:45:00 AM 10.02 50.036 0.516 7.71 33.11 9.9
3/29/2021 10:00:00 AM 10.05 50.09 0.517 7.72 37.67 10.11
3/29/2021 10:15:00 AM 10.12 50.216 0.518 7.74 48.83 10.31
3/29/2021 10:30:00 AM 10.21 50.378 0.519 7.75 100.2 10.55
3/29/2021 10:45:00 AM 10.28 50.504 0.52 7.77 322.9 10.72
3/29/2021 11:00:00 AM 10.32 50.576 0.521 7.78 117.8 10.9
3/29/2021 11:15:00 AM 10.4 50.72 0.522 7.8 46.43 11.07
3/29/2021 11:30:00 AM 10.5 50.9 0.523 7.81 779 11.3
3/29/2021 11:45:00 AM 10.63 51.134 0.524 7.83 688.3 11.51
3/29/2021 12:00:00 PM 10.72 51.296 0.525 7.84 85.07 11.68
3/29/2021 12:15:00 PM 10.85 51.53 0.526 7.85 176.8 11.88
3/29/2021 12:30:00 PM 10.97 51.746 0.527 7.87 62.03 12.09
3/29/2021 12:45:00 PM 11.09 51.962 0.528 7.88 130.5 12.23
3/29/2021 1:00:00 PM 11.23 52.214 0.529 7.9 99.19 12.39
3/29/2021 1:15:00 PM 11.34 52.412 0.53 7.92 62.73 12.6
3/29/2021 1:30:00 PM 11.47 52.646 0.531 7.93 326.7 12.75
3/29/2021 1:45:00 PM 11.57 52.826 0.531 7.94 302.6 12.9
3/29/2021 2:00:00 PM 11.66 52.988 0.532 7.96 271.1 13.01
3/29/2021 2:15:00 PM 11.77 53.186 0.532 7.97 204.5 13.14
3/29/2021 2:30:00 PM 11.86 53.348 0.533 7.99 72.15 13.24
3/29/2021 2:45:00 PM 11.94 53.492 0.533 8 28.25 13.35
3/29/2021 3:00:00 PM 12.01 53.618 0.534 8.01 154.4 13.43
3/29/2021 3:15:00 PM 12.08 53.744 0.534 8.03 115.2 13.47
3/29/2021 3:30:00 PM 12.13 53.834 0.535 8.04 173 13.49
3/29/2021 3:45:00 PM 12.18 53.924 0.534 8.05 63.44 13.5
3/29/2021 4:00:00 PM 12.24 54.032 0.536 8.06 93.77 13.48
3/29/2021 4:15:00 PM 12.25 54.05 0.537 8.06 62.09 13.52
3/29/2021 4:30:00 PM 12.26 54.068 0.538 8.07 68.39 13.51
3/29/2021 4:45:00 PM 12.27 54.086 0.538 8.08 341.3 13.44
3/29/2021 5:00:00 PM 12.27 54.086 0.539 8.08 169.2 13.37
3/29/2021 5:15:00 PM 12.26 54.068 0.54 8.09 353 13.29
3/29/2021 5:30:00 PM 12.26 54.068 0.541 8.09 604.4 13.18
3/29/2021 5:45:00 PM 12.24 54.032 0.546 8.09 137.1 13
3/29/2021 6:00:00 PM 12.2 53.96 0.549 8.09 237.7 12.83
3/29/2021 6:15:00 PM 12.17 53.906 0.551 8.08 598.6 12.64
3/29/2021 6:30:00 PM 12.12 53.816 0.551 8.08 428.3 12.43
3/29/2021 6:45:00 PM 12.07 53.726 0.55 8.07 1097 12.29
3/29/2021 7:00:00 PM 12.03 53.654 0.549 8.06 431.8 12.12
3/29/2021 7:15:00 PM 12 53.6 0.548 8.05 1314 11.94
3/29/2021 7:30:00 PM 11.96 53.528 0.548 8.04 1071 11.75
3/29/2021 7:45:00 PM 11.93 53.474 0.549 8.03 900.9 11.59
3/29/2021 8:00:00 PM 11.89 53.402 0.549 8.02 1777 11.42
3/29/2021 8:15:00 PM 11.85 53.33 0.55 8.01 1463 11.28
3/29/2021 8:30:00 PM 11.81 53.258 0.549 8 821.7 11.16
3/29/2021 8:45:00 PM 11.76 53.168 0.55 7.99 212 11.03
3/29/2021 9:00:00 PM 11.72 53.096 0.55 7.98 997.2 10.9
3/29/2021 9:15:00 PM 11.67 53.006 0.551 7.97 362 10.8
3/29/2021 9:30:00 PM 11.63 52.934 0.551 7.96 600.1 10.69
3/29/2021 9:45:00 PM 11.58 52.844 0.552 7.95 745 10.59
3/29/2021 10:00:00 PM 11.54 52.772 0.551 7.94 1125 10.49
3/29/2021 10:15:00 PM 11.49 52.682 0.552 7.94 100.6 10.41
3/29/2021 10:30:00 PM 11.45 52.61 0.553 7.93 371.8 10.32
3/29/2021 10:45:00 PM 11.41 52.538 0.553 7.92 243.7 10.22
3/29/2021 11:00:00 PM 11.36 52.448 0.553 7.92 315.5 10.15
3/29/2021 11:15:00 PM 11.32 52.376 0.554 7.91 238.7 10.08
3/29/2021 11:30:00 PM 11.27 52.286 0.554 7.9 122.4 10
3/29/2021 11:45:00 PM 11.22 52.196 0.554 7.89 23.97 9.96
3/30/2021 12:00:00 AM 11.17 52.106 0.554 7.88 4.7 9.89
3/30/2021 12:15:00 AM 11.13 52.034 0.555 7.87 5.52 9.83
3/30/2021 12:30:00 AM 11.08 51.944 0.555 7.87 5.02 9.76
3/30/2021 12:45:00 AM 11.03 51.854 0.555 7.86 6.28 9.75
3/30/2021 1:00:00 AM 10.98 51.764 0.556 7.86 5.65 9.69
3/30/2021 1:15:00 AM 10.93 51.674 0.556 7.85 7.72 9.66
3/30/2021 1:30:00 AM 10.88 51.584 0.556 7.85 6.48 9.63
3/30/2021 1:45:00 AM 10.84 51.512 0.556 7.84 6.84 9.62
3/30/2021 2:00:00 AM 10.79 51.422 0.556 7.84 8.35 9.6
3/30/2021 2:15:00 AM 10.74 51.332 0.557 7.84 5.79 9.57
3/30/2021 2:30:00 AM 10.69 51.242 0.557 7.83 9.3 9.57
3/30/2021 2:45:00 AM 10.65 51.17 0.558 7.83 7.22 9.54
3/30/2021 3:00:00 AM 10.6 51.08 0.558 7.82 5.4 9.56
3/30/2021 3:15:00 AM 10.55 50.99 0.558 7.82 5.25 9.55
3/30/2021 3:30:00 AM 10.5 50.9 0.559 7.82 6.94 9.54
3/30/2021 3:45:00 AM 10.45 50.81 0.559 7.82 9.28 9.55
3/30/2021 4:00:00 AM 10.4 50.72 0.558 7.81 8.14 9.55
3/30/2021 4:15:00 AM 10.35 50.63 0.559 7.81 5.52 9.55
3/30/2021 4:30:00 AM 10.3 50.54 0.559 7.81 5.68 9.55
3/30/2021 4:45:00 AM 10.24 50.432 0.56 7.81 5.48 9.55
3/30/2021 5:00:00 AM 10.19 50.342 0.56 7.81 6.37 9.54
3/30/2021 5:15:00 AM 10.13 50.234 0.56 7.81 7.72 9.58
3/30/2021 5:30:00 AM 10.07 50.126 0.561 7.81 6.56 9.58
3/30/2021 5:45:00 AM 10.02 50.036 0.561 7.81 6.85 9.61
3/30/2021 6:00:00 AM 9.96 49.928 0.561 7.81 10.51 9.62
3/30/2021 6:15:00 AM 9.91 49.838 0.561 7.81 4.16 9.64
3/30/2021 6:30:00 AM 9.85 49.73 0.562 7.81 6.64 9.65
3/30/2021 6:45:00 AM 9.8 49.64 0.562 7.81 7.9 9.67
3/30/2021 7:00:00 AM 9.75 49.55 0.562 7.81 4.94 9.68
3/30/2021 7:15:00 AM 9.7 49.46 0.562 7.81 7.43 9.73
3/30/2021 7:30:00 AM 9.65 49.37 0.562 7.81 5 9.79
3/30/2021 7:45:00 AM 9.62 49.316 0.561 7.81 6.6 9.82
3/30/2021 8:00:00 AM 9.59 49.262 0.563 7.81 5.88 9.91
3/30/2021 8:15:00 AM 9.57 49.226 0.562 7.81 3.58 10
3/30/2021 8:30:00 AM 9.57 49.226 0.562 7.82 4.25 10.15
3/30/2021 8:45:00 AM 9.59 49.262 0.563 7.82 5.96 10.32
3/30/2021 9:00:00 AM 9.64 49.352 0.563 7.83 3.32 10.53
3/30/2021 9:15:00 AM 9.7 49.46 0.563 7.84 3.69 10.71
3/30/2021 9:30:00 AM 9.78 49.604 0.564 7.85 3.6 10.92
3/30/2021 9:45:00 AM 9.87 49.766 0.563 7.86 4.1 11.12
3/30/2021 10:00:00 AM 9.97 49.946 0.564 7.87 4.91 11.34
3/30/2021 10:15:00 AM 10.08 50.144 0.563 7.88 2.72 11.57
3/30/2021 10:30:00 AM 10.2 50.36 0.564 7.89 3.62 11.77
3/30/2021 10:45:00 AM 10.34 50.612 0.564 7.9 2.97 12
3/30/2021 11:00:00 AM 10.49 50.882 0.564 7.92 2.62 12.18
3/30/2021 11:15:00 AM 10.63 51.134 0.563 7.94 2.87 12.4
3/30/2021 11:30:00 AM 10.79 51.422 0.564 7.96 2.31 12.61
3/30/2021 11:45:00 AM 10.95 51.71 0.564 7.97 2.69 12.79
3/30/2021 12:00:00 PM 11.11 51.998 0.564 7.99 2.48 12.99
3/30/2021 12:15:00 PM 11.26 52.268 0.563 8 3.54 13.16
3/30/2021 12:30:00 PM 11.42 52.556 0.563 8.01 2.47 13.33
3/30/2021 12:45:00 PM 11.57 52.826 0.563 8.02 2.65 13.48
3/30/2021 1:00:00 PM 11.72 53.096 0.563 8.04 2.77 13.65
3/30/2021 1:15:00 PM 11.87 53.366 0.563 8.06 2.15 13.79
3/30/2021 1:30:00 PM 12.02 53.636 0.562 8.07 3.03 13.92
3/30/2021 1:45:00 PM 12.17 53.906 0.562 8.08 2.63 14.04
3/30/2021 2:00:00 PM 12.31 54.158 0.562 8.09 2.48 14.15
3/30/2021 2:15:00 PM 12.44 54.392 0.561 8.1 2.3 14.24
3/30/2021 2:30:00 PM 12.58 54.644 0.562 8.13 3.31 14.34
3/30/2021 2:45:00 PM 12.69 54.842 0.561 8.14 2.71 14.38
3/30/2021 3:00:00 PM 12.8 55.04 0.561 8.16 3.27 14.44
3/30/2021 3:15:00 PM 12.9 55.22 0.562 8.17 2.72 14.49
3/30/2021 3:30:00 PM 12.99 55.382 0.559 8.18 5.42 14.48
3/30/2021 3:45:00 PM 13.09 55.562 0.56 8.2 2.94 14.51
3/30/2021 4:00:00 PM 13.17 55.706 0.559 8.21 2.96 14.48
3/30/2021 4:15:00 PM 13.23 55.814 0.559 8.22 2.74 14.42
3/30/2021 4:30:00 PM 13.28 55.904 0.559 8.22 3.11 14.39
3/30/2021 4:45:00 PM 13.31 55.958 0.559 8.23 4.16 14.28
3/30/2021 5:00:00 PM 13.33 55.994 0.558 8.23 5.76 14.16
3/30/2021 5:15:00 PM 13.34 56.012 0.558 8.23 6.52 14.02
3/30/2021 5:30:00 PM 13.32 55.976 0.559 8.23 141.3 13.81
3/30/2021 5:45:00 PM 13.31 55.958 0.56 8.22 3 13.67
3/30/2021 6:00:00 PM 13.29 55.922 0.558 8.23 3.65 13.43
3/30/2021 6:15:00 PM 13.27 55.886 0.558 8.23 3.14 13.26
3/30/2021 6:30:00 PM 13.24 55.832 0.56 8.21 3.7 13.02
3/30/2021 6:45:00 PM 13.2 55.76 0.56 8.2 5.25 12.74
3/30/2021 7:00:00 PM 13.16 55.688 0.561 8.19 22.69 12.49
3/30/2021 7:15:00 PM 13.12 55.616 0.561 8.18 61.16 12.26
3/30/2021 7:30:00 PM 13.08 55.544 0.562 8.16 15.05 12.02
3/30/2021 7:45:00 PM 13.04 55.472 0.563 8.14 62.08 11.77
3/30/2021 8:00:00 PM 13.01 55.418 0.564 8.13 10.64 11.55
3/30/2021 8:15:00 PM 12.98 55.364 0.564 8.11 11.32 11.34
3/30/2021 8:30:00 PM 12.95 55.31 0.563 8.1 24.54 11.17
3/30/2021 8:45:00 PM 12.92 55.256 0.563 8.09 13.16 11.02
3/30/2021 9:00:00 PM 12.89 55.202 0.566 8.08 102.1 10.87
3/30/2021 9:15:00 PM 12.86 55.148 0.565 8.07 50.08 10.69
3/30/2021 9:30:00 PM 12.82 55.076 0.566 8.05 43.15 10.56
3/30/2021 9:45:00 PM 12.78 55.004 0.567 8.05 30.21 10.44
3/30/2021 10:00:00 PM 12.75 54.95 0.566 8.04 52.94 10.31
3/30/2021 10:15:00 PM 12.72 54.896 0.566 8.03 25.97 10.2
3/30/2021 10:30:00 PM 12.7 54.86 0.567 8.02 93.91 10.1
3/30/2021 10:45:00 PM 12.67 54.806 0.566 8 53.59 9.99
3/30/2021 11:00:00 PM 12.65 54.77 0.566 7.99 76.88 9.9
3/30/2021 11:15:00 PM 12.63 54.734 0.566 7.98 118.1 9.79
3/30/2021 11:30:00 PM 12.61 54.698 0.566 7.97 54.28 9.7
3/30/2021 11:45:00 PM 12.59 54.662 0.566 7.96 49.55 9.61
3/31/2021 12:00:00 AM 12.56 54.608 0.567 7.95 30.88 9.53
3/31/2021 12:15:00 AM 12.53 54.554 0.566 7.94 6.43 9.43
3/31/2021 12:30:00 AM 12.5 54.5 0.567 7.94 23.77 9.37
3/31/2021 12:45:00 AM 12.47 54.446 0.567 7.93 86.09 9.32
3/31/2021 1:00:00 AM 12.44 54.392 0.567 7.92 6.48 9.24
3/31/2021 1:15:00 AM 12.41 54.338 0.568 7.91 6.53 9.21
3/31/2021 1:30:00 AM 12.38 54.284 0.568 7.9 7.9 9.16
3/31/2021 1:45:00 AM 12.34 54.212 0.568 7.89 9.43 9.13
3/31/2021 2:00:00 AM 12.3 54.14 0.568 7.89 22.48 9.09
3/31/2021 2:15:00 AM 12.26 54.068 0.569 7.88 9.06 9.05
3/31/2021 2:30:00 AM 12.23 54.014 0.569 7.88 7.38 9.03
3/31/2021 2:45:00 AM 12.19 53.942 0.569 7.88 22.96 9
3/31/2021 3:00:00 AM 12.15 53.87 0.569 7.87 9.27 8.95
3/31/2021 3:15:00 AM 12.13 53.834 0.57 7.86 24.55 8.88
3/31/2021 3:30:00 AM 12.1 53.78 0.568 7.85 30.42 8.85
3/31/2021 3:45:00 AM 12.06 53.708 0.57 7.85 6.62 8.83
3/31/2021 4:00:00 AM 12.03 53.654 0.57 7.85 10.81 8.8
3/31/2021 4:15:00 AM 11.99 53.582 0.57 7.84 7.15 8.79
3/31/2021 4:30:00 AM 11.95 53.51 0.57 7.84 6.72 8.78
3/31/2021 4:45:00 AM 11.91 53.438 0.57 7.84 51.04 8.82
3/31/2021 5:00:00 AM 11.85 53.33 0.57 7.84 18.53 8.86
3/31/2021 5:15:00 AM 11.8 53.24 0.57 7.84 11.28 8.89
3/31/2021 5:30:00 AM 11.75 53.15 0.57 7.84 95.02 8.93
3/31/2021 5:45:00 AM 11.71 53.078 0.57 7.84 22.97 8.95
3/31/2021 6:00:00 AM 11.66 52.988 0.57 7.84 40.68 8.96
3/31/2021 6:15:00 AM 11.62 52.916 0.57 7.84 94.69 8.97
3/31/2021 6:30:00 AM 11.57 52.826 0.57 7.84 202.8 8.98
3/31/2021 6:45:00 AM 11.52 52.736 0.57 7.84 24.74 8.98
3/31/2021 7:00:00 AM 11.47 52.646 0.57 7.84 10.23 9
3/31/2021 7:15:00 AM 11.43 52.574 0.57 7.84 9 9.03
3/31/2021 7:30:00 AM 11.39 52.502 0.57 7.84 19.47 9.07
3/31/2021 7:45:00 AM 11.37 52.466 0.57 7.84 55.63 9.16
3/31/2021 8:00:00 AM 11.35 52.43 0.571 7.84 33.99 9.29
3/31/2021 8:15:00 AM 11.34 52.412 0.572 7.85 18.46 9.41
3/31/2021 8:30:00 AM 11.34 52.412 0.574 7.85 9.94 9.52
3/31/2021 8:45:00 AM 11.34 52.412 0.574 7.86 4.51 9.59
3/31/2021 9:00:00 AM 11.36 52.448 0.571 7.86 10.79 9.69
3/31/2021 9:15:00 AM 11.37 52.466 0.574 7.87 7.24 9.81
3/31/2021 9:30:00 AM 11.38 52.484 0.574 7.87 9.1 9.89
3/31/2021 9:45:00 AM 11.38 52.484 0.572 7.88 6.1 9.97
3/31/2021 10:00:00 AM 11.4 52.52 0.573 7.89 10.22 10.07
3/31/2021 10:15:00 AM 11.43 52.574 0.572 7.89 9.82 10.23
3/31/2021 10:30:00 AM 11.46 52.628 0.572 7.91 16.88 10.41
3/31/2021 10:45:00 AM 11.5 52.7 0.572 7.92 3.91 10.61
3/31/2021 11:00:00 AM 11.53 52.754 0.572 7.93 52.05 10.75
3/31/2021 11:15:00 AM 11.55 52.79 0.572 7.94 5.35 10.83
3/31/2021 11:30:00 AM 11.57 52.826 0.571 7.94 12.12 10.93
3/31/2021 11:45:00 AM 11.61 52.898 0.571 7.96 4.96 11.18
3/31/2021 12:00:00 PM 11.68 53.024 0.571 7.97 3.58 11.46
3/31/2021 12:15:00 PM 11.73 53.114 0.57 7.99 4.21 11.64
3/31/2021 12:30:00 PM 11.78 53.204 0.571 8.01 6.08 11.79
3/31/2021 12:45:00 PM 11.81 53.258 0.57 8.02 4.11 11.92
3/31/2021 1:00:00 PM 11.85 53.33 0.57 8.03 5.13 12.04
3/31/2021 1:15:00 PM 11.88 53.384 0.569 8.04 7.86 12.11
3/31/2021 1:30:00 PM 11.92 53.456 0.569 8.05 5.27 12.23
3/31/2021 1:45:00 PM 11.95 53.51 0.569 8.06 3.75 12.32
3/31/2021 2:00:00 PM 11.99 53.582 0.569 8.07 4.92 12.41
3/31/2021 2:15:00 PM 12.04 53.672 0.569 8.08 1.87 12.51
3/31/2021 2:30:00 PM 12.08 53.744 0.569 8.08 2.35 12.58
3/31/2021 2:45:00 PM 12.11 53.798 0.568 8.09 3.05 12.59
3/31/2021 3:00:00 PM 12.12 53.816 0.568 8.09 2.14 12.53
3/31/2021 3:15:00 PM 12.14 53.852 0.568 8.09 2.58 12.44
3/31/2021 3:30:00 PM 12.13 53.834 0.568 8.09 5.5 12.28
3/31/2021 3:45:00 PM 12.15 53.87 0.568 8.09 2.86 12.21
3/31/2021 4:00:00 PM 12.16 53.888 0.569 8.08 2.17 12.13
3/31/2021 4:15:00 PM 12.17 53.906 0.568 8.08 4.86 12.03
3/31/2021 4:30:00 PM 12.17 53.906 0.567 8.08 2.16 11.88
3/31/2021 4:45:00 PM 12.18 53.924 0.567 8.07 2.11 11.71
3/31/2021 5:00:00 PM 12.19 53.942 0.568 8.06 4.72 11.65
3/31/2021 5:15:00 PM 12.2 53.96 0.568 8.06 7.81 11.5
3/31/2021 5:30:00 PM 12.21 53.978 0.568 8.05 2.82 11.4
3/31/2021 5:45:00 PM 12.22 53.996 0.568 8.05 3 11.31
3/31/2021 6:00:00 PM 12.22 53.996 0.568 8.04 2.88 11.2
3/31/2021 6:15:00 PM 12.23 54.014 0.568 8.03 4.66 11.08
3/31/2021 6:30:00 PM 12.24 54.032 0.569 8.03 3.83 10.98
3/31/2021 6:45:00 PM 12.24 54.032 0.569 8.02 3.86 10.89
3/31/2021 7:00:00 PM 12.25 54.05 0.569 8.01 27.18 10.77
3/31/2021 7:15:00 PM 12.26 54.068 0.569 8 3.49 10.65
3/31/2021 7:30:00 PM 12.27 54.086 0.568 7.99 4.84 10.53
3/31/2021 7:45:00 PM 12.27 54.086 0.569 7.98 3.18 10.41
3/31/2021 8:00:00 PM 12.28 54.104 0.568 7.98 3.96 10.32
3/31/2021 8:15:00 PM 12.28 54.104 0.564 7.97 6.26 10.23
3/31/2021 8:30:00 PM 12.29 54.122 0.564 7.96 4.12 10.12
3/31/2021 8:45:00 PM 12.29 54.122 0.568 7.95 9.26 10.02
3/31/2021 9:00:00 PM 12.3 54.14 0.568 7.94 6.93 9.95
3/31/2021 9:15:00 PM 12.3 54.14 0.568 7.94 47.25 9.87
3/31/2021 9:30:00 PM 12.3 54.14 0.568 7.93 81.88 9.78
3/31/2021 9:45:00 PM 12.3 54.14 0.568 7.93 6.45 9.71
3/31/2021 10:00:00 PM 12.29 54.122 0.568 7.92 7.29 9.65
3/31/2021 10:15:00 PM 12.29 54.122 0.568 7.91 7.87 9.58
3/31/2021 10:30:00 PM 12.3 54.14 0.568 7.91 6.7 9.52
3/31/2021 10:45:00 PM 12.3 54.14 0.568 7.9 6.07 9.46
3/31/2021 11:00:00 PM 12.31 54.158 0.568 7.9 6.64 9.43
3/31/2021 11:15:00 PM 12.31 54.158 0.568 7.9 5.77 9.38
3/31/2021 11:30:00 PM 12.3 54.14 0.569 7.89 5.86 9.35
3/31/2021 11:45:00 PM 12.3 54.14 0.568 7.89 6.58 9.28
4/1/2021 12:00:00 AM 12.29 54.122 0.568 7.89 10.28 9.27
4/1/2021 12:15:00 AM 12.27 54.086 0.568 7.88 4.85 9.24
4/1/2021 12:30:00 AM 12.25 54.05 0.567 7.88 5.38 9.2
4/1/2021 12:45:00 AM 12.22 53.996 0.567 7.88 5.8 9.18
4/1/2021 1:00:00 AM 12.19 53.942 0.567 7.88 7.24 9.16
4/1/2021 1:15:00 AM 12.16 53.888 0.567 7.87 5.93 9.13
4/1/2021 1:30:00 AM 12.13 53.834 0.567 7.87 6.71 9.11
4/1/2021 1:45:00 AM 12.09 53.762 0.566 7.87 8.36 9.1
4/1/2021 2:00:00 AM 12.06 53.708 0.566 7.86 5.97 9.09
4/1/2021 2:15:00 AM 12.02 53.636 0.567 7.86 5.18 9.08
4/1/2021 2:30:00 AM 11.99 53.582 0.567 7.86 4.82 9.07
4/1/2021 2:45:00 AM 11.96 53.528 0.567 7.86 8.49 9.07
4/1/2021 3:00:00 AM 11.93 53.474 0.566 7.86 7.87 9.07
4/1/2021 3:15:00 AM 11.9 53.42 0.566 7.86 13.3 9.05
4/1/2021 3:30:00 AM 11.87 53.366 0.566 7.86 5.8 9.08
4/1/2021 3:45:00 AM 11.83 53.294 0.566 7.86 6.05 9.06
4/1/2021 4:00:00 AM 11.8 53.24 0.566 7.86 5.73 9.07
4/1/2021 4:15:00 AM 11.76 53.168 0.566 7.86 5.77 9.06
4/1/2021 4:30:00 AM 11.73 53.114 0.566 7.86 6.97 9.08
4/1/2021 4:45:00 AM 11.69 53.042 0.565 7.85 5.27 9.07
4/1/2021 5:00:00 AM 11.66 52.988 0.565 7.86 8.73 9.07
4/1/2021 5:15:00 AM 11.62 52.916 0.565 7.85 6.98 9.08
4/1/2021 5:30:00 AM 11.58 52.844 0.565 7.85 5.71 9.07
4/1/2021 5:45:00 AM 11.55 52.79 0.565 7.85 6 9.07
4/1/2021 6:00:00 AM 11.51 52.718 0.564 7.85 5.46 9.1
4/1/2021 6:15:00 AM 11.46 52.628 0.564 7.85 6.34 9.1
4/1/2021 6:30:00 AM 11.41 52.538 0.563 7.85 5.15 9.12
4/1/2021 6:45:00 AM 11.37 52.466 0.563 7.84 5.24 9.11
4/1/2021 7:00:00 AM 11.31 52.358 0.562 7.84 6.23 9.12
4/1/2021 7:15:00 AM 11.26 52.268 0.561 7.84 7.03 9.13
4/1/2021 7:30:00 AM 11.21 52.178 0.56 7.84 10.95 9.13
4/1/2021 7:45:00 AM 11.16 52.088 0.556 7.84 6.49 9.15
4/1/2021 8:00:00 AM 11.13 52.034 0.554 7.84 5.75 9.19
4/1/2021 8:15:00 AM 11.1 51.98 0.554 7.84 8.08 9.25
4/1/2021 8:30:00 AM 11.06 51.908 0.55 7.84 5.38 9.34
4/1/2021 8:45:00 AM 11.03 51.854 0.548 7.84 5.01 9.43
4/1/2021 9:00:00 AM 11 51.8 0.548 7.84 5.32 9.58
4/1/2021 9:15:00 AM 10.98 51.764 0.547 7.85 4.15 9.74
4/1/2021 9:30:00 AM 10.98 51.764 0.546 7.85 6.03 10
4/1/2021 9:45:00 AM 10.97 51.746 0.544 7.87 3.73 10.21
4/1/2021 10:00:00 AM 10.98 51.764 0.544 7.88 3.55 10.47
4/1/2021 10:15:00 AM 10.99 51.782 0.543 7.89 3.85 10.66
4/1/2021 10:30:00 AM 11 51.8 0.542 7.91 3.14 10.88
4/1/2021 10:45:00 AM 11.03 51.854 0.543 7.93 3.44 11.07
4/1/2021 11:00:00 AM 11.11 51.998 0.543 7.94 3.17 11.33
4/1/2021 11:15:00 AM 11.26 52.268 0.596 5.11 2.89 11.52
4/1/2021 11:30:00 AM 11.35 52.43 0.597 5.43 2.54 11.71
4/1/2021 11:45:00 AM 11.35 52.43 0.598 5.65 2.03 11.81
4/1/2021 12:00:00 PM 11.42 52.556 0.6 5.92 2 12.01
4/1/2021 12:15:00 PM 11.46 52.628 0.601 6.04 2.45 12.14
4/1/2021 12:30:00 PM 11.56 52.808 0.603 6.13 2.74 12.34
4/1/2021 12:45:00 PM 11.7 53.06 0.604 6.3 2.83 12.53
4/1/2021 1:00:00 PM 11.74 53.132 0.606 6.65 3.37 12.69
4/1/2021 1:15:00 PM 11.8 53.24 0.607 7.03 2.67 12.85
4/1/2021 1:30:00 PM 11.78 53.204 0.608 7.19 2.16 12.95
4/1/2021 1:45:00 PM 11.78 53.204 0.609 7.27 2.38 13
4/1/2021 2:00:00 PM 11.76 53.168 0.609 7.21 1.89 13.08
4/1/2021 2:15:00 PM 11.71 53.078 0.61 7.27 3.76 13.06
4/1/2021 2:30:00 PM 11.67 53.006 0.61 7.33 2.07 13.12
4/1/2021 2:45:00 PM 11.69 53.042 0.61 7.38 3.02 13.25
4/1/2021 3:00:00 PM 11.68 53.024 0.608 7.42 2.57 13.29
4/1/2021 3:15:00 PM 11.66 52.988 0.608 7.47 2.05 13.26
4/1/2021 3:30:00 PM 11.62 52.916 0.609 7.49 2.19 13.26
4/1/2021 3:45:00 PM 11.58 52.844 0.609 7.5 2.68 13.22
4/1/2021 4:00:00 PM 11.56 52.808 0.609 7.54 2.29 13.33
4/1/2021 4:15:00 PM 11.53 52.754 0.608 7.59 2.39 13.32
4/1/2021 4:30:00 PM 11.5 52.7 0.607 7.6 2.53 13.25
4/1/2021 4:45:00 PM 11.48 52.664 0.606 7.6 2.03 13.23
4/1/2021 5:00:00 PM 11.46 52.628 0.604 7.64 2.42 13.17
4/1/2021 5:15:00 PM 11.45 52.61 0.601 7.65 2.09 13.2
4/1/2021 5:30:00 PM 11.43 52.574 0.599 7.64 2.44 13.17
4/1/2021 5:45:00 PM 11.36 52.448 0.596 7.66 2.48 13.03
4/1/2021 6:00:00 PM 11.31 52.358 0.593 7.64 3.12 12.9
4/1/2021 6:15:00 PM 11.24 52.232 0.591 7.63 2.22 12.76
4/1/2021 6:30:00 PM 11.18 52.124 0.588 7.58 2.58 12.61
4/1/2021 6:45:00 PM 11.13 52.034 0.586 7.63 3.12 12.48
4/1/2021 7:00:00 PM 11.07 51.926 0.585 7.62 2.5 12.33
4/1/2021 7:15:00 PM 11.01 51.818 0.584 7.63 2.29 12.16
4/1/2021 7:30:00 PM 10.94 51.692 0.584 7.49 2.33 12
4/1/2021 7:45:00 PM 10.87 51.566 0.585 7.24 2.51 11.84
4/1/2021 8:00:00 PM 10.8 51.44 0.586 7.27 3.76 11.67
4/1/2021 8:15:00 PM 10.73 51.314 0.587 7.41 3.69 11.53
4/1/2021 8:30:00 PM 10.67 51.206 0.589 7.4 3.25 11.4
4/1/2021 8:45:00 PM 10.61 51.098 0.59 7.42 3.73 11.28
4/1/2021 9:00:00 PM 10.55 50.99 0.592 7.46 3.84 11.17
4/1/2021 9:15:00 PM 10.51 50.918 0.594 7.47 3.86 11.07
4/1/2021 9:30:00 PM 10.45 50.81 0.595 7.48 4.02 10.96
4/1/2021 9:45:00 PM 10.4 50.72 0.597 7.08 4.38 10.88
4/1/2021 10:00:00 PM 10.35 50.63 0.598 7.25 3.78 10.8
4/1/2021 10:15:00 PM 10.29 50.522 0.6 7.36 7.54 10.73
4/1/2021 10:30:00 PM 10.24 50.432 0.601 7.42 3.59 10.65
4/1/2021 10:45:00 PM 10.19 50.342 0.602 7.44 3.34 10.58
4/1/2021 11:00:00 PM 10.14 50.252 0.604 7.46 4.19 10.5
4/1/2021 11:15:00 PM 10.09 50.162 0.605 7.45 3.86 10.43
4/1/2021 11:30:00 PM 10.04 50.072 0.606 7.42 4.11 10.37
4/1/2021 11:45:00 PM 9.99 49.982 0.607 7.44 4.03 10.31
4/2/2021 12:00:00 AM 9.94 49.892 0.608 7.41 4.11 10.25
4/2/2021 12:15:00 AM 9.89 49.802 0.609 7.43 4.65 10.21
4/2/2021 12:30:00 AM 9.85 49.73 0.61 7.45 5.95 10.14
4/2/2021 12:45:00 AM 9.8 49.64 0.611 7.4 4.49 10.12
4/2/2021 1:00:00 AM 9.77 49.586 0.612 7.43 4.88 10.06
4/2/2021 1:15:00 AM 9.74 49.532 0.612 7.45 3.97 10.03
4/2/2021 1:30:00 AM 9.72 49.496 0.613 7.36 4.04 9.99
4/2/2021 1:45:00 AM 9.68 49.424 0.613 7.44 3.96 9.98
4/2/2021 2:00:00 AM 9.65 49.37 0.614 7.42 3.77 9.95
4/2/2021 2:15:00 AM 9.62 49.316 0.615 7.01 3.89 9.93
4/2/2021 2:30:00 AM 9.57 49.226 0.615 7.43 5.86 9.92
4/2/2021 2:45:00 AM 9.52 49.136 0.616 7.48 3.39 9.9
4/2/2021 3:00:00 AM 9.46 49.028 0.616 7.07 4.56 9.88
4/2/2021 3:15:00 AM 9.39 48.902 0.617 7.15 4.8 9.88
4/2/2021 3:30:00 AM 9.34 48.812 0.617 7.23 3.72 9.87
4/2/2021 3:45:00 AM 9.27 48.686 0.618 7.39 3.56 9.87
4/2/2021 4:00:00 AM 9.19 48.542 0.618 7.46 3.25 9.87
4/2/2021 4:15:00 AM 9.12 48.416 0.619 7.37 4.25 9.89
4/2/2021 4:30:00 AM 9.07 48.326 0.619 7.43 3.27 9.89
4/2/2021 4:45:00 AM 9 48.2 0.618 7.42 4.16 9.9
4/2/2021 5:00:00 AM 8.93 48.074 0.62 7.44 4.1 9.9
4/2/2021 5:15:00 AM 8.86 47.948 0.62 7.45 3.97 9.92
4/2/2021 5:30:00 AM 8.8 47.84 0.621 7.24 2.75 9.95
4/2/2021 5:45:00 AM 8.74 47.732 0.621 7.18 3.5 9.97
4/2/2021 6:00:00 AM 8.7 47.66 0.621 7.39 3.1 9.97
4/2/2021 6:15:00 AM 8.65 47.57 0.621 7.3 3.4 9.99
4/2/2021 6:30:00 AM 8.6 47.48 0.621 7.17 3.42 10.02
4/2/2021 6:45:00 AM 8.56 47.408 0.621 7.06 3.02 10.03
4/2/2021 7:00:00 AM 8.52 47.336 0.622 7.28 2.85 10.06
4/2/2021 7:15:00 AM 8.48 47.264 0.622 7.32 3.36 10.09
4/2/2021 7:30:00 AM 8.45 47.21 0.622 7.34 2.28 10.16
4/2/2021 7:45:00 AM 8.41 47.138 0.623 7.35 2.8 10.21
4/2/2021 8:00:00 AM 8.38 47.084 0.623 7.27 2.47 10.32
4/2/2021 8:15:00 AM 8.35 47.03 0.623 7.32 3.85 10.44
4/2/2021 8:30:00 AM 8.34 47.012 0.623 7.37 2.29 10.6
4/2/2021 8:45:00 AM 8.37 47.066 0.623 7.37 2.12 10.79
4/2/2021 9:00:00 AM 8.39 47.102 0.623 7.38 1.95 10.98
4/2/2021 9:15:00 AM 8.43 47.174 0.623 7.32 1.68 11.18
4/2/2021 9:30:00 AM 8.46 47.228 0.623 7.39 1.67 11.36
4/2/2021 9:45:00 AM 8.52 47.336 0.623 7.42 2 11.54
4/2/2021 10:00:00 AM 8.59 47.462 0.623 7.29 1.81 11.74
4/2/2021 10:15:00 AM 8.69 47.642 0.623 7.41 1.61 11.93
4/2/2021 10:30:00 AM 8.77 47.786 0.623 7.33 1.4 12.08
4/2/2021 10:45:00 AM 8.87 47.966 0.623 7.37 1.43 12.24
4/2/2021 11:00:00 AM 8.98 48.164 0.623 7.42 1.55 12.43
4/2/2021 11:15:00 AM 9.08 48.344 0.622 7.49 1.28 12.58
4/2/2021 11:30:00 AM 9.18 48.524 0.622 7.46 2.37 12.74
4/2/2021 11:45:00 AM 9.3 48.74 0.621 7.48 1.23 12.87
4/2/2021 12:00:00 PM 9.43 48.974 0.621 7.53 1.49 13.05
4/2/2021 12:15:00 PM 9.54 49.172 0.62 7.58 1.64 13.17
4/2/2021 12:30:00 PM 9.63 49.334 0.62 7.69 1.6 13.25
4/2/2021 12:45:00 PM 9.73 49.514 0.62 7.67 1.34 13.36
4/2/2021 1:00:00 PM 9.87 49.766 0.62 7.71 1.33 13.49
4/2/2021 1:15:00 PM 9.97 49.946 0.619 7.77 1.99 13.58
4/2/2021 1:30:00 PM 10.1 50.18 0.619 7.81 1.71 13.69
4/2/2021 1:45:00 PM 10.22 50.396 0.619 7.81 1.65 13.81
4/2/2021 2:00:00 PM 10.32 50.576 0.619 7.82 1.37 13.86
4/2/2021 2:15:00 PM 10.44 50.792 0.618 7.84 1.34 13.96
4/2/2021 2:30:00 PM 10.53 50.954 0.618 7.88 2.26 14.01
4/2/2021 2:45:00 PM 10.6 51.08 0.619 7.87 1.68 14.07
4/2/2021 3:00:00 PM 10.66 51.188 0.621 7.89 1.88 14.1
4/2/2021 3:15:00 PM 10.73 51.314 0.622 7.87 2.81 14.13
4/2/2021 3:30:00 PM 10.77 51.386 0.623 7.91 2.81 14.14
4/2/2021 3:45:00 PM 10.82 51.476 0.623 7.92 1.48 14.15
4/2/2021 4:00:00 PM 10.85 51.53 0.623 7.94 1.37 14.15
4/2/2021 4:15:00 PM 10.88 51.584 0.623 7.94 1.55 14.1
4/2/2021 4:30:00 PM 10.87 51.566 0.623 7.93 1.47 14.08
4/2/2021 4:45:00 PM 10.87 51.566 0.623 7.92 1.76 14.01
4/2/2021 5:00:00 PM 10.84 51.512 0.623 7.92 1.64 13.93
4/2/2021 5:15:00 PM 10.82 51.476 0.623 7.89 1.89 13.87
4/2/2021 5:30:00 PM 10.79 51.422 0.623 7.87 2.1 13.78
4/2/2021 5:45:00 PM 10.74 51.332 0.623 7.85 1.87 13.64
4/2/2021 6:00:00 PM 10.7 51.26 0.623 7.83 1.92 13.5
4/2/2021 6:15:00 PM 10.64 51.152 0.623 7.84 2.98 13.32
4/2/2021 6:30:00 PM 10.58 51.044 0.624 7.84 1.2 13.17
4/2/2021 6:45:00 PM 10.54 50.972 0.624 7.85 2.39 12.99
4/2/2021 7:00:00 PM 10.47 50.846 0.624 7.83 1.97 12.82
4/2/2021 7:15:00 PM 10.42 50.756 0.623 7.84 1.44 12.63
4/2/2021 7:30:00 PM 10.38 50.684 0.623 7.82 3.59 12.47
4/2/2021 7:45:00 PM 10.35 50.63 0.622 7.81 1.93 12.3
4/2/2021 8:00:00 PM 10.32 50.576 0.622 7.79 1.91 12.16
4/2/2021 8:15:00 PM 10.29 50.522 0.622 7.78 3.21 12.01
4/2/2021 8:30:00 PM 10.26 50.468 0.622 7.76 2.51 11.89
4/2/2021 8:45:00 PM 10.23 50.414 0.622 7.75 1.83 11.78
4/2/2021 9:00:00 PM 10.2 50.36 0.622 7.8 4.04 11.64
4/2/2021 9:15:00 PM 10.17 50.306 0.622 7.8 2.77 11.53
4/2/2021 9:30:00 PM 10.14 50.252 0.622 7.76 2.4 11.42
4/2/2021 9:45:00 PM 10.11 50.198 0.622 7.73 3.17 11.32
4/2/2021 10:00:00 PM 10.07 50.126 0.622 7.73 2.83 11.22
4/2/2021 10:15:00 PM 10.04 50.072 0.622 7.72 3.11 11.13
4/2/2021 10:30:00 PM 10.01 50.018 0.622 7.74 2.76 11.03
4/2/2021 10:45:00 PM 9.97 49.946 0.623 7.73 3.08 10.95
4/2/2021 11:00:00 PM 9.93 49.874 0.623 7.72 3.38 10.86
4/2/2021 11:15:00 PM 9.9 49.82 0.623 7.73 2.97 10.76
4/2/2021 11:30:00 PM 9.86 49.748 0.623 7.73 3.34 10.69
4/2/2021 11:45:00 PM 9.81 49.658 0.623 7.72 3.87 10.62
4/3/2021 12:00:00 AM 9.77 49.586 0.623 7.7 2.84 10.54
4/3/2021 12:15:00 AM 9.72 49.496 0.623 7.7 2.64 10.46
4/3/2021 12:30:00 AM 9.68 49.424 0.623 7.7 2.58 10.41
4/3/2021 12:45:00 AM 9.63 49.334 0.623 7.69 2.4 10.35
4/3/2021 1:00:00 AM 9.59 49.262 0.623 7.69 2.62 10.29
4/3/2021 1:15:00 AM 9.55 49.19 0.623 7.69 3.85 10.25
4/3/2021 1:30:00 AM 9.5 49.1 0.623 7.71 2.74 10.19
4/3/2021 1:45:00 AM 9.46 49.028 0.624 7.72 3.01 10.16
4/3/2021 2:00:00 AM 9.41 48.938 0.623 7.71 3.17 10.13
4/3/2021 2:15:00 AM 9.37 48.866 0.624 7.7 4.21 10.1
4/3/2021 2:30:00 AM 9.32 48.776 0.624 7.69 3.05 10.07
4/3/2021 2:45:00 AM 9.27 48.686 0.624 7.66 3.18 10.05
4/3/2021 3:00:00 AM 9.22 48.596 0.624 7.65 3.93 10.03
4/3/2021 3:15:00 AM 9.16 48.488 0.624 7.65 3.03 10.02
4/3/2021 3:30:00 AM 9.11 48.398 0.624 7.64 3.88 10.01
4/3/2021 3:45:00 AM 9.06 48.308 0.624 7.61 3.5 10.01
4/3/2021 4:00:00 AM 9.02 48.236 0.624 7.6 3.62 10
4/3/2021 4:15:00 AM 8.97 48.146 0.624 7.6 3.36 10
4/3/2021 4:30:00 AM 8.92 48.056 0.625 7.59 2.88 9.99
4/3/2021 4:45:00 AM 8.88 47.984 0.625 7.57 3.11 9.99
4/3/2021 5:00:00 AM 8.83 47.894 0.625 7.57 2.79 9.99
4/3/2021 5:15:00 AM 8.79 47.822 0.625 7.55 3.13 10
4/3/2021 5:30:00 AM 8.75 47.75 0.626 7.56 2.83 10
4/3/2021 5:45:00 AM 8.71 47.678 0.626 7.52 11.47 10
4/3/2021 6:00:00 AM 8.67 47.606 0.626 7.46 4.99 10.02
4/3/2021 6:15:00 AM 8.62 47.516 0.626 7.44 3.84 10.03
4/3/2021 6:30:00 AM 8.57 47.426 0.627 7.45 3.19 10.04
4/3/2021 6:45:00 AM 8.53 47.354 0.627 7.45 2.4 10.06
4/3/2021 7:00:00 AM 8.49 47.282 0.627 7.45 2.34 10.09
4/3/2021 7:15:00 AM 8.44 47.192 0.627 7.46 2.07 10.13
4/3/2021 7:30:00 AM 8.41 47.138 0.627 7.47 1.92 10.2
4/3/2021 7:45:00 AM 8.38 47.084 0.628 7.44 2.4 10.28
4/3/2021 8:00:00 AM 8.37 47.066 0.628 7.43 2.21 10.38
4/3/2021 8:15:00 AM 8.37 47.066 0.628 7.44 2.31 10.5
4/3/2021 8:30:00 AM 8.38 47.084 0.628 7.46 2.84 10.64
4/3/2021 8:45:00 AM 8.41 47.138 0.629 7.43 2.89 10.78
4/3/2021 9:00:00 AM 8.47 47.246 0.629 7.47 3.35 10.95
4/3/2021 9:15:00 AM 8.52 47.336 0.628 7.45 3.95 11.13
4/3/2021 9:30:00 AM 8.59 47.462 0.629 7.44 3.74 11.29
4/3/2021 9:45:00 AM 8.68 47.624 0.629 7.42 3.25 11.47
4/3/2021 10:00:00 AM 8.78 47.804 0.629 7.48 3.1 11.64
4/3/2021 10:15:00 AM 8.88 47.984 0.628 7.47 3.26 11.8
4/3/2021 10:30:00 AM 8.99 48.182 0.628 7.5 4.46 11.97
4/3/2021 10:45:00 AM 9.11 48.398 0.628 7.58 3.02 12.13
4/3/2021 11:00:00 AM 9.25 48.65 0.627 7.59 3.42 12.29
4/3/2021 11:15:00 AM 9.4 48.92 0.627 7.58 3.11 12.44
4/3/2021 11:30:00 AM 9.55 49.19 0.627 7.61 3.24 12.59
4/3/2021 11:45:00 AM 9.71 49.478 0.627 7.61 1.93 12.74
4/3/2021 12:00:00 PM 9.85 49.73 0.627 7.64 1.83 12.87
4/3/2021 12:15:00 PM 9.99 49.982 0.626 7.66 1.94 12.99
4/3/2021 12:30:00 PM 10.14 50.252 0.626 7.71 1.61 13.12
4/3/2021 12:45:00 PM 10.28 50.504 0.625 7.74 2.42 13.23
4/3/2021 1:00:00 PM 10.4 50.72 0.625 7.74 2.56 13.32
4/3/2021 1:15:00 PM 10.53 50.954 0.627 7.74 2.76 13.43
4/3/2021 1:30:00 PM 10.66 51.188 0.628 7.77 2.61 13.52
4/3/2021 1:45:00 PM 10.79 51.422 0.628 7.8 1.96 13.62
4/3/2021 2:00:00 PM 10.86 51.548 0.628 7.8 2.77 13.66
4/3/2021 2:15:00 PM 10.92 51.656 0.628 7.8 2.03 13.73
4/3/2021 2:30:00 PM 11.05 51.89 0.628 7.77 2.07 13.81
4/3/2021 2:45:00 PM 11.14 52.052 0.627 7.75 2.16 13.87
4/3/2021 3:00:00 PM 11.25 52.25 0.627 7.76 4.42 13.92
4/3/2021 3:15:00 PM 11.34 52.412 0.627 7.8 2.31 13.93
4/3/2021 3:30:00 PM 11.4 52.52 0.627 7.83 2.88 13.91
4/3/2021 3:45:00 PM 11.38 52.484 0.627 7.86 1.82 13.87
4/3/2021 4:00:00 PM 11.37 52.466 0.627 7.84 1.5 13.86
4/3/2021 4:15:00 PM 11.33 52.394 0.627 7.77 2.2 13.81
4/3/2021 4:30:00 PM 11.34 52.412 0.627 7.79 3.81 13.79
4/3/2021 4:45:00 PM 11.38 52.484 0.626 7.78 1.9 13.82
4/3/2021 5:00:00 PM 11.44 52.592 0.626 7.82 1.83 13.8
4/3/2021 5:15:00 PM 11.49 52.682 0.626 7.79 3.18 13.72
4/3/2021 5:30:00 PM 11.52 52.736 0.626 7.8 1.54 13.63
4/3/2021 5:45:00 PM 11.53 52.754 0.626 7.79 2.26 13.56
4/3/2021 6:00:00 PM 11.49 52.682 0.626 7.79 1.6 13.44
4/3/2021 6:15:00 PM 11.43 52.574 0.626 7.77 1.88 13.28
4/3/2021 6:30:00 PM 11.39 52.502 0.626 7.77 1.92 13.13
4/3/2021 6:45:00 PM 11.33 52.394 0.626 7.78 2.6 12.95
4/3/2021 7:00:00 PM 11.3 52.34 0.627 7.76 2.19 12.78
4/3/2021 7:15:00 PM 11.28 52.304 0.627 7.74 2.89 12.6
4/3/2021 7:30:00 PM 11.26 52.268 0.627 7.73 2.73 12.43
4/3/2021 7:45:00 PM 11.23 52.214 0.627 7.73 1.94 12.25
4/3/2021 8:00:00 PM 11.22 52.196 0.627 7.72 2.6 12.09
4/3/2021 8:15:00 PM 11.21 52.178 0.627 7.71 3.6 11.94
4/3/2021 8:30:00 PM 11.19 52.142 0.627 7.69 2.31 11.8
4/3/2021 8:45:00 PM 11.18 52.124 0.627 7.69 2.94 11.67
4/3/2021 9:00:00 PM 11.16 52.088 0.627 7.68 2.93 11.54
4/3/2021 9:15:00 PM 11.14 52.052 0.628 7.66 2.95 11.41
4/3/2021 9:30:00 PM 11.12 52.016 0.628 7.64 4.41 11.31
4/3/2021 9:45:00 PM 11.09 51.962 0.628 7.63 3.33 11.17
4/3/2021 10:00:00 PM 11.08 51.944 0.628 7.61 4.27 11.09
4/3/2021 10:15:00 PM 11.07 51.926 0.628 7.59 3.53 10.99
4/3/2021 10:30:00 PM 11.06 51.908 0.628 7.55 2.54 10.9
4/3/2021 10:45:00 PM 11.05 51.89 0.628 7.52 2.87 10.8
4/3/2021 11:00:00 PM 11.05 51.89 0.628 7.51 2.46 10.69
4/3/2021 11:15:00 PM 11.04 51.872 0.628 7.49 2.73 10.59
4/3/2021 11:30:00 PM 11.03 51.854 0.628 7.49 3.61 10.49
4/3/2021 11:45:00 PM 11.02 51.836 0.628 7.47 3.84 10.39
4/4/2021 12:00:00 AM 11.01 51.818 0.628 7.45 2.14 10.28
4/4/2021 12:15:00 AM 11.01 51.818 0.627 7.42 2.25 10.16
4/4/2021 12:30:00 AM 11 51.8 0.628 7.4 2.78 10.05
4/4/2021 12:45:00 AM 10.98 51.764 0.628 7.37 2.4 9.93
4/4/2021 1:00:00 AM 10.97 51.746 0.627 7.34 2.23 9.84
4/4/2021 1:15:00 AM 10.96 51.728 0.628 7.33 2.3 9.76
4/4/2021 1:30:00 AM 10.95 51.71 0.627 7.3 3.27 9.69
4/4/2021 1:45:00 AM 10.94 51.692 0.627 7.25 4.68 9.62
4/4/2021 2:00:00 AM 10.92 51.656 0.626 7.22 3.5 9.62
4/4/2021 2:15:00 AM 10.9 51.62 0.626 7.18 3.56 9.61
4/4/2021 2:30:00 AM 10.89 51.602 0.625 7.19 2.54 9.59
4/4/2021 2:45:00 AM 10.87 51.566 0.625 7.22 2.91 9.57
4/4/2021 3:00:00 AM 10.84 51.512 0.624 7.24 5.39 9.55
4/4/2021 3:15:00 AM 10.81 51.458 0.624 7.24 2.98 9.52
4/4/2021 3:30:00 AM 10.78 51.404 0.624 7.19 2.96 9.49
4/4/2021 3:45:00 AM 10.75 51.35 0.624 7.13 3.76 9.47
4/4/2021 4:00:00 AM 10.72 51.296 0.623 7.13 3.37 9.44
4/4/2021 4:15:00 AM 10.69 51.242 0.623 7.15 3.62 9.43
4/4/2021 4:30:00 AM 10.65 51.17 0.623 7.15 3.88 9.41
4/4/2021 4:45:00 AM 10.62 51.116 0.623 7.15 3.9 9.39
4/4/2021 5:00:00 AM 10.57 51.026 0.622 7.13 4.07 9.39
4/4/2021 5:15:00 AM 10.53 50.954 0.622 7.11 2.62 9.38
4/4/2021 5:30:00 AM 10.49 50.882 0.622 7.07 3.09 9.37
4/4/2021 5:45:00 AM 10.46 50.828 0.622 7.05 2.59 9.37
4/4/2021 6:00:00 AM 10.44 50.792 0.623 7.03 3.01 9.38
4/4/2021 6:15:00 AM 10.41 50.738 0.623 7.02 3.02 9.39
4/4/2021 6:30:00 AM 10.38 50.684 0.623 7.01 2.58 9.38
4/4/2021 6:45:00 AM 10.35 50.63 0.624 7 3.3 9.39
4/4/2021 7:00:00 AM 10.33 50.594 0.624 7.01 3.26 9.39
4/4/2021 7:15:00 AM 10.3 50.54 0.624 7.01 3.45 9.42
4/4/2021 7:30:00 AM 10.29 50.522 0.624 7.02 2.3 9.46
4/4/2021 7:45:00 AM 10.28 50.504 0.625 7 3.13 9.49
4/4/2021 8:00:00 AM 10.27 50.486 0.625 7 2.13 9.56
4/4/2021 8:15:00 AM 10.27 50.486 0.625 7.01 3.41 9.63
4/4/2021 8:30:00 AM 10.28 50.504 0.625 7.03 2.15 9.75
4/4/2021 8:45:00 AM 10.3 50.54 0.625 7.02 2.35 9.95
4/4/2021 9:00:00 AM 10.33 50.594 0.625 7.07 1.55 10.1
4/4/2021 9:15:00 AM 10.37 50.666 0.626 7.1 2.02 10.26
4/4/2021 9:30:00 AM 10.42 50.756 0.626 7.13 2.25 10.42
4/4/2021 9:45:00 AM 10.5 50.9 0.626 7.13 1.66 10.61
4/4/2021 10:00:00 AM 10.6 51.08 0.626 7.14 1.65 10.78
4/4/2021 10:15:00 AM 10.71 51.278 0.626 7.16 1.53 11
4/4/2021 10:30:00 AM 10.83 51.494 0.626 7.18 1.24 11.15
4/4/2021 10:45:00 AM 10.97 51.746 0.626 7.22 1.3 11.34
4/4/2021 11:00:00 AM 11.11 51.998 0.626 7.24 1.51 11.51
4/4/2021 11:15:00 AM 11.26 52.268 0.626 7.26 1.88 11.67
4/4/2021 11:30:00 AM 11.43 52.574 0.626 7.28 1.4 11.85
4/4/2021 11:45:00 AM 11.58 52.844 0.625 7.3 2.04 12
4/4/2021 12:00:00 PM 11.74 53.132 0.625 7.33 2.04 12.13
4/4/2021 12:15:00 PM 11.89 53.402 0.625 7.36 1.17 12.28
4/4/2021 12:30:00 PM 12.04 53.672 0.625 7.38 1.66 12.39
4/4/2021 12:45:00 PM 12.19 53.942 0.624 7.41 1.59 12.5
4/4/2021 1:00:00 PM 12.34 54.212 0.624 7.41 1.41 12.6
4/4/2021 1:15:00 PM 12.49 54.482 0.624 7.42 1.71 12.72
4/4/2021 1:30:00 PM 12.63 54.734 0.623 7.44 1.4 12.82
4/4/2021 1:45:00 PM 12.76 54.968 0.623 7.47 2.03 12.9
4/4/2021 2:00:00 PM 12.9 55.22 0.623 7.47 1.54 13
4/4/2021 2:15:00 PM 12.99 55.382 0.623 7.5 1.46 13.05
4/4/2021 2:30:00 PM 13.09 55.562 0.623 7.55 2.08 13.13
4/4/2021 2:45:00 PM 13.18 55.724 0.623 7.58 2.09 13.16
4/4/2021 3:00:00 PM 13.29 55.922 0.623 7.58 1.41 13.22
4/4/2021 3:15:00 PM 13.38 56.084 0.622 7.56 1.58 13.24
4/4/2021 3:30:00 PM 13.46 56.228 0.622 7.59 1.86 13.27
4/4/2021 3:45:00 PM 13.5 56.3 0.622 7.6 1.58 13.28
4/4/2021 4:00:00 PM 13.57 56.426 0.622 7.62 4.28 13.32
4/4/2021 4:15:00 PM 13.58 56.444 0.622 7.63 1.54 13.32
4/4/2021 4:30:00 PM 13.63 56.534 0.621 7.64 3.2 13.33
4/4/2021 4:45:00 PM 13.65 56.57 0.621 7.64 1.57 13.33
4/4/2021 5:00:00 PM 13.68 56.624 0.621 7.64 1.96 13.29
4/4/2021 5:15:00 PM 13.66 56.588 0.621 7.65 1.95 13.24
4/4/2021 5:30:00 PM 13.62 56.516 0.621 7.64 2.78 13.12
4/4/2021 5:45:00 PM 13.57 56.426 0.62 7.63 1.28 13.02
4/4/2021 6:00:00 PM 13.52 56.336 0.62 7.62 2.41 12.88
4/4/2021 6:15:00 PM 13.45 56.21 0.62 7.62 1.97 12.74
4/4/2021 6:30:00 PM 13.39 56.102 0.62 7.61 2.71 12.57
4/4/2021 6:45:00 PM 13.35 56.03 0.62 7.6 1.69 12.4
4/4/2021 7:00:00 PM 13.3 55.94 0.621 7.59 2.33 12.25
4/4/2021 7:15:00 PM 13.25 55.85 0.621 7.56 2.31 12.1
4/4/2021 7:30:00 PM 13.2 55.76 0.621 7.54 3.01 11.9
4/4/2021 7:45:00 PM 13.14 55.652 0.621 7.54 2.47 11.73
4/4/2021 8:00:00 PM 13.09 55.562 0.622 7.6 2.32 11.58
4/4/2021 8:15:00 PM 13.04 55.472 0.622 7.65 3.6 11.43
4/4/2021 8:30:00 PM 12.99 55.382 0.622 7.69 3.46 11.29
4/4/2021 8:45:00 PM 12.95 55.31 0.622 7.73 3.83 11.15
4/4/2021 9:00:00 PM 12.91 55.238 0.622 7.73 6.15 11.01
4/4/2021 9:15:00 PM 12.86 55.148 0.622 7.72 5.93 10.9
4/4/2021 9:30:00 PM 12.82 55.076 0.622 7.71 2.62 10.76
4/4/2021 9:45:00 PM 12.78 55.004 0.622 7.7 3.29 10.65
4/4/2021 10:00:00 PM 12.73 54.914 0.622 7.69 4.07 10.54
4/4/2021 10:15:00 PM 12.68 54.824 0.622 7.69 2.52 10.43
4/4/2021 10:30:00 PM 12.63 54.734 0.622 7.67 3.16 10.31
4/4/2021 10:45:00 PM 12.58 54.644 0.622 7.67 2.83 10.22
4/4/2021 11:00:00 PM 12.54 54.572 0.623 7.65 2.7 10.11
4/4/2021 11:15:00 PM 12.5 54.5 0.623 7.64 5.29 10.03
4/4/2021 11:30:00 PM 12.45 54.41 0.623 4.34 2.84 9.94
4/4/2021 11:45:00 PM 12.41 54.338 0.623 4.36 5.97 9.86
4/5/2021 12:00:00 AM 12.37 54.266 0.623 5.28 4.3 9.77
4/5/2021 12:15:00 AM 12.32 54.176 0.623 5.75 2.98 9.69
4/5/2021 12:30:00 AM 12.27 54.086 0.623 6.02 4.12 9.6
4/5/2021 12:45:00 AM 12.22 53.996 0.623 6.24 4.16 9.53
4/5/2021 1:00:00 AM 12.18 53.924 0.623 6.41 2.87 9.46
4/5/2021 1:15:00 AM 12.13 53.834 0.622 6.56 2.79 9.39
4/5/2021 1:30:00 AM 12.07 53.726 0.622 6.65 4.28 9.34
4/5/2021 1:45:00 AM 12.02 53.636 0.621 6.73 3.7 9.29
4/5/2021 2:00:00 AM 11.96 53.528 0.621 6.83 2.97 9.24
4/5/2021 2:15:00 AM 11.91 53.438 0.62 6.88 3.22 9.19
4/5/2021 2:30:00 AM 11.85 53.33 0.62 6.93 3.03 9.16
4/5/2021 2:45:00 AM 11.79 53.222 0.62 6.96 2.68 9.13
4/5/2021 3:00:00 AM 11.73 53.114 0.619 6.94 3.93 9.11
4/5/2021 3:15:00 AM 11.68 53.024 0.619 6.99 4.54 9.09
4/5/2021 3:30:00 AM 11.62 52.916 0.619 6.98 3.94 9.06
4/5/2021 3:45:00 AM 11.56 52.808 0.619 7.07 3.22 9.06
4/5/2021 4:00:00 AM 11.51 52.718 0.62 7.12 3.18 9.04
4/5/2021 4:15:00 AM 11.46 52.628 0.619 7.2 4.32 9.04
4/5/2021 4:30:00 AM 11.4 52.52 0.62 7.22 3.42 9.03
4/5/2021 4:45:00 AM 11.35 52.43 0.62 7.24 2.86 9.02
4/5/2021 5:00:00 AM 11.29 52.322 0.62 7.24 3.12 9.03
4/5/2021 5:15:00 AM 11.24 52.232 0.62 7.26 6.55 9.01
4/5/2021 5:30:00 AM 11.19 52.142 0.62 7.27 3.36 9.03
4/5/2021 5:45:00 AM 11.13 52.034 0.62 7.28 3.19 9.04
4/5/2021 6:00:00 AM 11.08 51.944 0.62 7.28 4.41 9.04
4/5/2021 6:15:00 AM 11.03 51.854 0.621 7.27 3.1 9.06
4/5/2021 6:30:00 AM 10.97 51.746 0.621 7.31 3.91 9.07
4/5/2021 6:45:00 AM 10.92 51.656 0.621 7.3 2.74 9.09
4/5/2021 7:00:00 AM 10.86 51.548 0.622 7.32 5.76 9.12
4/5/2021 7:15:00 AM 10.81 51.458 0.622 7.35 3.57 9.15
4/5/2021 7:30:00 AM 10.77 51.386 0.623 7.36 6.03 9.22
4/5/2021 7:45:00 AM 10.73 51.314 0.623 7.37 3.41 9.29
4/5/2021 8:00:00 AM 10.71 51.278 0.624 7.39 2.56 9.38
4/5/2021 8:15:00 AM 10.7 51.26 0.624 7.4 2.69 9.5
4/5/2021 8:30:00 AM 10.71 51.278 0.624 7.39 2.95 9.62
4/5/2021 8:45:00 AM 10.74 51.332 0.625 7.4 1.82 9.77
4/5/2021 9:00:00 AM 10.78 51.404 0.625 7.4 1.98 9.92
4/5/2021 9:15:00 AM 10.84 51.512 0.625 7.4 2.69 10.06
4/5/2021 9:30:00 AM 10.91 51.638 0.625 7.43 1.66 10.23
4/5/2021 9:45:00 AM 11 51.8 0.626 7.44 1.87 10.38
4/5/2021 10:00:00 AM 11.1 51.98 0.626 7.46 1.71 10.53
4/5/2021 10:15:00 AM 11.2 52.16 0.626 7.49 3.04 10.67
4/5/2021 10:30:00 AM 11.31 52.358 0.626 7.5 1.79 10.84
4/5/2021 10:45:00 AM 11.43 52.574 0.626 7.53 2.03 10.99
4/5/2021 11:00:00 AM 11.55 52.79 0.626 7.55 2.57 11.14
4/5/2021 11:15:00 AM 11.68 53.024 0.626 7.57 2.44 11.28
4/5/2021 11:30:00 AM 11.81 53.258 0.626 7.6 1.8 11.43
4/5/2021 11:45:00 AM 11.96 53.528 0.626 7.62 1.63 11.55
4/5/2021 12:00:00 PM 12.1 53.78 0.626 7.64 1.74 11.69
4/5/2021 12:15:00 PM 12.25 54.05 0.626 7.66 1.9 11.8
4/5/2021 12:30:00 PM 12.38 54.284 0.625 7.7 1.69 11.92
4/5/2021 12:45:00 PM 12.51 54.518 0.626 7.71 2.31 12.05
4/5/2021 1:00:00 PM 12.61 54.698 0.625 7.71 1.77 12.14
4/5/2021 1:15:00 PM 12.69 54.842 0.625 7.76 2.1 12.26
4/5/2021 1:30:00 PM 12.81 55.058 0.625 7.81 3.02 12.38
4/5/2021 1:45:00 PM 12.93 55.274 0.625 7.83 2.84 12.47
4/5/2021 2:00:00 PM 13.05 55.49 0.625 7.82 1.86 12.56
4/5/2021 2:15:00 PM 13.16 55.688 0.624 7.83 1.92 12.64
4/5/2021 2:30:00 PM 13.28 55.904 0.624 7.85 2 12.71
4/5/2021 2:45:00 PM 13.37 56.066 0.624 7.87 1.97 12.77
4/5/2021 3:00:00 PM 13.45 56.21 0.624 7.88 2.49 12.81
4/5/2021 3:15:00 PM 13.52 56.336 0.624 7.9 4.34 12.88
4/5/2021 3:30:00 PM 13.58 56.444 0.624 7.9 1.85 12.93
4/5/2021 3:45:00 PM 13.59 56.462 0.623 7.95 2.06 12.96
4/5/2021 4:00:00 PM 13.59 56.462 0.623 7.97 2.78 12.98
4/5/2021 4:15:00 PM 13.6 56.48 0.623 7.98 2.72 12.98
4/5/2021 4:30:00 PM 13.64 56.552 0.623 7.99 2.36 12.99
4/5/2021 4:45:00 PM 13.66 56.588 0.622 8.01 2.33 12.95
4/5/2021 5:00:00 PM 13.67 56.606 0.622 8.03 1.74 12.93
4/5/2021 5:15:00 PM 13.68 56.624 0.622 8.05 7.83 12.9
4/5/2021 5:30:00 PM 13.64 56.552 0.622 8.08 2.7 12.78
4/5/2021 5:45:00 PM 13.59 56.462 0.622 8.08 2.58 12.69
4/5/2021 6:00:00 PM 13.54 56.372 0.622 8.06 2.5 12.61
4/5/2021 6:15:00 PM 13.5 56.3 0.621 8.05 3.55 12.51
4/5/2021 6:30:00 PM 13.47 56.246 0.621 8.04 3.76 12.4
4/5/2021 6:45:00 PM 13.45 56.21 0.621 8.04 2.54 12.28
4/5/2021 7:00:00 PM 13.43 56.174 0.621 8.05 3.78 12.14
4/5/2021 7:15:00 PM 13.42 56.156 0.621 8.05 2.91 11.99
4/5/2021 7:30:00 PM 13.4 56.12 0.621 8.04 3.1 11.86
4/5/2021 7:45:00 PM 13.38 56.084 0.621 8.04 3.28 11.72
4/5/2021 8:00:00 PM 13.35 56.03 0.621 8.04 2.87 11.57
4/5/2021 8:15:00 PM 13.32 55.976 0.621 8.01 2.65 11.41
4/5/2021 8:30:00 PM 13.29 55.922 0.621 8.01 3.41 11.29
4/5/2021 8:45:00 PM 13.27 55.886 0.621 8 2.39 11.17
4/5/2021 9:00:00 PM 13.26 55.868 0.621 7.98 2.92 11.03
4/5/2021 9:15:00 PM 13.24 55.832 0.621 8 2.97 10.9
4/5/2021 9:30:00 PM 13.21 55.778 0.621 7.99 3.16 10.8
4/5/2021 9:45:00 PM 13.18 55.724 0.621 7.99 5.25 10.68
4/5/2021 10:00:00 PM 13.15 55.67 0.621 7.99 3.22 10.58
4/5/2021 10:15:00 PM 13.12 55.616 0.621 7.98 4.97 10.46
4/5/2021 10:30:00 PM 13.09 55.562 0.621 7.96 5.57 10.36
4/5/2021 10:45:00 PM 13.06 55.508 0.621 7.95 3.26 10.25
4/5/2021 11:00:00 PM 13.03 55.454 0.621 7.95 2.97 10.13
4/5/2021 11:15:00 PM 13 55.4 0.621 7.93 3.25 10.02
4/5/2021 11:30:00 PM 12.98 55.364 0.621 7.93 3.61 9.91
4/5/2021 11:45:00 PM 12.96 55.328 0.621 7.92 2.8 9.81
4/6/2021 12:00:00 AM 12.95 55.31 0.622 7.91 4.13 9.7
4/6/2021 12:15:00 AM 12.93 55.274 0.622 7.9 3.13 9.61
4/6/2021 12:30:00 AM 12.91 55.238 0.622 7.88 3.95 9.5
4/6/2021 12:45:00 AM 12.9 55.22 0.623 7.86 3.18 9.44
4/6/2021 1:00:00 AM 12.88 55.184 0.623 7.87 3.14 9.36
4/6/2021 1:15:00 AM 12.86 55.148 0.623 7.8 3.25 9.27
4/6/2021 1:30:00 AM 12.84 55.112 0.623 7.81 3.76 9.22
4/6/2021 1:45:00 AM 12.82 55.076 0.623 7.82 5.29 9.15
4/6/2021 2:00:00 AM 12.8 55.04 0.623 7.82 3.82 9.09
4/6/2021 2:15:00 AM 12.79 55.022 0.622 7.81 4.85 9.03
4/6/2021 2:30:00 AM 12.76 54.968 0.622 7.8 6.74 9
4/6/2021 2:45:00 AM 12.74 54.932 0.621 7.76 3.49 8.95
4/6/2021 3:00:00 AM 12.72 54.896 0.621 7.76 5.72 8.93
4/6/2021 3:15:00 AM 12.7 54.86 0.621 7.75 3.99 8.88
4/6/2021 3:30:00 AM 12.66 54.788 0.62 7.73 4.99 8.86
4/6/2021 3:45:00 AM 12.6 54.68 0.621 7.72 4.27 8.83
4/6/2021 4:00:00 AM 12.55 54.59 0.621 7.71 5.84 8.81
4/6/2021 4:15:00 AM 12.49 54.482 0.621 7.7 6.93 8.78
4/6/2021 4:30:00 AM 12.43 54.374 0.621 7.69 7.95 8.78
4/6/2021 4:45:00 AM 12.38 54.284 0.621 7.68 6.84 8.76
4/6/2021 5:00:00 AM 12.32 54.176 0.621 7.68 3.68 8.75
4/6/2021 5:15:00 AM 12.26 54.068 0.621 7.67 3.71 8.76
4/6/2021 5:30:00 AM 12.2 53.96 0.62 7.65 4.65 8.75
4/6/2021 5:45:00 AM 12.14 53.852 0.62 7.67 4.69 8.76
4/6/2021 6:00:00 AM 12.09 53.762 0.621 7.66 4.57 8.75
4/6/2021 6:15:00 AM 12.03 53.654 0.621 7.64 3.97 8.76
4/6/2021 6:30:00 AM 11.97 53.546 0.621 7.63 4.6 8.75
4/6/2021 6:45:00 AM 11.92 53.456 0.621 7.63 3.78 8.77
4/6/2021 7:00:00 AM 11.86 53.348 0.621 7.63 4.36 8.78
4/6/2021 7:15:00 AM 11.81 53.258 0.622 7.63 6.27 8.83
4/6/2021 7:30:00 AM 11.77 53.186 0.622 7.63 3.03 8.87
4/6/2021 7:45:00 AM 11.73 53.114 0.623 7.63 3.24 8.93
4/6/2021 8:00:00 AM 11.71 53.078 0.623 7.63 3.17 9.01
4/6/2021 8:15:00 AM 11.7 53.06 0.623 7.67 2.46 9.11
4/6/2021 8:30:00 AM 11.71 53.078 0.623 7.67 5.08 9.22
4/6/2021 8:45:00 AM 11.74 53.132 0.624 7.68 3.46 9.34
4/6/2021 9:00:00 AM 11.78 53.204 0.625 7.67 2.15 9.48
4/6/2021 9:15:00 AM 11.85 53.33 0.625 7.69 3.48 9.61
4/6/2021 9:30:00 AM 11.92 53.456 0.625 7.69 2.1 9.74
4/6/2021 9:45:00 AM 12.02 53.636 0.626 7.69 2.66 9.88
4/6/2021 10:00:00 AM 12.13 53.834 0.626 7.7 2.37 10.02
4/6/2021 10:15:00 AM 12.23 54.014 0.626 7.71 3.56 10.16
4/6/2021 10:30:00 AM 12.34 54.212 0.626 7.72 1.41 10.29
4/6/2021 10:45:00 AM 12.46 54.428 0.626 7.74 3.91 10.43
4/6/2021 11:00:00 AM 12.59 54.662 0.626 7.75 2.11 10.55
4/6/2021 11:15:00 AM 12.72 54.896 0.627 7.77 2.08 10.67
4/6/2021 11:30:00 AM 12.86 55.148 0.626 7.79 1.95 10.83
4/6/2021 11:45:00 AM 13 55.4 0.627 7.82 4.45 10.95
4/6/2021 12:00:00 PM 13.15 55.67 0.627 7.83 2.56 11.08
4/6/2021 12:15:00 PM 13.29 55.922 0.627 7.85 2.02 11.2
4/6/2021 12:30:00 PM 13.42 56.156 0.627 7.86 1.66 11.32
4/6/2021 12:45:00 PM 13.57 56.426 0.627 7.87 3.18 11.42
4/6/2021 1:00:00 PM 13.7 56.66 0.627 7.89 3.11 11.53
4/6/2021 1:15:00 PM 13.83 56.894 0.627 7.88 1.99 11.63
4/6/2021 1:30:00 PM 13.94 57.092 0.627 7.92 2.46 11.74
4/6/2021 1:45:00 PM 14.06 57.308 0.627 7.94 2.18 11.86
4/6/2021 2:00:00 PM 14.17 57.506 0.627 7.95 2.71 11.95
4/6/2021 2:15:00 PM 14.26 57.668 0.627 7.96 2.04 12.04
4/6/2021 2:30:00 PM 14.35 57.83 0.626 7.97 1.43 12.12
4/6/2021 2:45:00 PM 14.44 57.992 0.626 7.99 3.38 12.2
4/6/2021 3:00:00 PM 14.51 58.118 0.626 8.01 2.04 12.28
4/6/2021 3:15:00 PM 14.57 58.226 0.626 8.03 3.27 12.36
4/6/2021 3:30:00 PM 14.65 58.37 0.626 8.04 3.01 12.4
4/6/2021 3:45:00 PM 14.71 58.478 0.625 8.05 1.66 12.42
4/6/2021 4:00:00 PM 14.79 58.622 0.625 8.07 2.23 12.42
4/6/2021 4:15:00 PM 14.88 58.784 0.625 8.09 3.71 12.43
4/6/2021 4:30:00 PM 14.95 58.91 0.625 8.15 2.15 12.44
4/6/2021 4:45:00 PM 14.99 58.982 0.624 8.21 3.4 12.44
4/6/2021 5:00:00 PM 15.01 59.018 0.624 8.23 3.25 12.41
4/6/2021 5:15:00 PM 15 59 0.624 8.23 1.83 12.37
4/6/2021 5:30:00 PM 14.98 58.964 0.623 8.27 2.38 12.34
4/6/2021 5:45:00 PM 14.96 58.928 0.623 8.26 2.79 12.26
4/6/2021 6:00:00 PM 14.93 58.874 0.622 8.29 2.82 12.17
4/6/2021 6:15:00 PM 14.9 58.82 0.622 8.31 2.88 12.09
4/6/2021 6:30:00 PM 14.86 58.748 0.621 8.31 3.58 11.98
4/6/2021 6:45:00 PM 14.82 58.676 0.621 8.31 1.98 11.86
4/6/2021 7:00:00 PM 14.78 58.604 0.62 8.31 2.69 11.74
4/6/2021 7:15:00 PM 14.73 58.514 0.62 8.32 3.67 11.6
4/6/2021 7:30:00 PM 14.68 58.424 0.62 8.32 2.4 11.48
4/6/2021 7:45:00 PM 14.63 58.334 0.62 8.34 3.15 11.33
4/6/2021 8:00:00 PM 14.58 58.244 0.619 8.33 3.86 11.19
4/6/2021 8:15:00 PM 14.53 58.154 0.62 8.33 3.73 11.06
4/6/2021 8:30:00 PM 14.46 58.028 0.619 8.33 2.97 10.95
4/6/2021 8:45:00 PM 14.35 57.83 0.619 8.33 4.3 10.8
4/6/2021 9:00:00 PM 14.2 57.56 0.62 8.31 3.59 10.64
4/6/2021 9:15:00 PM 14.05 57.29 0.62 8.27 5.18 10.54
4/6/2021 9:30:00 PM 13.94 57.092 0.621 8.25 3.57 10.48
4/6/2021 9:45:00 PM 13.87 56.966 0.621 8.22 5.97 10.46
4/6/2021 10:00:00 PM 13.82 56.876 0.621 8.2 3.67 10.4
4/6/2021 10:15:00 PM 13.78 56.804 0.621 8.18 5.19 10.31
4/6/2021 10:30:00 PM 13.74 56.732 0.621 8.17 7.41 10.2
4/6/2021 10:45:00 PM 13.71 56.678 0.62 8.14 3.95 10.08
4/6/2021 11:00:00 PM 13.68 56.624 0.62 8.1 3.37 9.96
4/6/2021 11:15:00 PM 13.64 56.552 0.62 8.08 3.58 9.84
4/6/2021 11:30:00 PM 13.6 56.48 0.62 8.06 3.84 9.74
4/6/2021 11:45:00 PM 13.56 56.408 0.62 8.04 4.35 9.64
4/7/2021 12:00:00 AM 13.52 56.336 0.62 8.02 3.38 9.54
4/7/2021 12:15:00 AM 13.48 56.264 0.62 8.01 4.18 9.44
4/7/2021 12:30:00 AM 13.44 56.192 0.62 7.99 4.52 9.34
4/7/2021 12:45:00 AM 13.41 56.138 0.62 7.94 4.23 9.27
4/7/2021 1:00:00 AM 13.38 56.084 0.62 7.92 4.01 9.19
4/7/2021 1:15:00 AM 13.34 56.012 0.62 7.9 6.73 9.13
4/7/2021 1:30:00 AM 13.31 55.958 0.62 7.9 3.19 9.05
4/7/2021 1:45:00 AM 13.28 55.904 0.619 7.89 4.15 8.99
4/7/2021 2:00:00 AM 13.25 55.85 0.619 7.87 7.05 8.94
4/7/2021 2:15:00 AM 13.21 55.778 0.619 7.86 5.45 8.89
4/7/2021 2:30:00 AM 13.17 55.706 0.618 7.85 4.62 8.85
4/7/2021 2:45:00 AM 13.13 55.634 0.619 7.84 3.93 8.83
4/7/2021 3:00:00 AM 13.09 55.562 0.618 7.81 3.53 8.78
4/7/2021 3:15:00 AM 13.05 55.49 0.618 7.79 4.74 8.77
4/7/2021 3:30:00 AM 13.02 55.436 0.618 7.78 6.54 8.74
4/7/2021 3:45:00 AM 12.99 55.382 0.619 7.77 4.17 8.73
4/7/2021 4:00:00 AM 12.96 55.328 0.619 7.76 4.33 8.69
4/7/2021 4:15:00 AM 12.93 55.274 0.618 7.76 3.88 8.67
4/7/2021 4:30:00 AM 12.89 55.202 0.619 7.73 5.7 8.65
4/7/2021 4:45:00 AM 12.84 55.112 0.618 7.72 3.08 8.66
4/7/2021 5:00:00 AM 12.79 55.022 0.618 7.72 4.3 8.65
4/7/2021 5:15:00 AM 12.74 54.932 0.618 7.72 5.17 8.65
4/7/2021 5:30:00 AM 12.69 54.842 0.618 7.71 4.25 8.65
4/7/2021 5:45:00 AM 12.64 54.752 0.619 7.7 5.92 8.64
4/7/2021 6:00:00 AM 12.59 54.662 0.619 7.7 3.89 8.65
4/7/2021 6:15:00 AM 12.54 54.572 0.619 7.71 4.72 8.66
4/7/2021 6:30:00 AM 12.49 54.482 0.619 7.71 3.81 8.65
4/7/2021 6:45:00 AM 12.44 54.392 0.62 7.69 3.95 8.66
4/7/2021 7:00:00 AM 12.4 54.32 0.62 7.68 4.37 8.68
4/7/2021 7:15:00 AM 12.37 54.266 0.62 7.66 4.83 8.71
4/7/2021 7:30:00 AM 12.35 54.23 0.62 7.65 2.97 8.77
4/7/2021 7:45:00 AM 12.35 54.23 0.621 7.66 3.33 8.84
4/7/2021 8:00:00 AM 12.35 54.23 0.621 7.67 3.37 8.95
4/7/2021 8:15:00 AM 12.38 54.284 0.621 7.68 3.56 9.05
4/7/2021 8:30:00 AM 12.42 54.356 0.622 7.68 2.64 9.14
4/7/2021 8:45:00 AM 12.44 54.392 0.622 7.69 2.68 9.24
4/7/2021 9:00:00 AM 12.46 54.428 0.623 7.7 2.99 9.32
4/7/2021 9:15:00 AM 12.47 54.446 0.623 7.71 2.65 9.38
4/7/2021 9:30:00 AM 12.5 54.5 0.624 7.72 2.86 9.49
4/7/2021 9:45:00 AM 12.53 54.554 0.624 7.74 2.95 9.61
4/7/2021 10:00:00 AM 12.6 54.68 0.625 7.73 2.56 9.72
4/7/2021 10:15:00 AM 12.71 54.878 0.625 7.75 2.38 9.82
4/7/2021 10:30:00 AM 12.77 54.986 0.626 7.75 2.41 9.82
4/7/2021 10:45:00 AM 12.78 55.004 0.626 7.83 1.94 9.85
4/7/2021 11:00:00 AM 12.77 54.986 0.626 7.81 2.32 9.85
4/7/2021 11:15:00 AM 12.73 54.914 0.627 7.8 1.97 9.89
4/7/2021 11:30:00 AM 12.7 54.86 0.627 7.8 4.53 9.94
4/7/2021 11:45:00 AM 12.67 54.806 0.627 7.79 2.37 9.98
4/7/2021 12:00:00 PM 12.73 54.914 0.627 7.78 1.88 10.09
4/7/2021 12:15:00 PM 12.86 55.148 0.626 7.8 2.02 10.24
4/7/2021 12:30:00 PM 13.03 55.454 0.627 7.81 3.33 10.37
4/7/2021 12:45:00 PM 13.25 55.85 0.627 7.83 2.82 10.51
4/7/2021 1:00:00 PM 13.41 56.138 0.627 7.84 1.98 10.62
4/7/2021 1:15:00 PM 13.63 56.534 0.628 7.85 3.62 10.73
4/7/2021 1:30:00 PM 13.79 56.822 0.627 7.89 2.2 10.88
4/7/2021 1:45:00 PM 13.96 57.128 0.628 7.92 6.37 11.02
4/7/2021 2:00:00 PM 14.13 57.434 0.627 7.93 2.18 11.16
4/7/2021 2:15:00 PM 14.26 57.668 0.627 7.94 3.38 11.28
4/7/2021 2:30:00 PM 14.39 57.902 0.628 7.97 5.9 11.37
4/7/2021 2:45:00 PM 14.49 58.082 0.628 7.97 1.88 11.44
4/7/2021 3:00:00 PM 14.57 58.226 0.628 7.99 3.9 11.51
4/7/2021 3:15:00 PM 14.64 58.352 0.628 8.01 3.31 11.59
4/7/2021 3:30:00 PM 14.7 58.46 0.628 8.02 2.49 11.68
4/7/2021 3:45:00 PM 14.73 58.514 0.628 8.03 3.26 11.79
4/7/2021 4:00:00 PM 14.74 58.532 0.627 8.05 8.03 11.83
4/7/2021 4:15:00 PM 14.73 58.514 0.627 8.08 2.4 11.91
4/7/2021 4:30:00 PM 14.74 58.532 0.627 8.08 3.91 11.92
4/7/2021 4:45:00 PM 14.73 58.514 0.626 8.08 3.04 11.89
4/7/2021 5:00:00 PM 14.72 58.496 0.627 8.08 2.67 11.89
4/7/2021 5:15:00 PM 14.7 58.46 0.627 8.08 2.44 11.86
4/7/2021 5:30:00 PM 14.66 58.388 0.629 8.09 3.5 11.83
4/7/2021 5:45:00 PM 14.62 58.316 0.627 8.11 3.09 11.82
4/7/2021 6:00:00 PM 14.58 58.244 0.626 8.04 3.4 11.8
4/7/2021 6:15:00 PM 14.54 58.172 0.626 8.04 3.67 11.76
4/7/2021 6:30:00 PM 14.49 58.082 0.626 8.07 2.49 11.71
4/7/2021 6:45:00 PM 14.45 58.01 0.626 8.09 2.67 11.64
4/7/2021 7:00:00 PM 14.41 57.938 0.626 8.1 3.03 11.55
4/7/2021 7:15:00 PM 14.36 57.848 0.626 8.1 2.89 11.46
4/7/2021 7:30:00 PM 14.32 57.776 0.625 8.1 4.98 11.35
4/7/2021 7:45:00 PM 14.28 57.704 0.625 8.1 3.63 11.25
4/7/2021 8:00:00 PM 14.23 57.614 0.625 8.09 4.1 11.16
4/7/2021 8:15:00 PM 14.19 57.542 0.625 8.1 5.01 11.05
4/7/2021 8:30:00 PM 14.15 57.47 0.625 8.11 3.44 10.95
4/7/2021 8:45:00 PM 14.12 57.416 0.625 8.1 3.28 10.83
4/7/2021 9:00:00 PM 14.1 57.38 0.625 8.11 4.39 10.75
4/7/2021 9:15:00 PM 14.07 57.326 0.624 8.1 6.47 10.65
4/7/2021 9:30:00 PM 14.05 57.29 0.623 8.09 4.81 10.55
4/7/2021 9:45:00 PM 14.03 57.254 0.625 8.08 5.18 10.45
4/7/2021 10:00:00 PM 14 57.2 0.623 8.08 6.25 10.37
4/7/2021 10:15:00 PM 13.98 57.164 0.624 8.08 9.05 10.27
4/7/2021 10:30:00 PM 13.95 57.11 0.623 8.07 5.32 10.18
4/7/2021 10:45:00 PM 13.92 57.056 0.623 8.07 4.4 10.07
4/7/2021 11:00:00 PM 13.89 57.002 0.623 8.06 6.78 9.98
4/7/2021 11:15:00 PM 13.86 56.948 0.623 8.07 3.94 9.89
4/7/2021 11:30:00 PM 13.83 56.894 0.623 8.05 6.58 9.78
4/7/2021 11:45:00 PM 13.79 56.822 0.623 8.07 6.5 9.69
4/8/2021 12:00:00 AM 13.76 56.768 0.623 8.05 3.95 9.59
4/8/2021 12:15:00 AM 13.72 56.696 0.623 8.02 4.57 9.49
4/8/2021 12:30:00 AM 13.68 56.624 0.624 8 4.41 9.4
4/8/2021 12:45:00 AM 13.64 56.552 0.623 7.98 4.26 9.33
4/8/2021 1:00:00 AM 13.59 56.462 0.625 7.96 3.73 9.24
4/8/2021 1:15:00 AM 13.54 56.372 0.625 7.94 3.96 9.17
4/8/2021 1:30:00 AM 13.5 56.3 0.626 7.91 3.54 9.1
4/8/2021 1:45:00 AM 13.45 56.21 0.626 7.88 3.73 9.04
4/8/2021 2:00:00 AM 13.42 56.156 0.626 7.87 4.62 8.98
4/8/2021 2:15:00 AM 13.37 56.066 0.626 7.85 6.07 8.94
4/8/2021 2:30:00 AM 13.33 55.994 0.626 7.85 4.45 8.9
4/8/2021 2:45:00 AM 13.29 55.922 0.626 7.84 4.92 8.86
4/8/2021 3:00:00 AM 13.24 55.832 0.626 7.82 4.35 8.83
4/8/2021 3:15:00 AM 13.19 55.742 0.625 7.75 3.18 8.8
4/8/2021 3:30:00 AM 13.14 55.652 0.625 7.76 4.08 8.78
4/8/2021 3:45:00 AM 13.09 55.562 0.625 7.79 4.17 8.75
4/8/2021 4:00:00 AM 13.04 55.472 0.625 7.78 4.83 8.74
4/8/2021 4:15:00 AM 12.99 55.382 0.624 7.77 3.85 8.72
4/8/2021 4:30:00 AM 12.95 55.31 0.624 7.76 5 8.71
4/8/2021 4:45:00 AM 12.9 55.22 0.623 7.75 4.39 8.69
4/8/2021 5:00:00 AM 12.86 55.148 0.623 7.73 4.55 8.68
4/8/2021 5:15:00 AM 12.81 55.058 0.622 7.68 4.15 8.68
4/8/2021 5:30:00 AM 12.77 54.986 0.622 7.67 4.05 8.68
4/8/2021 5:45:00 AM 12.72 54.896 0.622 7.68 4.24 8.68
4/8/2021 6:00:00 AM 12.67 54.806 0.622 7.73 5.03 8.68
4/8/2021 6:15:00 AM 12.62 54.716 0.622 7.75 4.28 8.68
4/8/2021 6:30:00 AM 12.58 54.644 0.622 7.75 4.44 8.69
4/8/2021 6:45:00 AM 12.53 54.554 0.623 7.75 4.06 8.7
4/8/2021 7:00:00 AM 12.49 54.482 0.622 7.75 3.94 8.73
4/8/2021 7:15:00 AM 12.46 54.428 0.623 7.73 3.97 8.74
4/8/2021 7:30:00 AM 12.43 54.374 0.623 7.72 3.24 8.79
4/8/2021 7:45:00 AM 12.41 54.338 0.623 7.71 3.67 8.85
4/8/2021 8:00:00 AM 12.4 54.32 0.623 7.71 3.5 8.92
4/8/2021 8:15:00 AM 12.39 54.302 0.623 7.7 3.1 9
4/8/2021 8:30:00 AM 12.41 54.338 0.624 7.71 3.36 9.1
4/8/2021 8:45:00 AM 12.45 54.41 0.624 7.71 2.94 9.21
4/8/2021 9:00:00 AM 12.5 54.5 0.624 7.72 2.81 9.32
4/8/2021 9:15:00 AM 12.55 54.59 0.625 7.73 4.64 9.44
4/8/2021 9:30:00 AM 12.63 54.734 0.625 7.74 2.95 9.54
4/8/2021 9:45:00 AM 12.72 54.896 0.626 7.75 3.41 9.67
4/8/2021 10:00:00 AM 12.82 55.076 0.626 7.7 2.42 9.78
4/8/2021 10:15:00 AM 12.93 55.274 0.626 7.8 3.28 9.89
4/8/2021 10:30:00 AM 13.05 55.49 0.627 7.81 3.91 10.01
4/8/2021 10:45:00 AM 13.18 55.724 0.627 7.81 4.41 10.12
4/8/2021 11:00:00 AM 13.31 55.958 0.628 7.82 2.34 10.23
4/8/2021 11:15:00 AM 13.45 56.21 0.628 7.84 3.89 10.34
4/8/2021 11:30:00 AM 13.59 56.462 0.628 7.86 2.7 10.45
4/8/2021 11:45:00 AM 13.75 56.75 0.628 7.86 2.85 10.55
4/8/2021 12:00:00 PM 13.9 57.02 0.628 7.86 3.12 10.66
4/8/2021 12:15:00 PM 14.05 57.29 0.628 7.88 2.34 10.74
4/8/2021 12:30:00 PM 14.2 57.56 0.628 7.9 2.33 10.83
4/8/2021 12:45:00 PM 14.33 57.794 0.628 7.91 2.68 10.95
4/8/2021 1:00:00 PM 14.47 58.046 0.629 7.94 4.04 11.04
4/8/2021 1:15:00 PM 14.61 58.298 0.629 7.95 3.08 11.13
4/8/2021 1:30:00 PM 14.75 58.55 0.629 7.98 2.85 11.23
4/8/2021 1:45:00 PM 14.87 58.766 0.63 7.99 2.66 11.32
4/8/2021 2:00:00 PM 14.98 58.964 0.63 8.03 2.4 11.4
4/8/2021 2:15:00 PM 15.08 59.144 0.629 8.05 2.72 11.48
4/8/2021 2:30:00 PM 15.17 59.306 0.63 8.07 2.68 11.56
4/8/2021 2:45:00 PM 15.24 59.432 0.63 8.08 2.42 11.62
4/8/2021 3:00:00 PM 15.32 59.576 0.631 8.1 3.57 11.67
4/8/2021 3:15:00 PM 15.37 59.666 0.63 8.13 3.08 11.73
4/8/2021 3:30:00 PM 15.42 59.756 0.628 8.11 4.64 11.77
4/8/2021 3:45:00 PM 15.45 59.81 0.629 8.12 2.5 11.81
4/8/2021 4:00:00 PM 15.47 59.846 0.628 8.13 3.46 11.87
4/8/2021 4:15:00 PM 15.48 59.864 0.628 8.13 2.84 11.89
4/8/2021 4:30:00 PM 15.49 59.882 0.627 8.14 2.89 11.91
4/8/2021 4:45:00 PM 15.48 59.864 0.627 8.16 2.04 11.93
4/8/2021 5:00:00 PM 15.46 59.828 0.626 8.17 3.82 11.92
4/8/2021 5:15:00 PM 15.43 59.774 0.626 8.18 3.21 11.91
4/8/2021 5:30:00 PM 15.39 59.702 0.625 8.19 2.87 11.88
4/8/2021 5:45:00 PM 15.34 59.612 0.625 8.19 3.67 11.86
4/8/2021 6:00:00 PM 15.29 59.522 0.624 8.2 2.4 11.82
4/8/2021 6:15:00 PM 15.23 59.414 0.625 7.87 3.97 11.76
4/8/2021 6:30:00 PM 15.16 59.288 0.625 8.2 2.98 11.67
4/8/2021 6:45:00 PM 15.09 59.162 0.624 8.21 3.75 11.58
4/8/2021 7:00:00 PM 15.03 59.054 0.624 8.2 3.24 11.47
4/8/2021 7:15:00 PM 14.98 58.964 0.624 8.2 3.48 11.37
4/8/2021 7:30:00 PM 14.92 58.856 0.624 8.2 3.1 11.25
4/8/2021 7:45:00 PM 14.86 58.748 0.624 8.21 4.68 11.13
4/8/2021 8:00:00 PM 14.81 58.658 0.624 8.2 5.13 11.02
4/8/2021 8:15:00 PM 14.76 58.568 0.624 8.2 4.28 10.9
4/8/2021 8:30:00 PM 14.71 58.478 0.624 8.19 4.53 10.78
4/8/2021 8:45:00 PM 14.66 58.388 0.624 8.19 3.35 10.69
4/8/2021 9:00:00 PM 14.61 58.298 0.623 8.19 5.11 10.57
4/8/2021 9:15:00 PM 14.56 58.208 0.624 8.18 4.18 10.46
4/8/2021 9:30:00 PM 14.51 58.118 0.624 8.18 5.73 10.37
4/8/2021 9:45:00 PM 14.46 58.028 0.624 8.17 5.12 10.27
4/8/2021 10:00:00 PM 14.42 57.956 0.624 8.17 5.35 10.18
4/8/2021 10:15:00 PM 14.37 57.866 0.624 8.16 4.59 10.09
4/8/2021 10:30:00 PM 14.32 57.776 0.624 8.1 5.29 10
4/8/2021 10:45:00 PM 14.28 57.704 0.625 8.11 5.05 9.91
4/8/2021 11:00:00 PM 14.23 57.614 0.625 8.12 4.96 9.84
4/8/2021 11:15:00 PM 14.18 57.524 0.625 8.12 6.55 9.74
4/8/2021 11:30:00 PM 14.13 57.434 0.626 8.12 5.27 9.64
4/8/2021 11:45:00 PM 14.08 57.344 0.626 8.1 4.79 9.56
4/9/2021 12:00:00 AM 14.04 57.272 0.626 8.1 6.87 9.46
4/9/2021 12:15:00 AM 13.99 57.182 0.626 8.09 5.42 9.37
4/9/2021 12:30:00 AM 13.95 57.11 0.626 8.07 5.9 9.26
4/9/2021 12:45:00 AM 13.9 57.02 0.626 8.07 5.95 9.17
4/9/2021 1:00:00 AM 13.85 56.93 0.626 8.05 8.26 9.11
4/9/2021 1:15:00 AM 13.79 56.822 0.626 8.02 8.45 9.04
4/9/2021 1:30:00 AM 13.74 56.732 0.626 8 5.96 8.98
4/9/2021 1:45:00 AM 13.69 56.642 0.626 7.98 5.12 8.93
4/9/2021 2:00:00 AM 13.64 56.552 0.626 7.96 6.52 8.89
4/9/2021 2:15:00 AM 13.59 56.462 0.626 7.94 6.68 8.85
4/9/2021 2:30:00 AM 13.54 56.372 0.626 7.93 6 8.81
4/9/2021 2:45:00 AM 13.5 56.3 0.626 7.9 6.82 8.77
4/9/2021 3:00:00 AM 13.46 56.228 0.626 7.89 4.04 8.75
4/9/2021 3:15:00 AM 13.43 56.174 0.626 7.88 5.44 8.73
4/9/2021 3:30:00 AM 13.4 56.12 0.625 7.87 3.82 8.71
4/9/2021 3:45:00 AM 13.37 56.066 0.625 7.86 4.69 8.69
4/9/2021 4:00:00 AM 13.34 56.012 0.624 7.84 4.42 8.68
4/9/2021 4:15:00 AM 13.31 55.958 0.624 7.83 5.21 8.65
4/9/2021 4:30:00 AM 13.28 55.904 0.624 7.83 7.1 8.65
4/9/2021 4:45:00 AM 13.25 55.85 0.624 7.83 4.12 8.62
4/9/2021 5:00:00 AM 13.22 55.796 0.624 7.83 3.4 8.62
4/9/2021 5:15:00 AM 13.2 55.76 0.624 7.82 5.19 8.62
4/9/2021 5:30:00 AM 13.17 55.706 0.625 7.82 4.22 8.62
4/9/2021 5:45:00 AM 13.15 55.67 0.624 7.81 3.97 8.62
4/9/2021 6:00:00 AM 13.12 55.616 0.624 7.81 5.33 8.62
4/9/2021 6:15:00 AM 13.1 55.58 0.624 7.8 4.07 8.62
4/9/2021 6:30:00 AM 13.07 55.526 0.624 7.8 5.05 8.62
4/9/2021 6:45:00 AM 13.04 55.472 0.625 7.79 3.99 8.62
4/9/2021 7:00:00 AM 13.01 55.418 0.624 7.79 8.05 8.64
4/9/2021 7:15:00 AM 12.99 55.382 0.625 7.78 3.97 8.65
4/9/2021 7:30:00 AM 12.96 55.328 0.625 7.79 4.31 8.68
4/9/2021 7:45:00 AM 12.95 55.31 0.625 7.79 4.78 8.74
4/9/2021 8:00:00 AM 12.95 55.31 0.625 7.83 4.08 8.81
4/9/2021 8:15:00 AM 12.94 55.292 0.625 7.85 4.13 8.86
4/9/2021 8:30:00 AM 12.93 55.274 0.626 7.86 4.01 8.92
4/9/2021 8:45:00 AM 12.92 55.256 0.626 7.88 4.98 8.96
4/9/2021 9:00:00 AM 12.91 55.238 0.626 7.88 3.41 9.03
4/9/2021 9:15:00 AM 12.89 55.202 0.626 7.88 4.61 9.08
4/9/2021 9:30:00 AM 12.88 55.184 0.627 7.87 3.65 9.14
4/9/2021 9:45:00 AM 12.86 55.148 0.628 7.86 3.4 9.18
4/9/2021 10:00:00 AM 12.84 55.112 0.628 7.85 3.25 9.2
4/9/2021 10:15:00 AM 12.83 55.094 0.629 7.84 3.28 9.24
4/9/2021 10:30:00 AM 12.82 55.076 0.628 7.83 4.76 9.29
4/9/2021 10:45:00 AM 12.81 55.058 0.629 7.82 2.81 9.35
4/9/2021 11:00:00 AM 12.81 55.058 0.629 7.82 2.58 9.42
4/9/2021 11:15:00 AM 12.82 55.076 0.629 7.82 2.66 9.5
4/9/2021 11:30:00 AM 12.83 55.094 0.63 7.82 2.84 9.59
4/9/2021 11:45:00 AM 12.85 55.13 0.629 7.83 4.26 9.69
4/9/2021 12:00:00 PM 12.87 55.166 0.629 7.83 2.43 9.78
4/9/2021 12:15:00 PM 12.89 55.202 0.63 7.84 2.59 9.86
4/9/2021 12:30:00 PM 12.91 55.238 0.63 7.85 3.93 9.95
4/9/2021 12:45:00 PM 12.93 55.274 0.63 7.86 2.58 10.01
4/9/2021 1:00:00 PM 12.93 55.274 0.63 7.86 3.25 10.09
4/9/2021 1:15:00 PM 12.95 55.31 0.63 7.87 3.22 10.19
4/9/2021 1:30:00 PM 12.96 55.328 0.631 7.88 3.37 10.27
4/9/2021 1:45:00 PM 12.95 55.31 0.63 7.88 2.5 10.32
4/9/2021 2:00:00 PM 12.96 55.328 0.631 7.88 3.25 10.38
4/9/2021 2:15:00 PM 12.96 55.328 0.631 7.89 2.82 10.43
4/9/2021 2:30:00 PM 12.96 55.328 0.631 7.9 2.13 10.49
4/9/2021 2:45:00 PM 12.96 55.328 0.631 7.9 2.37 10.52
4/9/2021 3:00:00 PM 12.95 55.31 0.631 7.91 3.77 10.56
4/9/2021 3:15:00 PM 12.95 55.31 0.631 7.91 2.86 10.59
4/9/2021 3:30:00 PM 12.93 55.274 0.632 7.91 2.9 10.63
4/9/2021 3:45:00 PM 12.92 55.256 0.632 7.93 2.42 10.68
4/9/2021 4:00:00 PM 12.92 55.256 0.631 7.94 2.7 10.69
4/9/2021 4:15:00 PM 12.94 55.292 0.632 7.95 3.39 10.66
4/9/2021 4:30:00 PM 12.93 55.274 0.633 7.96 3.01 10.64
4/9/2021 4:45:00 PM 12.91 55.238 0.632 7.96 3.74 10.66
4/9/2021 5:00:00 PM 12.89 55.202 0.632 7.97 3.35 10.64
4/9/2021 5:15:00 PM 12.87 55.166 0.632 7.96 3.45 10.65
4/9/2021 5:30:00 PM 12.85 55.13 0.631 7.97 2.96 10.64
4/9/2021 5:45:00 PM 12.83 55.094 0.632 7.97 3.15 10.61
4/9/2021 6:00:00 PM 12.82 55.076 0.632 7.99 3.36 10.57
4/9/2021 6:15:00 PM 12.8 55.04 0.632 7.99 2.5 10.53
4/9/2021 6:30:00 PM 12.78 55.004 0.632 7.98 3.82 10.48
4/9/2021 6:45:00 PM 12.77 54.986 0.631 7.99 2.98 10.44
4/9/2021 7:00:00 PM 12.75 54.95 0.632 7.98 2.98 10.39
4/9/2021 7:15:00 PM 12.73 54.914 0.631 7.98 2.7 10.32
4/9/2021 7:30:00 PM 12.72 54.896 0.632 7.97 3.21 10.28
4/9/2021 7:45:00 PM 12.71 54.878 0.632 7.97 3.87 10.23
4/9/2021 8:00:00 PM 12.69 54.842 0.632 7.96 3.1 10.17
4/9/2021 8:15:00 PM 12.69 54.842 0.632 7.95 3.59 10.1
4/9/2021 8:30:00 PM 12.68 54.824 0.632 7.94 5.56 10.05
4/9/2021 8:45:00 PM 12.67 54.806 0.632 7.94 6.35 10
4/9/2021 9:00:00 PM 12.67 54.806 0.632 7.92 4.74 9.95
4/9/2021 9:15:00 PM 12.66 54.788 0.632 7.92 4.01 9.9
4/9/2021 9:30:00 PM 12.65 54.77 0.633 7.91 4.16 9.83
4/9/2021 9:45:00 PM 12.65 54.77 0.632 7.87 4.61 9.79
4/9/2021 10:00:00 PM 12.65 54.77 0.633 7.9 5.36 9.76
4/9/2021 10:15:00 PM 12.64 54.752 0.633 7.89 5.22 9.71
4/9/2021 10:30:00 PM 12.64 54.752 0.635 7.88 4.75 9.66
4/9/2021 10:45:00 PM 12.63 54.734 0.633 7.87 5.03 9.62
4/9/2021 11:00:00 PM 12.63 54.734 0.633 7.89 5.52 9.57
4/9/2021 11:15:00 PM 12.62 54.716 0.634 7.91 4.95 9.53
4/9/2021 11:30:00 PM 12.61 54.698 0.634 7.91 5.15 9.49
4/9/2021 11:45:00 PM 12.61 54.698 0.634 7.9 6.34 9.45
4/10/2021 12:00:00 AM 12.6 54.68 0.634 7.88 5.53 9.42
4/10/2021 12:15:00 AM 12.58 54.644 0.634 7.85 4.99 9.37
4/10/2021 12:30:00 AM 12.57 54.626 0.634 7.84 5.18 9.33
4/10/2021 12:45:00 AM 12.56 54.608 0.634 7.82 5.64 9.32
4/10/2021 1:00:00 AM 12.55 54.59 0.634 7.8 4.74 9.29
4/10/2021 1:15:00 AM 12.54 54.572 0.634 7.81 3.74 9.26
4/10/2021 1:30:00 AM 12.53 54.554 0.634 7.79 4.54 9.23
4/10/2021 1:45:00 AM 12.52 54.536 0.634 7.75 5.61 9.22
4/10/2021 2:00:00 AM 12.51 54.518 0.634 7.77 5.99 9.2
4/10/2021 2:15:00 AM 12.5 54.5 0.634 7.77 5.38 9.18
4/10/2021 2:30:00 AM 12.49 54.482 0.635 7.77 6.27 9.16
4/10/2021 2:45:00 AM 12.47 54.446 0.635 7.79 6.57 9.15
4/10/2021 3:00:00 AM 12.46 54.428 0.635 7.78 5.85 9.14
4/10/2021 3:15:00 AM 12.45 54.41 0.636 7.78 3.92 9.13
4/10/2021 3:30:00 AM 12.44 54.392 0.636 7.78 11.82 9.12
4/10/2021 3:45:00 AM 12.43 54.374 0.636 7.78 7.63 9.1
4/10/2021 4:00:00 AM 12.42 54.356 0.635 7.78 12.87 9.09
4/10/2021 4:15:00 AM 12.42 54.356 0.634 7.77 10.99 9.09
4/10/2021 4:30:00 AM 12.41 54.338 0.635 7.78 6.73 9.08
4/10/2021 4:45:00 AM 12.4 54.32 0.634 7.75 8.51 9.08
4/10/2021 5:00:00 AM 12.39 54.302 0.634 7.56 6.18 9.07
4/10/2021 5:15:00 AM 12.38 54.284 0.634 7.58 7.2 9.07
4/10/2021 5:30:00 AM 12.38 54.284 0.634 7.62 6.07 9.06
4/10/2021 5:45:00 AM 12.37 54.266 0.635 7.61 7.42 9.04
4/10/2021 6:00:00 AM 12.37 54.266 0.635 7.69 6.46 9.05
4/10/2021 6:15:00 AM 12.36 54.248 0.635 7.7 4.83 9.04
4/10/2021 6:30:00 AM 12.35 54.23 0.636 7.69 11.68 9.05
4/10/2021 6:45:00 AM 12.35 54.23 0.636 7.68 5.77 9.03
4/10/2021 7:00:00 AM 12.34 54.212 0.636 7.68 5.47 9.04
4/10/2021 7:15:00 AM 12.34 54.212 0.636 7.65 9.77 9.05
4/10/2021 7:30:00 AM 12.33 54.194 0.637 7.63 8.52 9.05
4/10/2021 7:45:00 AM 12.33 54.194 0.637 7.63 3.98 9.07
4/10/2021 8:00:00 AM 12.33 54.194 0.637 7.64 4.97 9.09
4/10/2021 8:15:00 AM 12.34 54.212 0.637 7.64 4.34 9.15
4/10/2021 8:30:00 AM 12.34 54.212 0.637 7.66 4.56 9.19
4/10/2021 8:45:00 AM 12.35 54.23 0.637 7.66 6.01 9.26
4/10/2021 9:00:00 AM 12.37 54.266 0.637 7.66 3.57 9.35
4/10/2021 9:15:00 AM 12.39 54.302 0.637 7.66 4.22 9.44
4/10/2021 9:30:00 AM 12.41 54.338 0.637 7.67 3.09 9.5
4/10/2021 9:45:00 AM 12.44 54.392 0.638 7.7 5.7 9.58
4/10/2021 10:00:00 AM 12.47 54.446 0.638 7.7 4.65 9.67
4/10/2021 10:15:00 AM 12.52 54.536 0.638 7.72 3.03 9.78
4/10/2021 10:30:00 AM 12.56 54.608 0.638 7.77 5.08 9.87
4/10/2021 10:45:00 AM 12.58 54.644 0.639 7.76 4.01 9.91
4/10/2021 11:00:00 AM 12.6 54.68 0.639 7.76 3.47 9.97
4/10/2021 11:15:00 AM 12.64 54.752 0.639 7.8 3.1 10.04
4/10/2021 11:30:00 AM 12.68 54.824 0.639 7.8 3.92 10.12
4/10/2021 11:45:00 AM 12.72 54.896 0.639 7.81 3.98 10.19
4/10/2021 12:00:00 PM 12.76 54.968 0.639 7.82 3.44 10.26
4/10/2021 12:15:00 PM 12.82 55.076 0.638 7.83 2.97 10.35
4/10/2021 12:30:00 PM 12.88 55.184 0.638 7.84 4.95 10.43
4/10/2021 12:45:00 PM 12.93 55.274 0.638 7.85 3.49 10.51
4/10/2021 1:00:00 PM 12.95 55.31 0.638 7.86 3.63 10.54
4/10/2021 1:15:00 PM 12.97 55.346 0.637 7.86 6.5 10.58
4/10/2021 1:30:00 PM 12.97 55.346 0.637 7.86 2.13 10.6
4/10/2021 1:45:00 PM 12.98 55.364 0.636 7.85 2.1 10.62
4/10/2021 2:00:00 PM 13 55.4 0.636 7.85 2.93 10.65
4/10/2021 2:15:00 PM 13 55.4 0.636 7.86 2.39 10.67
4/10/2021 2:30:00 PM 13.01 55.418 0.636 7.89 2.62 10.71
4/10/2021 2:45:00 PM 13.03 55.454 0.636 7.91 2.36 10.73
4/10/2021 3:00:00 PM 13.08 55.544 0.635 7.91 3.57 10.78
4/10/2021 3:15:00 PM 13.12 55.616 0.636 7.92 5.09 10.84
4/10/2021 3:30:00 PM 13.17 55.706 0.635 7.92 3.41 10.88
4/10/2021 3:45:00 PM 13.25 55.85 0.635 7.93 6.72 10.96
4/10/2021 4:00:00 PM 13.31 55.958 0.635 7.93 4.77 11.01
4/10/2021 4:15:00 PM 13.39 56.102 0.635 7.96 3.91 11.09
4/10/2021 4:30:00 PM 13.43 56.174 0.635 7.97 2.91 11.13
4/10/2021 4:45:00 PM 13.48 56.264 0.635 7.97 2.9 11.18
4/10/2021 5:00:00 PM 13.52 56.336 0.634 7.97 2.76 11.22
4/10/2021 5:15:00 PM 13.55 56.39 0.634 7.98 2.83 11.24
4/10/2021 5:30:00 PM 13.58 56.444 0.634 7.99 3.18 11.26
4/10/2021 5:45:00 PM 13.6 56.48 0.634 8 3.08 11.26
4/10/2021 6:00:00 PM 13.59 56.462 0.635 8 2.94 11.25
4/10/2021 6:15:00 PM 13.58 56.444 0.634 8.01 2.51 11.22
4/10/2021 6:30:00 PM 13.55 56.39 0.634 8.04 2.84 11.15
4/10/2021 6:45:00 PM 13.52 56.336 0.634 8.05 2.77 11.1
4/10/2021 7:00:00 PM 13.49 56.282 0.635 8.04 4.14 11
4/10/2021 7:15:00 PM 13.46 56.228 0.635 8.03 3.54 10.9
4/10/2021 7:30:00 PM 13.43 56.174 0.635 8.02 4.07 10.8
4/10/2021 7:45:00 PM 13.4 56.12 0.635 8.02 2.84 10.67
4/10/2021 8:00:00 PM 13.36 56.048 0.635 8 4.27 10.58
4/10/2021 8:15:00 PM 13.33 55.994 0.635 7.99 2.98 10.48
4/10/2021 8:30:00 PM 13.3 55.94 0.635 7.98 3.43 10.39
4/10/2021 8:45:00 PM 13.27 55.886 0.636 7.98 3.91 10.32
4/10/2021 9:00:00 PM 13.24 55.832 0.636 7.98 4.93 10.25
4/10/2021 9:15:00 PM 13.21 55.778 0.636 7.98 5.92 10.18
4/10/2021 9:30:00 PM 13.18 55.724 0.636 7.97 5.49 10.13
4/10/2021 9:45:00 PM 13.15 55.67 0.635 7.95 3.76 10.06
4/10/2021 10:00:00 PM 13.13 55.634 0.635 7.97 4.27 10.02
4/10/2021 10:15:00 PM 13.1 55.58 0.634 7.97 4.42 9.95
4/10/2021 10:30:00 PM 13.08 55.544 0.634 7.95 4.54 9.89
4/10/2021 10:45:00 PM 13.06 55.508 0.635 7.94 4.26 9.84
4/10/2021 11:00:00 PM 13.04 55.472 0.635 7.94 5.63 9.78
4/10/2021 11:15:00 PM 13.02 55.436 0.636 7.9 5.02 9.73
4/10/2021 11:30:00 PM 13.01 55.418 0.636 7.92 4.29 9.69
4/10/2021 11:45:00 PM 12.99 55.382 0.635 7.91 3.75 9.64
4/11/2021 12:00:00 AM 12.98 55.364 0.635 7.91 4.04 9.58
4/11/2021 12:15:00 AM 12.96 55.328 0.635 7.9 4.85 9.51
4/11/2021 12:30:00 AM 12.95 55.31 0.635 7.88 4.78 9.45
4/11/2021 12:45:00 AM 12.95 55.31 0.633 7.89 4.67 9.41
4/11/2021 1:00:00 AM 12.94 55.292 0.633 7.87 4.55 9.35
4/11/2021 1:15:00 AM 12.94 55.292 0.633 7.86 6.2 9.29
4/11/2021 1:30:00 AM 12.93 55.274 0.634 7.85 7.17 9.23
4/11/2021 1:45:00 AM 12.93 55.274 0.633 7.85 4.88 9.18
4/11/2021 2:00:00 AM 12.92 55.256 0.633 7.84 5.12 9.13
4/11/2021 2:15:00 AM 12.92 55.256 0.633 7.83 4.92 9.1
4/11/2021 2:30:00 AM 12.92 55.256 0.632 7.83 5.34 9.05
4/11/2021 2:45:00 AM 12.91 55.238 0.633 7.83 8.03 9.02
4/11/2021 3:00:00 AM 12.91 55.238 0.632 7.82 4.51 8.98
4/11/2021 3:15:00 AM 12.9 55.22 0.632 7.82 4.24 8.96
4/11/2021 3:30:00 AM 12.9 55.22 0.631 7.82 4.78 8.94
4/11/2021 4:00:00 AM 12.88 55.184 0.629 7.8 4.93 8.9
4/11/2021 4:15:00 AM 12.87 55.166 0.628 7.8 4.78 8.88
4/11/2021 4:30:00 AM 12.86 55.148 0.628 7.8 6.2 8.87
4/11/2021 4:45:00 AM 12.85 55.13 0.628 7.8 4.08 8.85
4/11/2021 5:00:00 AM 12.85 55.13 0.627 7.78 4.93 8.83
4/11/2021 5:15:00 AM 12.84 55.112 0.626 7.77 4.99 8.82
4/11/2021 5:30:00 AM 12.84 55.112 0.625 7.77 4.51 8.82
4/11/2021 5:45:00 AM 12.84 55.112 0.624 7.77 4.12 8.8
4/11/2021 6:00:00 AM 12.83 55.094 0.623 7.76 4.82 8.81
4/11/2021 6:15:00 AM 12.83 55.094 0.621 7.76 4.83 8.82
4/11/2021 6:30:00 AM 12.82 55.076 0.62 7.77 5.79 8.8
4/11/2021 6:45:00 AM 12.82 55.076 0.618 7.78 5.88 8.81
4/11/2021 7:00:00 AM 12.81 55.058 0.616 7.79 6.2 8.83
4/11/2021 7:15:00 AM 12.81 55.058 0.614 7.78 5.98 8.83
4/11/2021 7:30:00 AM 12.81 55.058 0.61 7.78 5.91 8.86
4/11/2021 7:45:00 AM 12.82 55.076 0.607 7.77 6.61 8.87
4/11/2021 8:00:00 AM 12.82 55.076 0.604 7.77 7.55 8.87
4/11/2021 8:15:00 AM 12.82 55.076 0.601 7.77 9.95 8.87
4/11/2021 8:30:00 AM 12.82 55.076 0.599 7.77 10.34 8.86
4/11/2021 8:45:00 AM 12.82 55.076 0.596 7.76 13.13 8.86
4/11/2021 9:00:00 AM 12.82 55.076 0.592 7.77 16.65 8.89
4/11/2021 9:15:00 AM 12.83 55.094 0.591 7.77 15.87 8.91
4/11/2021 9:30:00 AM 12.87 55.166 0.59 7.76 15.15 8.93
4/11/2021 9:45:00 AM 12.93 55.274 0.593 7.77 19.56 8.97
4/11/2021 10:00:00 AM 12.97 55.346 0.593 7.77 16.01 9.01
4/11/2021 10:15:00 AM 12.99 55.382 0.593 7.78 15.11 9.02
4/11/2021 10:30:00 AM 13.01 55.418 0.594 7.76 15.1 9.04
4/11/2021 10:45:00 AM 13.03 55.454 0.594 7.76 17.91 9.08
4/11/2021 11:00:00 AM 13.04 55.472 0.593 7.76 12.45 9.13
4/11/2021 11:15:00 AM 13.05 55.49 0.59 7.76 10.93 9.11
4/11/2021 11:30:00 AM 13.07 55.526 0.588 7.76 12.62 9.14
4/11/2021 11:45:00 AM 13.1 55.58 0.583 7.75 12.64 9.16
4/11/2021 12:00:00 PM 13.13 55.634 0.581 7.74 11.98 9.21
4/11/2021 12:15:00 PM 13.16 55.688 0.573 7.75 14.92 9.23
4/11/2021 12:30:00 PM 13.18 55.724 0.568 7.75 18.14 9.19
4/11/2021 12:45:00 PM 13.21 55.778 0.567 7.75 22.5 9.14
4/11/2021 1:00:00 PM 13.23 55.814 0.569 7.75 31.8 9.11
4/11/2021 1:15:00 PM 13.24 55.832 0.576 7.71 36.26 9.11
4/11/2021 1:30:00 PM 13.25 55.85 0.583 7.7 31.8 9.12
4/11/2021 1:45:00 PM 13.26 55.868 0.586 7.72 24.68 9.09
4/11/2021 2:00:00 PM 13.28 55.904 0.584 7.72 29.44 9.05
4/11/2021 2:15:00 PM 13.34 56.012 0.578 7.73 27.08 9.06
4/11/2021 2:30:00 PM 13.4 56.12 0.575 7.73 31.52 9.07
4/11/2021 2:45:00 PM 13.45 56.21 0.577 7.75 26.86 9.07
4/11/2021 3:00:00 PM 13.52 56.336 0.574 7.75 36.22 9.04
4/11/2021 3:15:00 PM 13.61 56.498 0.56 7.75 31.81 9.02
4/11/2021 3:30:00 PM 13.66 56.588 0.532 7.76 30.25 8.96
4/11/2021 3:45:00 PM 13.75 56.75 0.498 7.76 30.68 8.95
4/11/2021 4:00:00 PM 13.95 57.11 0.465 7.77 24.62 8.99
4/11/2021 4:15:00 PM 14.11 57.398 0.44 7.77 21.8 9.03
4/11/2021 4:30:00 PM 14.26 57.668 0.423 7.77 22.14 9.08
4/11/2021 4:45:00 PM 14.36 57.848 0.414 7.78 21.64 9.12
4/11/2021 5:00:00 PM 14.38 57.884 0.409 7.77 21.45 9.14
4/11/2021 5:15:00 PM 14.34 57.812 0.408 7.78 23.96 9.12
4/11/2021 5:30:00 PM 14.4 57.92 0.409 7.77 22.22 9.17
4/11/2021 5:45:00 PM 14.41 57.938 0.413 7.76 24.33 9.19
4/11/2021 6:00:00 PM 14.39 57.902 0.415 7.76 23.39 9.16
4/11/2021 6:15:00 PM 14.38 57.884 0.419 7.75 17.1 9.13
4/11/2021 6:30:00 PM 14.4 57.92 0.42 7.76 22.31 9.13
4/11/2021 6:45:00 PM 14.41 57.938 0.421 7.75 17.15 9.11
4/11/2021 7:00:00 PM 14.39 57.902 0.422 7.75 17.52 9.07
4/11/2021 7:15:00 PM 14.35 57.83 0.424 7.75 16.1 8.99
4/11/2021 7:30:00 PM 14.33 57.794 0.426 7.74 15.11 8.92
4/11/2021 7:45:00 PM 14.31 57.758 0.428 7.73 16.1 8.85
4/11/2021 8:00:00 PM 14.3 57.74 0.432 7.72 15.9 8.8
4/11/2021 8:15:00 PM 14.29 57.722 0.436 7.72 13.82 8.74
4/11/2021 8:30:00 PM 14.28 57.704 0.441 7.71 15.27 8.7
4/11/2021 8:45:00 PM 14.25 57.65 0.447 7.66 14.67 8.65
4/11/2021 9:00:00 PM 14.23 57.614 0.454 7.69 17.39 8.6
4/11/2021 9:15:00 PM 14.21 57.578 0.461 7.69 16.18 8.56
4/11/2021 9:30:00 PM 14.2 57.56 0.468 7.7 14.55 8.51
4/11/2021 9:45:00 PM 14.18 57.524 0.475 7.69 14.38 8.47
4/11/2021 10:00:00 PM 14.16 57.488 0.481 7.68 15.8 8.43
4/11/2021 10:15:00 PM 14.13 57.434 0.487 7.69 14.33 8.38
4/11/2021 10:30:00 PM 14.08 57.344 0.489 7.69 15.74 8.42
4/11/2021 10:45:00 PM 14.03 57.254 0.489 7.71 16.04 8.49
4/11/2021 11:00:00 PM 13.96 57.128 0.49 7.73 20.65 8.54
4/11/2021 11:15:00 PM 13.91 57.038 0.493 7.69 29.38 8.48
4/11/2021 11:30:00 PM 13.84 56.912 0.493 7.72 69.87 8.47
4/11/2021 11:45:00 PM 13.79 56.822 0.494 7.73 62.21 8.43
4/12/2021 12:00:00 AM 13.73 56.714 0.492 7.73 55.19 8.4
4/12/2021 12:15:00 AM 13.68 56.624 0.49 7.73 59.58 8.38
4/12/2021 12:30:00 AM 13.64 56.552 0.492 7.72 52.93 8.38
4/12/2021 12:45:00 AM 13.61 56.498 0.494 7.72 36.6 8.41
4/12/2021 1:00:00 AM 13.6 56.48 0.49 7.75 46.96 8.41
4/12/2021 1:15:00 AM 13.57 56.426 0.487 7.77 74.17 8.38
4/12/2021 1:30:00 AM 13.53 56.354 0.486 7.78 87.38 8.39
4/12/2021 1:45:00 AM 13.49 56.282 0.488 7.77 114.1 8.38
4/12/2021 2:00:00 AM 13.45 56.21 0.491 7.74 101 8.39
4/12/2021 2:15:00 AM 13.42 56.156 0.496 7.72 78.84 8.38
4/12/2021 2:30:00 AM 13.39 56.102 0.497 7.71 62.7 8.38
4/12/2021 2:45:00 AM 13.35 56.03 0.487 7.67 48.21 8.4
4/12/2021 3:00:00 AM 13.32 55.976 0.472 7.67 42.19 8.41
4/12/2021 3:15:00 AM 13.28 55.904 0.469 7.68 36.31 8.42
4/12/2021 3:30:00 AM 13.26 55.868 0.474 7.66 34.59 8.41
4/12/2021 3:45:00 AM 13.23 55.814 0.479 7.65 49.26 8.39
4/12/2021 4:00:00 AM 13.19 55.742 0.485 7.65 37.48 8.38
4/12/2021 4:15:00 AM 13.18 55.724 0.492 7.64 34.93 8.37
4/12/2021 4:30:00 AM 13.18 55.724 0.493 7.64 44.24 8.34
4/12/2021 4:45:00 AM 13.18 55.724 0.491 7.64 49.61 8.31
4/12/2021 5:00:00 AM 13.18 55.724 0.49 7.63 54.64 8.29
4/12/2021 5:15:00 AM 13.17 55.706 0.485 7.63 57.49 8.26
4/12/2021 5:30:00 AM 13.15 55.67 0.477 7.63 71.08 8.28
4/12/2021 5:45:00 AM 13.12 55.616 0.473 7.62 77.58 8.3
4/12/2021 6:00:00 AM 13.08 55.544 0.475 7.61 67.23 8.31
4/12/2021 6:15:00 AM 13.05 55.49 0.48 7.6 77.88 8.32
4/12/2021 6:30:00 AM 13.02 55.436 0.483 7.6 77.29 8.31
4/12/2021 6:45:00 AM 12.98 55.364 0.484 7.59 62.94 8.3
4/12/2021 7:00:00 AM 12.93 55.274 0.477 7.59 64.83 8.31
4/12/2021 7:15:00 AM 12.88 55.184 0.461 7.59 57.49 8.31
4/12/2021 7:30:00 AM 12.82 55.076 0.444 7.59 63.38 8.33
4/12/2021 7:45:00 AM 12.77 54.986 0.425 7.57 48.88 8.35
4/12/2021 8:00:00 AM 12.72 54.896 0.411 7.57 54.94 8.36
4/12/2021 8:15:00 AM 12.68 54.824 0.402 7.57 43.33 8.37
4/12/2021 8:30:00 AM 12.64 54.752 0.397 7.56 47.29 8.4
4/12/2021 8:45:00 AM 12.61 54.698 0.396 7.56 39.92 8.43
4/12/2021 9:00:00 AM 12.59 54.662 0.399 7.55 41.31 8.45
4/12/2021 9:15:00 AM 12.57 54.626 0.402 7.55 34.82 8.5
4/12/2021 9:30:00 AM 12.56 54.608 0.406 7.57 29.03 8.54
4/12/2021 9:45:00 AM 12.54 54.572 0.411 7.57 31.59 8.58
4/12/2021 10:00:00 AM 12.52 54.536 0.415 7.57 27.89 8.64
4/12/2021 10:15:00 AM 12.5 54.5 0.419 7.55 25.72 8.66
4/12/2021 10:30:00 AM 12.48 54.464 0.424 7.55 23.48 8.71
4/12/2021 10:45:00 AM 12.47 54.446 0.428 7.54 22.06 8.74
4/12/2021 11:00:00 AM 12.46 54.428 0.432 7.54 23.71 8.78
4/12/2021 11:15:00 AM 12.46 54.428 0.437 7.53 26.24 8.82
4/12/2021 11:30:00 AM 12.46 54.428 0.444 7.53 25.64 8.85
4/12/2021 11:45:00 AM 12.46 54.428 0.45 7.54 22.41 8.89
4/12/2021 12:00:00 PM 12.45 54.41 0.456 7.55 19.94 8.92
4/12/2021 12:15:00 PM 12.45 54.41 0.463 7.55 18.3 8.96
4/12/2021 12:30:00 PM 12.44 54.392 0.469 7.56 20.97 8.99
4/12/2021 12:45:00 PM 12.43 54.374 0.475 7.58 17.9 9.02
4/12/2021 1:00:00 PM 12.42 54.356 0.482 7.57 19.3 9.03
4/12/2021 1:15:00 PM 12.42 54.356 0.485 7.56 16.54 9.08
4/12/2021 1:30:00 PM 12.42 54.356 0.493 7.57 14.05 9.13
4/12/2021 1:45:00 PM 12.44 54.392 0.497 7.58 15.28 9.21
4/12/2021 2:00:00 PM 12.45 54.41 0.502 7.58 13.53 9.27
4/12/2021 2:15:00 PM 12.46 54.428 0.507 7.51 14.16 9.33
4/12/2021 2:30:00 PM 12.47 54.446 0.512 7.55 14.2 9.42
4/12/2021 2:45:00 PM 12.5 54.5 0.516 7.57 12.32 9.51
4/12/2021 3:00:00 PM 12.51 54.518 0.52 7.59 12.39 9.58
4/12/2021 3:15:00 PM 12.51 54.518 0.524 7.61 12.93 9.63
4/12/2021 3:30:00 PM 12.52 54.536 0.528 7.62 10.66 9.68
4/12/2021 3:45:00 PM 12.52 54.536 0.531 7.63 11.57 9.73
4/12/2021 4:00:00 PM 12.53 54.554 0.533 7.65 10.87 9.79
4/12/2021 4:15:00 PM 12.55 54.59 0.536 7.66 13.07 9.83
4/12/2021 4:30:00 PM 12.54 54.572 0.539 7.67 12.38 9.87
4/12/2021 4:45:00 PM 12.54 54.572 0.541 7.67 14.78 9.91
4/12/2021 5:00:00 PM 12.53 54.554 0.543 7.67 10.58 9.91
4/12/2021 5:15:00 PM 12.51 54.518 0.545 7.67 10.96 9.94
4/12/2021 5:30:00 PM 12.5 54.5 0.546 7.69 8.61 9.94
4/12/2021 5:45:00 PM 12.48 54.464 0.548 7.66 9.12 9.94
4/12/2021 6:00:00 PM 12.46 54.428 0.55 7.68 9.85 9.92
4/12/2021 6:15:00 PM 12.44 54.392 0.552 7.68 9.51 9.89
4/12/2021 6:30:00 PM 12.42 54.356 0.553 7.69 9.61 9.87
4/12/2021 6:45:00 PM 12.41 54.338 0.555 7.7 10.29 9.85
4/12/2021 7:00:00 PM 12.39 54.302 0.556 7.7 7.69 9.82
4/12/2021 7:15:00 PM 12.37 54.266 0.557 7.7 9.42 9.78
4/12/2021 7:30:00 PM 12.35 54.23 0.559 7.69 8.71 9.75
4/12/2021 7:45:00 PM 12.33 54.194 0.56 7.68 7.68 9.7
4/12/2021 8:00:00 PM 12.31 54.158 0.561 7.68 7.32 9.67
4/12/2021 8:15:00 PM 12.28 54.104 0.562 7.67 7.95 9.63
4/12/2021 8:30:00 PM 12.26 54.068 0.563 7.67 8.25 9.59
4/12/2021 8:45:00 PM 12.25 54.05 0.564 7.67 7.9 9.55
4/12/2021 9:00:00 PM 12.23 54.014 0.565 7.67 8.14 9.51
4/12/2021 9:15:00 PM 12.22 53.996 0.566 7.66 8.63 9.48
4/12/2021 9:30:00 PM 12.2 53.96 0.566 7.67 8.81 9.47
4/12/2021 9:45:00 PM 12.19 53.942 0.567 7.66 8.27 9.43
4/12/2021 10:00:00 PM 12.17 53.906 0.568 7.66 9.22 9.4
4/12/2021 10:15:00 PM 12.15 53.87 0.57 7.66 11.15 9.37
4/12/2021 10:30:00 PM 12.14 53.852 0.57 7.65 9.12 9.34
4/12/2021 10:45:00 PM 12.12 53.816 0.571 7.65 8.6 9.31
4/12/2021 11:00:00 PM 12.11 53.798 0.573 7.65 7.73 9.29
4/12/2021 11:15:00 PM 12.09 53.762 0.574 7.65 6.87 9.27
4/12/2021 11:30:00 PM 12.07 53.726 0.575 7.64 6.73 9.25
4/12/2021 11:45:00 PM 12.05 53.69 0.576 7.64 8.49 9.23
4/13/2021 12:00:00 AM 12.03 53.654 0.577 7.64 10.37 9.23
4/13/2021 12:15:00 AM 12.01 53.618 0.577 7.63 8.65 9.22
4/13/2021 12:30:00 AM 11.99 53.582 0.578 7.64 9.38 9.2
4/13/2021 12:45:00 AM 11.97 53.546 0.579 7.64 8.16 9.21
4/13/2021 1:00:00 AM 11.95 53.51 0.579 7.65 6.27 9.19
4/13/2021 1:15:00 AM 11.93 53.474 0.58 7.65 9.42 9.19
4/13/2021 1:30:00 AM 11.91 53.438 0.58 7.64 5.1 9.19
4/13/2021 1:45:00 AM 11.9 53.42 0.581 7.63 8.56 9.17
4/13/2021 2:00:00 AM 11.88 53.384 0.581 7.63 8.76 9.17
4/13/2021 2:15:00 AM 11.87 53.366 0.582 7.64 9.61 9.15
4/13/2021 2:30:00 AM 11.86 53.348 0.582 7.6 7.57 9.16
4/13/2021 2:45:00 AM 11.84 53.312 0.583 7.63 7.88 9.15
4/13/2021 3:00:00 AM 11.82 53.276 0.584 7.63 7.19 9.14
4/13/2021 3:15:00 AM 11.81 53.258 0.584 7.63 6.93 9.16
4/13/2021 3:30:00 AM 11.79 53.222 0.585 7.63 5.99 9.15
4/13/2021 3:45:00 AM 11.78 53.204 0.586 7.63 5.89 9.16
4/13/2021 4:00:00 AM 11.76 53.168 0.586 7.63 13.88 9.18
4/13/2021 4:15:00 AM 11.74 53.132 0.587 7.64 7.18 9.16
4/13/2021 4:30:00 AM 11.72 53.096 0.587 7.63 9 9.18
4/13/2021 4:45:00 AM 11.71 53.078 0.588 7.63 8.66 9.18
4/13/2021 5:00:00 AM 11.69 53.042 0.588 7.63 9.83 9.19
4/13/2021 5:15:00 AM 11.67 53.006 0.589 7.58 9.76 9.19
4/13/2021 5:30:00 AM 11.66 52.988 0.589 7.61 6.84 9.2
4/13/2021 5:45:00 AM 11.64 52.952 0.59 7.63 7.89 9.21
4/13/2021 6:00:00 AM 11.63 52.934 0.59 7.65 7.03 9.21
4/13/2021 6:15:00 AM 11.62 52.916 0.591 7.63 8.44 9.24
4/13/2021 6:30:00 AM 11.61 52.898 0.592 7.64 7.68 9.24
4/13/2021 6:45:00 AM 11.61 52.898 0.595 7.63 7.77 9.26
4/13/2021 7:00:00 AM 11.61 52.898 0.598 7.63 7.44 9.27
4/13/2021 7:15:00 AM 11.61 52.898 0.599 7.63 6.86 9.27
4/13/2021 7:30:00 AM 11.6 52.88 0.6 7.63 6.41 9.29
4/13/2021 7:45:00 AM 11.6 52.88 0.6 7.67 5.77 9.31
4/13/2021 8:00:00 AM 11.59 52.862 0.6 7.7 5.71 9.31
4/13/2021 8:15:00 AM 11.59 52.862 0.6 7.69 5.53 9.32
4/13/2021 8:30:00 AM 11.6 52.88 0.599 7.69 5.48 9.39
4/13/2021 8:45:00 AM 11.6 52.88 0.598 7.67 6.1 9.44
4/13/2021 9:00:00 AM 11.6 52.88 0.597 7.67 5.71 9.5
4/13/2021 9:15:00 AM 11.6 52.88 0.597 7.67 4.7 9.53
4/13/2021 9:30:00 AM 11.61 52.898 0.597 7.67 5.16 9.58
4/13/2021 9:45:00 AM 11.62 52.916 0.597 7.67 4.55 9.65
4/13/2021 10:00:00 AM 11.65 52.97 0.598 7.67 4.52 9.74
4/13/2021 10:15:00 AM 11.7 53.06 0.598 7.67 4.37 9.83
4/13/2021 10:30:00 AM 11.77 53.186 0.598 7.67 6.18 9.9
4/13/2021 10:45:00 AM 11.86 53.348 0.598 7.68 5.01 10.02
4/13/2021 11:00:00 AM 11.92 53.456 0.599 7.69 5.3 10.11
4/13/2021 11:15:00 AM 11.95 53.51 0.599 7.73 4.28 10.17
4/13/2021 11:30:00 AM 12.11 53.798 0.599 7.76 5.52 10.29
4/13/2021 11:45:00 AM 12.32 54.176 0.6 7.74 5.03 10.43
4/13/2021 12:00:00 PM 12.51 54.518 0.599 7.81 5.13 10.51
4/13/2021 12:15:00 PM 12.68 54.824 0.6 7.83 4.57 10.62
4/13/2021 12:30:00 PM 12.78 55.004 0.6 7.87 7.23 10.69
4/13/2021 12:45:00 PM 12.96 55.328 0.6 7.88 4.78 10.77
4/13/2021 1:00:00 PM 12.98 55.364 0.6 7.89 7.26 10.83
4/13/2021 1:15:00 PM 13.08 55.544 0.6 7.92 4.36 10.9
4/13/2021 1:30:00 PM 13.33 55.994 0.599 7.93 3.98 11
4/13/2021 1:45:00 PM 13.42 56.156 0.6 7.95 3.65 11.04
4/13/2021 2:00:00 PM 13.5 56.3 0.6 7.96 3.91 11.11
4/13/2021 2:15:00 PM 13.54 56.372 0.6 7.98 4.83 11.14
4/13/2021 2:30:00 PM 13.56 56.408 0.6 7.98 5.76 11.18
4/13/2021 2:45:00 PM 13.55 56.39 0.6 7.97 4 11.2
4/13/2021 3:00:00 PM 13.56 56.408 0.6 7.96 5.11 11.22
4/13/2021 3:15:00 PM 13.59 56.462 0.6 7.98 3.95 11.25
4/13/2021 3:30:00 PM 13.64 56.552 0.6 7.99 3.92 11.26
4/13/2021 3:45:00 PM 13.66 56.588 0.6 7.98 4.84 11.26
4/13/2021 4:00:00 PM 13.67 56.606 0.601 7.98 4.25 11.26
4/13/2021 4:15:00 PM 13.7 56.66 0.601 7.97 5.54 11.25
4/13/2021 4:30:00 PM 13.77 56.786 0.601 7.98 5.44 11.25
4/13/2021 4:45:00 PM 13.84 56.912 0.601 7.98 4.27 11.23
4/13/2021 5:00:00 PM 13.93 57.074 0.6 7.98 4.36 11.25
4/13/2021 5:15:00 PM 13.97 57.146 0.601 7.99 3.72 11.22
4/13/2021 5:30:00 PM 13.98 57.164 0.601 7.98 6.04 11.2
4/13/2021 5:45:00 PM 14 57.2 0.602 7.99 5.38 11.15
4/13/2021 6:00:00 PM 14 57.2 0.604 7.99 4.89 11.07
4/13/2021 6:15:00 PM 13.99 57.182 0.606 7.99 4.01 10.98
4/13/2021 6:30:00 PM 13.97 57.146 0.607 7.98 5.02 10.86
4/13/2021 6:45:00 PM 13.96 57.128 0.608 7.97 4.26 10.77
4/13/2021 7:00:00 PM 13.94 57.092 0.608 7.97 4.73 10.64
4/13/2021 7:15:00 PM 13.91 57.038 0.608 7.97 4.99 10.53
4/13/2021 7:30:00 PM 13.89 57.002 0.608 7.95 4.21 10.41
4/13/2021 7:45:00 PM 13.85 56.93 0.609 7.95 4.23 10.31
4/13/2021 8:00:00 PM 13.82 56.876 0.608 7.95 4.22 10.19
4/13/2021 8:15:00 PM 13.79 56.822 0.608 7.94 4.43 10.07
4/13/2021 8:30:00 PM 13.74 56.732 0.608 7.92 4.75 9.96
4/13/2021 8:45:00 PM 13.68 56.624 0.609 7.91 4.23 9.89
4/13/2021 9:00:00 PM 13.63 56.534 0.604 7.9 5.71 9.8
4/13/2021 9:15:00 PM 13.59 56.462 0.603 7.89 5.16 9.73
4/13/2021 9:30:00 PM 13.54 56.372 0.603 7.86 5.78 9.65
4/13/2021 9:45:00 PM 13.49 56.282 0.603 7.86 4.81 9.58
4/13/2021 10:00:00 PM 13.45 56.21 0.603 7.84 6.19 9.51
4/13/2021 10:15:00 PM 13.4 56.12 0.603 7.83 5.48 9.46
4/13/2021 10:30:00 PM 13.35 56.03 0.604 7.83 5.9 9.4
4/13/2021 10:45:00 PM 13.3 55.94 0.603 7.82 6.69 9.36
4/13/2021 11:00:00 PM 13.25 55.85 0.605 7.81 5.22 9.3
4/13/2021 11:15:00 PM 13.2 55.76 0.605 7.8 5.71 9.26
4/13/2021 11:30:00 PM 13.15 55.67 0.604 7.79 6.32 9.23
4/13/2021 11:45:00 PM 13.11 55.598 0.605 7.58 6.39 9.18
4/14/2021 12:00:00 AM 13.06 55.508 0.605 7.78 4.95 9.15
4/14/2021 12:15:00 AM 13.02 55.436 0.605 7.78 5.52 9.12
4/14/2021 12:30:00 AM 12.98 55.364 0.605 7.77 5.73 9.1
4/14/2021 12:45:00 AM 12.94 55.292 0.605 7.77 5.94 9.07
4/14/2021 1:00:00 AM 12.9 55.22 0.604 7.75 8.01 9.04
4/14/2021 1:15:00 AM 12.86 55.148 0.606 7.75 6.22 9.04
4/14/2021 1:30:00 AM 12.82 55.076 0.606 7.73 6.79 9.02
4/14/2021 1:45:00 AM 12.78 55.004 0.606 7.73 6.96 9
4/14/2021 2:00:00 AM 12.74 54.932 0.606 7.72 9.63 9
4/14/2021 2:15:00 AM 12.7 54.86 0.606 7.72 5.78 8.98
4/14/2021 2:30:00 AM 12.66 54.788 0.606 7.71 5.52 8.98
4/14/2021 2:45:00 AM 12.62 54.716 0.606 7.7 5.4 8.98
4/14/2021 3:00:00 AM 12.57 54.626 0.606 7.7 5.7 8.97
4/14/2021 3:15:00 AM 12.53 54.554 0.606 7.69 7.55 8.97
4/14/2021 3:30:00 AM 12.48 54.464 0.606 7.69 6.52 8.97
4/14/2021 3:45:00 AM 12.44 54.392 0.606 7.69 6.58 8.98
4/14/2021 4:00:00 AM 12.39 54.302 0.606 7.69 8.8 8.99
4/14/2021 4:15:00 AM 12.34 54.212 0.606 7.68 7.33 8.99
4/14/2021 4:30:00 AM 12.29 54.122 0.606 7.68 11.94 8.99
4/14/2021 4:45:00 AM 12.25 54.05 0.606 7.67 6.01 9.02
4/14/2021 5:00:00 AM 12.2 53.96 0.606 7.67 7.48 9.01
4/14/2021 5:15:00 AM 12.17 53.906 0.606 7.69 6.7 9.02
4/14/2021 5:30:00 AM 12.14 53.852 0.606 7.69 7.25 9.03
4/14/2021 5:45:00 AM 12.11 53.798 0.606 7.69 4.66 9.04
4/14/2021 6:00:00 AM 12.08 53.744 0.606 7.69 5.27 9.05
4/14/2021 6:15:00 AM 12.05 53.69 0.606 7.69 4.92 9.06
4/14/2021 6:30:00 AM 12.03 53.654 0.606 7.68 5.13 9.07
4/14/2021 6:45:00 AM 12 53.6 0.607 7.68 6.05 9.07
4/14/2021 7:00:00 AM 11.98 53.564 0.607 7.68 5.9 9.1
4/14/2021 7:15:00 AM 11.95 53.51 0.607 7.68 7.68 9.14
4/14/2021 7:30:00 AM 11.94 53.492 0.607 7.69 5.57 9.19
4/14/2021 7:45:00 AM 11.94 53.492 0.608 7.65 5.34 9.27
4/14/2021 8:00:00 AM 11.94 53.492 0.608 7.69 6.5 9.33
4/14/2021 8:15:00 AM 11.95 53.51 0.609 7.7 5.82 9.4
4/14/2021 8:30:00 AM 11.96 53.528 0.609 7.71 4.89 9.46
4/14/2021 8:45:00 AM 11.98 53.564 0.609 7.72 7.01 9.56
4/14/2021 9:00:00 AM 12.04 53.672 0.609 7.73 5.5 9.68
4/14/2021 9:15:00 AM 12.09 53.762 0.609 7.73 5.25 9.78
4/14/2021 9:30:00 AM 12.14 53.852 0.609 7.73 3.81 9.87
4/14/2021 9:45:00 AM 12.18 53.924 0.609 7.74 3.86 9.95
4/14/2021 10:00:00 AM 12.22 53.996 0.609 7.75 3.38 10.03
4/14/2021 10:15:00 AM 12.3 54.14 0.61 7.76 3.33 10.15
4/14/2021 10:30:00 AM 12.35 54.23 0.609 7.76 3.9 10.22
4/14/2021 10:45:00 AM 12.4 54.32 0.61 7.77 2.88 10.3
4/14/2021 11:00:00 AM 12.4 54.32 0.61 7.78 3.34 10.33
4/14/2021 11:15:00 AM 12.4 54.32 0.61 7.78 3.3 10.36
4/14/2021 11:30:00 AM 12.4 54.32 0.61 7.78 3.07 10.38
4/14/2021 11:45:00 AM 12.4 54.32 0.61 7.78 4.3 10.4
4/14/2021 12:00:00 PM 12.41 54.338 0.61 7.79 2.73 10.43
4/14/2021 12:15:00 PM 12.47 54.446 0.61 7.79 3.17 10.49
4/14/2021 12:30:00 PM 12.53 54.554 0.61 7.8 3.22 10.55
4/14/2021 12:45:00 PM 12.58 54.644 0.61 7.8 3.5 10.62
4/14/2021 1:00:00 PM 12.6 54.68 0.61 7.79 2.76 10.66
4/14/2021 1:15:00 PM 12.64 54.752 0.61 7.79 4.78 10.72
4/14/2021 1:30:00 PM 12.67 54.806 0.61 7.82 4.05 10.78
4/14/2021 1:45:00 PM 12.7 54.86 0.61 7.84 2.87 10.84
4/14/2021 2:00:00 PM 12.72 54.896 0.61 7.85 4.04 10.91
4/14/2021 2:15:00 PM 12.74 54.932 0.611 7.86 2.48 10.93
4/14/2021 2:30:00 PM 12.75 54.95 0.611 7.86 4.72 10.95
4/14/2021 2:45:00 PM 12.76 54.968 0.611 7.86 2.68 10.94
4/14/2021 3:00:00 PM 12.79 55.022 0.61 7.87 3.43 10.95
4/14/2021 3:15:00 PM 12.83 55.094 0.61 7.87 2.81 11
4/14/2021 3:30:00 PM 12.88 55.184 0.61 7.88 3.99 11.02
4/14/2021 3:45:00 PM 12.92 55.256 0.61 7.91 3.36 11.03
4/14/2021 4:00:00 PM 12.97 55.346 0.61 7.92 3.47 11.04
4/14/2021 4:15:00 PM 13 55.4 0.611 7.92 8.52 11.05
4/14/2021 4:30:00 PM 13.04 55.472 0.611 7.93 14.91 11.05
4/14/2021 4:45:00 PM 13.06 55.508 0.611 7.92 4.98 11.03
4/14/2021 5:00:00 PM 13.07 55.526 0.611 7.92 17.07 11.01
4/14/2021 5:15:00 PM 13.09 55.562 0.611 7.92 5.02 11
4/14/2021 5:30:00 PM 13.1 55.58 0.611 7.92 3.03 10.96
4/14/2021 5:45:00 PM 13.1 55.58 0.611 7.91 3.25 10.92
4/14/2021 6:00:00 PM 13.11 55.598 0.612 7.91 6.77 10.88
4/14/2021 6:15:00 PM 13.11 55.598 0.612 7.92 2.94 10.84
4/14/2021 6:30:00 PM 13.11 55.598 0.612 7.92 3.73 10.8
4/14/2021 6:45:00 PM 13.1 55.58 0.611 7.91 5.81 10.73
4/14/2021 7:00:00 PM 13.09 55.562 0.612 7.91 4.57 10.65
4/14/2021 7:15:00 PM 13.08 55.544 0.611 7.91 9.68 10.56
4/14/2021 7:30:00 PM 13.06 55.508 0.611 7.9 10.38 10.45
4/14/2021 7:45:00 PM 13.04 55.472 0.611 7.86 11.3 10.35
4/14/2021 8:00:00 PM 13.01 55.418 0.611 7.87 4.69 10.25
4/14/2021 8:15:00 PM 12.98 55.364 0.612 7.86 3.82 10.16
4/14/2021 8:30:00 PM 12.95 55.31 0.612 7.85 3.69 10.06
4/14/2021 8:45:00 PM 12.92 55.256 0.611 7.84 6.93 9.98
4/14/2021 9:00:00 PM 12.89 55.202 0.611 7.84 5.02 9.92
4/14/2021 9:15:00 PM 12.87 55.166 0.611 7.84 11.14 9.84
4/14/2021 9:30:00 PM 12.84 55.112 0.611 7.84 10.23 9.77
4/14/2021 9:45:00 PM 12.81 55.058 0.611 7.83 17.67 9.72
4/14/2021 10:00:00 PM 12.78 55.004 0.611 7.81 5.84 9.65
4/14/2021 10:15:00 PM 12.75 54.95 0.611 7.8 4.72 9.59
4/14/2021 10:30:00 PM 12.72 54.896 0.611 7.8 4.85 9.54
4/14/2021 10:45:00 PM 12.7 54.86 0.61 7.8 3.61 9.5
4/14/2021 11:00:00 PM 12.67 54.806 0.611 7.79 5.44 9.45
4/14/2021 11:15:00 PM 12.64 54.752 0.61 7.79 5.08 9.42
4/14/2021 11:30:00 PM 12.6 54.68 0.611 7.78 4.68 9.39
4/14/2021 11:45:00 PM 12.57 54.626 0.61 7.78 8.72 9.35
4/15/2021 12:00:00 AM 12.54 54.572 0.61 7.78 5.43 9.31
4/15/2021 12:15:00 AM 12.5 54.5 0.61 7.78 5.72 9.28
4/15/2021 12:30:00 AM 12.47 54.446 0.61 7.77 5.76 9.25
4/15/2021 12:45:00 AM 12.43 54.374 0.61 7.77 9.06 9.23
4/15/2021 1:00:00 AM 12.4 54.32 0.61 7.76 8.11 9.22
4/15/2021 1:15:00 AM 12.37 54.266 0.611 7.77 4.69 9.19
4/15/2021 1:30:00 AM 12.35 54.23 0.61 7.76 6.93 9.17
4/15/2021 1:45:00 AM 12.33 54.194 0.61 7.76 5.47 9.16
4/15/2021 2:00:00 AM 12.31 54.158 0.611 7.75 6.78 9.14
4/15/2021 2:15:00 AM 12.29 54.122 0.612 7.75 6.72 9.14
4/15/2021 2:30:00 AM 12.28 54.104 0.613 7.74 7.38 9.12
4/15/2021 2:45:00 AM 12.28 54.104 0.611 7.75 6.72 9.12
4/15/2021 3:00:00 AM 12.27 54.086 0.61 7.75 5.57 9.1
4/15/2021 3:15:00 AM 12.27 54.086 0.607 7.74 5.88 9.11
4/15/2021 3:30:00 AM 12.26 54.068 0.606 7.74 8.54 9.1
4/15/2021 3:45:00 AM 12.25 54.05 0.606 7.74 6.04 9.1
4/15/2021 4:00:00 AM 12.25 54.05 0.608 7.74 6.92 9.09
4/15/2021 4:15:00 AM 12.24 54.032 0.608 7.73 5.79 9.09
4/15/2021 4:30:00 AM 12.23 54.014 0.608 7.72 6.5 9.07
4/15/2021 4:45:00 AM 12.22 53.996 0.607 7.73 5.59 9.07
4/15/2021 5:00:00 AM 12.21 53.978 0.608 7.74 5.4 9.08
4/15/2021 5:15:00 AM 12.19 53.942 0.608 7.73 6.79 9.1
4/15/2021 5:30:00 AM 12.18 53.924 0.605 7.73 6.52 9.09
4/15/2021 5:45:00 AM 12.17 53.906 0.607 7.73 5.3 9.09
4/15/2021 6:00:00 AM 12.15 53.87 0.606 7.72 5.45 9.1
4/15/2021 6:15:00 AM 12.14 53.852 0.606 7.73 5.4 9.09
4/15/2021 6:30:00 AM 12.13 53.834 0.606 7.72 5.33 9.1
4/15/2021 6:45:00 AM 12.12 53.816 0.606 7.7 5.21 9.1
4/15/2021 7:00:00 AM 12.11 53.798 0.607 7.72 5.4 9.1
4/15/2021 7:15:00 AM 12.1 53.78 0.607 7.72 5.46 9.13
4/15/2021 7:30:00 AM 12.09 53.762 0.608 7.73 4.83 9.14
4/15/2021 7:45:00 AM 12.09 53.762 0.608 7.73 5.41 9.2
4/15/2021 8:00:00 AM 12.09 53.762 0.608 7.73 5.04 9.26
4/15/2021 8:15:00 AM 12.1 53.78 0.607 7.73 4.45 9.33
4/15/2021 8:30:00 AM 12.11 53.798 0.607 7.73 5.11 9.38
4/15/2021 8:45:00 AM 12.12 53.816 0.607 7.74 4.71 9.43
4/15/2021 9:00:00 AM 12.13 53.834 0.607 7.74 4.65 9.48
4/15/2021 9:15:00 AM 12.15 53.87 0.607 7.74 4.42 9.53
4/15/2021 9:30:00 AM 12.17 53.906 0.608 7.75 4.79 9.59
4/15/2021 9:45:00 AM 12.18 53.924 0.607 7.75 4.38 9.65
4/15/2021 10:00:00 AM 12.19 53.942 0.608 7.75 3.89 9.68
4/15/2021 10:15:00 AM 12.22 53.996 0.608 7.74 4.84 9.76
4/15/2021 10:30:00 AM 12.24 54.032 0.608 7.75 3.24 9.82
4/15/2021 10:45:00 AM 12.28 54.104 0.608 7.76 3.58 9.91
4/15/2021 11:00:00 AM 12.32 54.176 0.608 7.77 3.96 10
4/15/2021 11:15:00 AM 12.37 54.266 0.608 7.78 3.31 10.08
4/15/2021 11:30:00 AM 12.41 54.338 0.608 7.79 4.28 10.18
4/15/2021 11:45:00 AM 12.45 54.41 0.608 7.79 3.44 10.25
4/15/2021 12:00:00 PM 12.5 54.5 0.608 7.81 3.4 10.33
4/15/2021 12:15:00 PM 12.53 54.554 0.608 7.81 3.18 10.41
4/15/2021 12:30:00 PM 12.58 54.644 0.608 7.82 3.49 10.49
4/15/2021 12:45:00 PM 12.63 54.734 0.608 7.83 3.35 10.57
4/15/2021 1:00:00 PM 12.67 54.806 0.608 7.84 3.47 10.64
4/15/2021 1:15:00 PM 12.72 54.896 0.609 7.86 3.59 10.73
4/15/2021 1:30:00 PM 12.73 54.914 0.608 7.86 4.4 10.76
4/15/2021 1:45:00 PM 12.74 54.932 0.608 7.87 2.83 10.8
4/15/2021 2:00:00 PM 12.77 54.986 0.609 7.87 3.73 10.86
4/15/2021 2:15:00 PM 12.88 55.184 0.609 7.88 3.01 10.94
4/15/2021 2:30:00 PM 12.96 55.328 0.609 7.89 3.04 11.01
4/15/2021 2:45:00 PM 13.02 55.436 0.609 7.9 2.51 11.07
4/15/2021 3:00:00 PM 13.17 55.706 0.609 7.92 4.7 11.1
4/15/2021 3:15:00 PM 13.22 55.796 0.609 7.91 3.27 11.12
4/15/2021 3:30:00 PM 13.22 55.796 0.609 7.92 4.24 11.11
4/15/2021 3:45:00 PM 13.21 55.778 0.609 7.93 4.37 11.12
4/15/2021 4:00:00 PM 13.12 55.616 0.609 7.93 3.88 11.11
4/15/2021 4:15:00 PM 13.04 55.472 0.609 7.93 3.53 11.07
4/15/2021 4:30:00 PM 12.98 55.364 0.609 7.93 2.94 11.04
4/15/2021 4:45:00 PM 12.95 55.31 0.609 7.93 3.01 11.02
4/15/2021 5:00:00 PM 12.95 55.31 0.61 7.94 2.69 11
4/15/2021 5:15:00 PM 12.97 55.346 0.609 7.95 2.7 10.99
4/15/2021 5:30:00 PM 12.99 55.382 0.61 7.95 3.84 10.98
4/15/2021 5:45:00 PM 12.97 55.346 0.609 7.94 2.94 10.94
4/15/2021 6:00:00 PM 12.94 55.292 0.609 7.94 3.35 10.92
4/15/2021 6:15:00 PM 12.9 55.22 0.609 7.94 2.67 10.89
4/15/2021 6:30:00 PM 12.85 55.13 0.609 7.93 3.05 10.83
4/15/2021 6:45:00 PM 12.81 55.058 0.609 7.92 3.82 10.75
4/15/2021 7:00:00 PM 12.76 54.968 0.609 7.91 3.73 10.68
4/15/2021 7:15:00 PM 12.69 54.842 0.609 7.91 4.48 10.59
4/15/2021 7:30:00 PM 12.62 54.716 0.609 7.91 3.56 10.49
4/15/2021 7:45:00 PM 12.57 54.626 0.609 7.9 3.8 10.39
4/15/2021 8:00:00 PM 12.52 54.536 0.609 7.9 3.23 10.28
4/15/2021 8:15:00 PM 12.49 54.482 0.609 7.89 3.67 10.2
4/15/2021 8:30:00 PM 12.45 54.41 0.61 7.88 4.15 10.11
4/15/2021 8:45:00 PM 12.42 54.356 0.609 7.87 4.01 10.04
4/15/2021 9:00:00 PM 12.37 54.266 0.609 7.86 4.11 9.96
4/15/2021 9:15:00 PM 12.34 54.212 0.609 7.86 5 9.89
4/15/2021 9:30:00 PM 12.3 54.14 0.61 7.85 4.27 9.82
4/15/2021 9:45:00 PM 12.28 54.104 0.609 7.83 5.35 9.75
4/15/2021 10:00:00 PM 12.26 54.068 0.609 7.83 4.9 9.72
4/15/2021 10:15:00 PM 12.22 53.996 0.609 7.83 5.06 9.67
4/15/2021 10:30:00 PM 12.17 53.906 0.609 7.82 5.27 9.63
4/15/2021 10:45:00 PM 12.12 53.816 0.609 7.82 5.19 9.59
4/15/2021 11:00:00 PM 12.07 53.726 0.609 7.79 5.16 9.56
4/15/2021 11:15:00 PM 12.02 53.636 0.609 7.79 4.91 9.52
4/15/2021 11:30:00 PM 11.97 53.546 0.609 7.79 5.78 9.49
4/15/2021 11:45:00 PM 11.92 53.456 0.609 7.78 6.57 9.46
4/16/2021 12:00:00 AM 11.87 53.366 0.609 7.78 5.2 9.44
4/16/2021 12:15:00 AM 11.82 53.276 0.608 7.78 5.64 9.42
4/16/2021 12:30:00 AM 11.78 53.204 0.609 7.77 4.94 9.4
4/16/2021 12:45:00 AM 11.74 53.132 0.609 7.77 6.06 9.38
4/16/2021 1:00:00 AM 11.7 53.06 0.608 7.77 5.85 9.37
4/16/2021 1:15:00 AM 11.65 52.97 0.608 7.77 6.36 9.35
4/16/2021 1:30:00 AM 11.6 52.88 0.607 7.76 5.79 9.35
4/16/2021 1:45:00 AM 11.56 52.808 0.608 7.76 5.54 9.34
4/16/2021 2:00:00 AM 11.51 52.718 0.607 7.76 5.64 9.34
4/16/2021 2:15:00 AM 11.46 52.628 0.608 7.76 5.63 9.34
4/16/2021 2:30:00 AM 11.42 52.556 0.607 7.75 6.87 9.33
4/16/2021 2:45:00 AM 11.39 52.502 0.607 7.75 8.03 9.33
4/16/2021 3:00:00 AM 11.36 52.448 0.607 7.74 5.91 9.32
4/16/2021 3:15:00 AM 11.33 52.394 0.608 7.73 6.4 9.32
4/16/2021 3:30:00 AM 11.3 52.34 0.608 7.73 6.56 9.33
4/16/2021 3:45:00 AM 11.27 52.286 0.608 7.72 6.13 9.35
4/16/2021 4:00:00 AM 11.23 52.214 0.608 7.7 6.11 9.35
4/16/2021 4:15:00 AM 11.2 52.16 0.608 7.72 5.55 9.36
4/16/2021 4:30:00 AM 11.17 52.106 0.608 7.71 6.03 9.36
4/16/2021 4:45:00 AM 11.14 52.052 0.608 7.71 5.77 9.36
4/16/2021 5:00:00 AM 11.11 51.998 0.608 7.71 7.04 9.37
4/16/2021 5:15:00 AM 11.08 51.944 0.608 7.71 7.39 9.38
4/16/2021 5:30:00 AM 11.05 51.89 0.609 7.72 5.9 9.38
4/16/2021 5:45:00 AM 11.01 51.818 0.608 7.72 5.26 9.4
4/16/2021 6:00:00 AM 10.97 51.746 0.608 7.72 6.12 9.41
4/16/2021 6:15:00 AM 10.93 51.674 0.609 7.71 5.15 9.41
4/16/2021 6:30:00 AM 10.89 51.602 0.609 7.72 4.69 9.42
4/16/2021 6:45:00 AM 10.84 51.512 0.609 7.7 5.71 9.44
4/16/2021 7:00:00 AM 10.81 51.458 0.609 7.7 5.66 9.46
4/16/2021 7:15:00 AM 10.79 51.422 0.609 7.7 4.98 9.51
4/16/2021 7:30:00 AM 10.78 51.404 0.609 7.7 4.04 9.56
4/16/2021 7:45:00 AM 10.78 51.404 0.609 7.7 6.78 9.62
4/16/2021 8:00:00 AM 10.77 51.386 0.609 7.66 4.16 9.68
4/16/2021 8:15:00 AM 10.78 51.404 0.61 7.68 4.69 9.76
4/16/2021 8:30:00 AM 10.78 51.404 0.609 7.69 4.19 9.84
4/16/2021 8:45:00 AM 10.8 51.44 0.61 7.71 4.15 9.93
4/16/2021 9:00:00 AM 10.81 51.458 0.61 7.7 3.45 10.04
4/16/2021 9:15:00 AM 10.87 51.566 0.61 7.71 4.04 10.16
4/16/2021 9:30:00 AM 10.94 51.692 0.61 7.73 3.64 10.29
4/16/2021 9:45:00 AM 11.01 51.818 0.61 7.74 3.03 10.39
4/16/2021 10:00:00 AM 11.05 51.89 0.61 7.74 3.44 10.5
4/16/2021 10:15:00 AM 11.17 52.106 0.611 7.76 2.75 10.61
4/16/2021 10:30:00 AM 11.23